Provisional Data: Pine Creek near Telescope, PA


Please select a monitoring station.
Please select start date.
Please select start date.

Toggle Unit: C/F Toggle Unit: C/F
Sample Time Temperature (C) Temperature (F) Specific Conductivity (mS/cm) pH   Turbidity (NTU+) DO (mg/L)
4/13/2022 12:00:00 AM 8.02 46.436 0.072 7.02 2.56 11.24
4/13/2022 12:15:00 AM 7.92 46.256 0.072 7.02 2.67 11.26
4/13/2022 12:30:00 AM 7.82 46.076 0.072 7.04 2.6 11.29
4/13/2022 12:45:00 AM 7.73 45.914 0.072 7.02 2.6 11.31
4/13/2022 1:00:00 AM 7.64 45.752 0.072 7.02 2.52 11.35
4/13/2022 1:15:00 AM 7.55 45.59 0.072 7.02 2.65 11.37
4/13/2022 1:30:00 AM 7.46 45.428 0.072 7.01 2.52 11.4
4/13/2022 1:45:00 AM 7.38 45.284 0.072 7.02 2.42 11.41
4/13/2022 2:00:00 AM 7.3 45.14 0.072 7.01 2.51 11.44
4/13/2022 2:15:00 AM 7.23 45.014 0.072 7.01 2.47 11.47
4/13/2022 2:30:00 AM 7.15 44.87 0.072 7.01 2.42 11.49
4/13/2022 2:45:00 AM 7.08 44.744 0.072 7.02 2.41 11.51
4/13/2022 3:00:00 AM 7.02 44.636 0.072 7.01 2.61 11.52
4/13/2022 3:15:00 AM 6.96 44.528 0.072 7.01 2.48 11.54
4/13/2022 3:30:00 AM 6.9 44.42 0.072 7.02 2.36 11.56
4/13/2022 3:45:00 AM 6.86 44.348 0.072 7.02 2.34 11.58
4/13/2022 4:00:00 AM 6.82 44.276 0.072 7.01 2.38 11.6
4/13/2022 4:15:00 AM 6.8 44.24 0.072 7.02 2.27 11.61
4/13/2022 4:30:00 AM 6.77 44.186 0.072 7.02 2.31 11.62
4/13/2022 4:45:00 AM 6.75 44.15 0.072 7.02 2.33 11.62
4/13/2022 5:00:00 AM 6.73 44.114 0.072 7.02 2.34 11.63
4/13/2022 5:15:00 AM 6.71 44.078 0.072 7.01 2.33 11.63
4/13/2022 5:30:00 AM 6.7 44.06 0.072 7.02 2.34 11.64
4/13/2022 5:45:00 AM 6.69 44.042 0.072 7.02 2.37 11.64
4/13/2022 6:00:00 AM 6.7 44.06 0.072 7.01 2.29 11.63
4/13/2022 6:15:00 AM 6.7 44.06 0.072 7.01 2.36 11.63
4/13/2022 6:30:00 AM 6.7 44.06 0.072 7.01 2.48 11.63
4/13/2022 6:45:00 AM 6.69 44.042 0.071 7.02 2.39 11.64
4/13/2022 7:00:00 AM 6.7 44.06 0.071 7.02 2.26 11.66
4/13/2022 7:15:00 AM 6.7 44.06 0.071 7.03 2.33 11.7
4/13/2022 7:30:00 AM 6.71 44.078 0.071 7.05 2.39 11.75
4/13/2022 7:45:00 AM 6.73 44.114 0.071 7.06 2.27 11.78
4/13/2022 8:00:00 AM 6.75 44.15 0.071 7.07 2.27 11.81
4/13/2022 8:15:00 AM 6.78 44.204 0.071 7.08 2.28 11.83
4/13/2022 8:30:00 AM 6.83 44.294 0.071 7.09 2.12 11.85
4/13/2022 8:45:00 AM 6.9 44.42 0.071 7.1 2.04 11.87
4/13/2022 9:00:00 AM 6.96 44.528 0.071 7.11 2.07 11.87
4/13/2022 9:15:00 AM 7.07 44.726 0.071 7.12 2.08 11.87
4/13/2022 9:30:00 AM 7.19 44.942 0.071 7.13 2.01 11.85
4/13/2022 9:45:00 AM 7.24 45.032 0.07 7.13 2.1 11.82
4/13/2022 10:00:00 AM 7.34 45.212 0.07 7.14 1.96 11.81
4/13/2022 10:15:00 AM 7.46 45.428 0.07 7.15 2.02 11.77
4/13/2022 10:30:00 AM 7.64 45.752 0.07 7.16 1.98 11.73
4/13/2022 10:45:00 AM 7.83 46.094 0.07 7.17 1.96 11.73
4/13/2022 11:00:00 AM 8.09 46.562 0.07 7.18 1.95 11.67
4/13/2022 11:15:00 AM 8.41 47.138 0.07 7.19 1.97 11.61
4/13/2022 11:30:00 AM 8.74 47.732 0.07 7.19 1.98 11.55
4/13/2022 11:45:00 AM 9.06 48.308 0.069 7.2 1.96 11.48
4/13/2022 12:00:00 PM 9.33 48.794 0.069 7.21 1.9 11.41
4/13/2022 12:15:00 PM 9.52 49.136 0.069 7.21 1.9 11.34
4/13/2022 12:30:00 PM 9.67 49.406 0.069 7.22 2.03 11.27
4/13/2022 12:45:00 PM 9.8 49.64 0.069 7.22 1.94 11.23
4/13/2022 1:00:00 PM 9.92 49.856 0.069 7.23 1.96 11.18
4/13/2022 1:15:00 PM 9.99 49.982 0.069 7.23 1.95 11.13
4/13/2022 1:30:00 PM 10.06 50.108 0.069 7.23 1.93 11.07
4/13/2022 1:45:00 PM 10.12 50.216 0.069 7.22 1.99 11.03
4/13/2022 2:00:00 PM 10.28 50.504 0.069 7.22 2.07 11.02
4/13/2022 2:15:00 PM 10.4 50.72 0.069 7.23 2.15 10.99
4/13/2022 2:30:00 PM 10.48 50.864 0.069 7.23 2.15 10.98
4/13/2022 2:45:00 PM 10.54 50.972 0.069 7.24 2.16 10.97
4/13/2022 3:00:00 PM 10.55 50.99 0.069 7.23 2.12 10.94
4/13/2022 3:15:00 PM 10.6 51.08 0.069 7.23 2.23 10.92
4/13/2022 3:30:00 PM 10.67 51.206 0.068 7.24 2.05 10.9
4/13/2022 3:45:00 PM 10.76 51.368 0.068 7.24 2.17 10.89
4/13/2022 4:00:00 PM 10.83 51.494 0.068 7.24 2.16 10.87
4/13/2022 4:15:00 PM 10.85 51.53 0.068 7.24 2.24 10.84
4/13/2022 4:30:00 PM 10.89 51.602 0.068 7.23 2.2 10.81
4/13/2022 4:45:00 PM 10.95 51.71 0.068 7.23 2.18 10.8
4/13/2022 5:00:00 PM 11.01 51.818 0.068 7.24 2.19 10.78
4/13/2022 5:15:00 PM 11.05 51.89 0.068 7.24 2.35 10.77
4/13/2022 5:30:00 PM 11.08 51.944 0.068 7.23 2.27 10.76
4/13/2022 5:45:00 PM 11.1 51.98 0.068 7.23 2.21 10.73
4/13/2022 6:00:00 PM 11.07 51.926 0.068 7.2 2.24 10.62
4/13/2022 6:15:00 PM 11.04 51.872 0.069 7.19 2.32 10.59
4/13/2022 6:30:00 PM 11.01 51.818 0.069 7.16 2.4 10.55
4/13/2022 6:45:00 PM 10.98 51.764 0.069 7.15 2.3 10.54
4/13/2022 7:00:00 PM 10.94 51.692 0.069 7.14 2.35 10.54
4/13/2022 7:15:00 PM 10.87 51.566 0.069 7.13 2.37 10.53
4/13/2022 7:30:00 PM 10.79 51.422 0.069 7.11 2.57 10.54
4/13/2022 7:45:00 PM 10.69 51.242 0.069 7.1 2.31 10.53
4/13/2022 8:00:00 PM 10.59 51.062 0.069 7.07 2.39 10.52
4/13/2022 8:15:00 PM 10.5 50.9 0.069 7.06 2.59 10.51
4/13/2022 8:30:00 PM 10.42 50.756 0.069 7.05 2.68 10.53
4/13/2022 8:45:00 PM 10.33 50.594 0.069 7.03 2.6 10.53
4/13/2022 9:00:00 PM 10.25 50.45 0.07 7.03 2.62 10.54
4/13/2022 9:15:00 PM 10.18 50.324 0.07 7.02 2.71 10.56
4/13/2022 9:30:00 PM 10.1 50.18 0.07 7.03 2.64 10.58
4/13/2022 9:45:00 PM 10.02 50.036 0.07 7.06 2.74 10.6
4/13/2022 10:00:00 PM 9.94 49.892 0.07 7.07 2.55 10.62
4/13/2022 10:15:00 PM 9.87 49.766 0.07 7.06 2.88 10.64
4/13/2022 10:30:00 PM 9.79 49.622 0.07 7.07 2.57 10.66
4/13/2022 10:45:00 PM 9.71 49.478 0.07 7.06 2.67 10.67
4/13/2022 11:00:00 PM 9.63 49.334 0.07 7.05 2.68 10.69
4/13/2022 11:15:00 PM 9.55 49.19 0.07 7.04 2.66 10.71
4/13/2022 11:30:00 PM 9.48 49.064 0.07 7.04 2.74 10.73
4/13/2022 11:45:00 PM 9.4 48.92 0.07 7.03 2.68 10.74
4/14/2022 12:00:00 AM 9.33 48.794 0.07 7.02 4.73 10.75
4/14/2022 12:15:00 AM 9.26 48.668 0.07 7.02 2.58 10.77
4/14/2022 12:30:00 AM 9.2 48.56 0.07 7.01 2.65 10.8
4/14/2022 12:45:00 AM 9.13 48.434 0.07 7.01 2.61 10.82
4/14/2022 1:00:00 AM 9.06 48.308 0.07 7.01 2.63 10.83
4/14/2022 1:15:00 AM 9 48.2 0.07 7.01 2.65 10.85
4/14/2022 1:30:00 AM 8.93 48.074 0.07 7 2.77 10.87
4/14/2022 1:45:00 AM 8.87 47.966 0.07 7 2.82 10.89
4/14/2022 2:00:00 AM 8.81 47.858 0.07 7 2.66 10.91
4/14/2022 2:15:00 AM 8.75 47.75 0.07 7.01 2.67 10.92
4/14/2022 2:30:00 AM 8.7 47.66 0.07 7.01 2.56 10.92
4/14/2022 2:45:00 AM 8.64 47.552 0.07 7.01 2.55 10.93
4/14/2022 3:00:00 AM 8.59 47.462 0.07 7 2.75 10.95
4/14/2022 3:15:00 AM 8.54 47.372 0.07 7 2.58 10.97
4/14/2022 3:30:00 AM 8.48 47.264 0.07 7 2.62 10.99
4/14/2022 3:45:00 AM 8.44 47.192 0.07 7 2.67 11
4/14/2022 4:00:00 AM 8.39 47.102 0.07 7 2.63 11.01
4/14/2022 4:15:00 AM 8.34 47.012 0.07 6.99 2.85 11.01
4/14/2022 4:30:00 AM 8.3 46.94 0.07 6.99 2.62 11.03
4/14/2022 4:45:00 AM 8.25 46.85 0.07 6.99 2.55 11.04
4/14/2022 5:00:00 AM 8.21 46.778 0.07 6.99 2.72 11.05
4/14/2022 5:15:00 AM 8.17 46.706 0.07 6.99 2.7 11.07
4/14/2022 5:30:00 AM 8.13 46.634 0.07 6.99 2.66 11.08
4/14/2022 5:45:00 AM 8.09 46.562 0.07 6.99 2.71 11.09
4/14/2022 6:00:00 AM 8.05 46.49 0.07 6.99 2.91 11.09
4/14/2022 6:15:00 AM 8.01 46.418 0.07 6.99 2.59 11.1
4/14/2022 6:30:00 AM 7.97 46.346 0.07 7 2.72 11.11
4/14/2022 6:45:00 AM 7.93 46.274 0.07 7 2.59 11.13
4/14/2022 7:00:00 AM 7.9 46.22 0.07 7 2.8 11.16
4/14/2022 7:15:00 AM 7.87 46.166 0.07 7.01 2.6 11.21
4/14/2022 7:30:00 AM 7.85 46.13 0.07 7.02 2.51 11.25
4/14/2022 7:45:00 AM 7.84 46.112 0.07 7.03 2.44 11.28
4/14/2022 8:00:00 AM 7.85 46.13 0.07 7.04 2.51 11.34
4/14/2022 8:15:00 AM 7.9 46.22 0.07 7.06 2.51 11.37
4/14/2022 8:30:00 AM 7.92 46.256 0.069 7.07 2.35 11.39
4/14/2022 8:45:00 AM 8 46.4 0.069 7.08 2.19 11.42
4/14/2022 9:00:00 AM 8.09 46.562 0.069 7.1 2.33 11.42
4/14/2022 9:15:00 AM 8.21 46.778 0.069 7.12 2.2 11.43
4/14/2022 9:30:00 AM 8.38 47.084 0.069 7.14 2.26 11.41
4/14/2022 9:45:00 AM 8.55 47.39 0.069 7.17 2.09 11.38
4/14/2022 10:00:00 AM 8.71 47.678 0.069 7.17 2.18 11.34
4/14/2022 10:15:00 AM 8.84 47.912 0.068 7.18 2.12 11.31
4/14/2022 10:30:00 AM 9.07 48.326 0.068 7.19 2.09 11.27
4/14/2022 10:45:00 AM 9.21 48.578 0.068 7.19 2.26 11.2
4/14/2022 11:00:00 AM 9.35 48.83 0.068 7.2 2.22 11.17
4/14/2022 11:15:00 AM 9.44 48.992 0.068 7.2 2.23 11.13
4/14/2022 11:30:00 AM 9.55 49.19 0.068 7.21 2.1 11.1
4/14/2022 11:45:00 AM 9.67 49.406 0.068 7.21 2.18 11.07
4/14/2022 12:00:00 PM 9.77 49.586 0.068 7.21 2.3 11.05
4/14/2022 12:15:00 PM 9.83 49.694 0.068 7.2 2.36 11.02
4/14/2022 12:30:00 PM 9.86 49.748 0.067 7.2 2.35 11.02
4/14/2022 12:45:00 PM 9.89 49.802 0.067 7.2 2.22 11
4/14/2022 1:00:00 PM 9.92 49.856 0.067 7.21 2.23 11.01
4/14/2022 1:15:00 PM 9.91 49.838 0.067 7.2 2.25 10.99
4/14/2022 1:30:00 PM 9.92 49.856 0.067 7.21 2.28 11.01
4/14/2022 1:45:00 PM 9.94 49.892 0.067 7.22 2.28 11.03
4/14/2022 2:00:00 PM 9.96 49.928 0.067 7.23 2.43 11.04
4/14/2022 2:15:00 PM 9.99 49.982 0.067 7.24 2.32 11.05
4/14/2022 2:30:00 PM 10.02 50.036 0.067 7.24 2.34 11.05
4/14/2022 2:45:00 PM 10.05 50.09 0.067 7.25 2.58 11.05
4/14/2022 3:00:00 PM 10.04 50.072 0.067 7.25 2.35 11.04
4/14/2022 3:15:00 PM 10.06 50.108 0.067 7.25 2.4 11.04
4/14/2022 3:30:00 PM 10.14 50.252 0.067 7.25 2.47 11.04
4/14/2022 3:45:00 PM 10.24 50.432 0.067 7.25 2.39 11.03
4/14/2022 4:00:00 PM 10.35 50.63 0.067 7.25 2.31 11.01
4/14/2022 4:15:00 PM 10.41 50.738 0.067 7.25 2.43 10.98
4/14/2022 4:30:00 PM 10.45 50.81 0.067 7.24 2.51 10.94
4/14/2022 4:45:00 PM 10.51 50.918 0.067 7.23 2.37 10.89
4/14/2022 5:00:00 PM 10.56 51.008 0.067 7.22 2.4 10.84
4/14/2022 5:15:00 PM 10.6 51.08 0.067 7.21 2.36 10.81
4/14/2022 5:30:00 PM 10.57 51.026 0.067 7.2 2.41 10.78
4/14/2022 5:45:00 PM 10.52 50.936 0.067 7.19 2.44 10.77
4/14/2022 6:00:00 PM 10.45 50.81 0.067 7.19 2.35 10.78
4/14/2022 6:15:00 PM 10.35 50.63 0.067 7.18 2.48 10.79
4/14/2022 6:30:00 PM 10.21 50.378 0.067 7.17 2.42 10.81
4/14/2022 6:45:00 PM 10.04 50.072 0.067 7.16 2.38 10.83
4/14/2022 7:00:00 PM 9.86 49.748 0.067 7.15 2.52 10.84
4/14/2022 7:15:00 PM 9.69 49.442 0.067 7.15 2.35 10.87
4/14/2022 7:30:00 PM 9.54 49.172 0.067 7.14 2.39 10.88
4/14/2022 7:45:00 PM 9.38 48.884 0.068 7.11 2.37 10.9
4/14/2022 8:00:00 PM 9.21 48.578 0.068 7.1 2.47 10.91
4/14/2022 8:15:00 PM 9.04 48.272 0.068 7.09 2.47 10.93
4/14/2022 8:30:00 PM 8.89 48.002 0.068 7.08 2.55 10.96
4/14/2022 8:45:00 PM 8.75 47.75 0.068 7.06 2.63 11
4/14/2022 9:00:00 PM 8.62 47.516 0.068 7.06 2.58 11.01
4/14/2022 9:15:00 PM 8.49 47.282 0.068 7.06 2.49 11.06
4/14/2022 9:30:00 PM 8.37 47.066 0.068 7.05 2.6 11.09
4/14/2022 9:45:00 PM 8.25 46.85 0.068 7.05 2.65 11.12
4/14/2022 10:00:00 PM 8.12 46.616 0.068 7.04 2.56 11.15
4/14/2022 10:15:00 PM 8 46.4 0.069 7.04 2.62 11.2
4/14/2022 10:30:00 PM 7.88 46.184 0.069 7.04 2.44 11.23
4/14/2022 10:45:00 PM 7.76 45.968 0.069 7.04 2.59 11.27
4/14/2022 11:00:00 PM 7.64 45.752 0.069 7.03 2.67 11.3
4/14/2022 11:15:00 PM 7.52 45.536 0.069 7.04 2.57 11.33
4/14/2022 11:30:00 PM 7.41 45.338 0.069 7.03 2.53 11.37
4/14/2022 11:45:00 PM 7.31 45.158 0.069 7.03 2.5 11.4
4/15/2022 12:00:00 AM 7.2 44.96 0.069 7.03 2.48 11.44
4/15/2022 12:15:00 AM 7.1 44.78 0.069 7.03 2.45 11.47
4/15/2022 12:30:00 AM 7 44.6 0.069 7.03 2.46 11.49
4/15/2022 12:45:00 AM 6.91 44.438 0.069 7.02 2.43 11.52
4/15/2022 1:00:00 AM 6.82 44.276 0.069 7.02 2.38 11.56
4/15/2022 1:15:00 AM 6.73 44.114 0.069 6.98 2.36 11.59
4/15/2022 1:30:00 AM 6.64 43.952 0.069 6.98 2.42 11.61
4/15/2022 1:45:00 AM 6.56 43.808 0.069 6.97 2.37 11.64
4/15/2022 2:00:00 AM 6.48 43.664 0.069 6.96 2.35 11.66
4/15/2022 2:15:00 AM 6.4 43.52 0.069 6.95 2.29 11.69
4/15/2022 2:30:00 AM 6.32 43.376 0.069 6.94 2.33 11.72
4/15/2022 2:45:00 AM 6.26 43.268 0.069 6.94 2.3 11.74
4/15/2022 3:00:00 AM 6.19 43.142 0.069 6.94 2.26 11.76
4/15/2022 3:15:00 AM 6.12 43.016 0.069 6.93 2.37 11.78
4/15/2022 3:30:00 AM 6.05 42.89 0.069 6.93 2.21 11.8
4/15/2022 3:45:00 AM 5.99 42.782 0.069 6.93 2.28 11.82
4/15/2022 4:00:00 AM 5.93 42.674 0.069 6.93 2.3 11.84
4/15/2022 4:15:00 AM 5.87 42.566 0.069 6.94 2.33 11.86
4/15/2022 4:30:00 AM 5.81 42.458 0.069 6.94 2.19 11.89
4/15/2022 4:45:00 AM 5.76 42.368 0.069 6.94 2.25 11.91
4/15/2022 5:00:00 AM 5.7 42.26 0.069 6.94 2.18 11.92
4/15/2022 5:15:00 AM 5.64 42.152 0.069 6.94 2.26 11.93
4/15/2022 5:30:00 AM 5.59 42.062 0.069 6.95 2.27 11.95
4/15/2022 5:45:00 AM 5.54 41.972 0.069 6.95 2.21 11.97
4/15/2022 6:00:00 AM 5.49 41.882 0.069 6.95 2.14 11.98
4/15/2022 6:15:00 AM 5.44 41.792 0.069 6.95 2.12 12.01
4/15/2022 6:30:00 AM 5.39 41.702 0.069 6.96 2.07 12.04
4/15/2022 6:45:00 AM 5.34 41.612 0.069 6.97 1.94 12.07
4/15/2022 7:00:00 AM 5.3 41.54 0.069 6.97 2.07 12.11
4/15/2022 7:15:00 AM 5.26 41.468 0.069 6.99 2.09 12.15
4/15/2022 7:30:00 AM 5.23 41.414 0.069 7 2 12.18
4/15/2022 7:45:00 AM 5.21 41.378 0.069 7.01 1.92 12.23
4/15/2022 8:00:00 AM 5.21 41.378 0.069 7.02 2.01 12.26
4/15/2022 8:15:00 AM 5.22 41.396 0.069 7.04 1.87 12.29
4/15/2022 8:30:00 AM 5.24 41.432 0.068 7.05 1.9 12.32
4/15/2022 8:45:00 AM 5.27 41.486 0.068 7.07 1.9 12.34
4/15/2022 9:00:00 AM 5.34 41.612 0.068 7.09 1.82 12.35
4/15/2022 9:15:00 AM 5.43 41.774 0.068 7.1 1.82 12.35
4/15/2022 9:30:00 AM 5.55 41.99 0.068 7.11 1.74 12.34
4/15/2022 9:45:00 AM 5.69 42.242 0.068 7.13 1.81 12.33
4/15/2022 10:00:00 AM 5.85 42.53 0.068 7.14 1.77 12.29
4/15/2022 10:15:00 AM 6.04 42.872 0.068 7.15 1.75 12.25
4/15/2022 10:30:00 AM 6.28 43.304 0.068 7.17 1.71 12.21
4/15/2022 10:45:00 AM 6.55 43.79 0.068 7.18 1.69 12.13
4/15/2022 11:00:00 AM 6.81 44.258 0.068 7.18 1.84 12.08
4/15/2022 11:15:00 AM 7.08 44.744 0.067 7.19 1.78 11.99
4/15/2022 11:30:00 AM 7.37 45.266 0.067 7.2 1.77 11.93
4/15/2022 11:45:00 AM 7.72 45.896 0.067 7.21 1.65 11.84
4/15/2022 12:00:00 PM 7.94 46.292 0.067 7.22 2.41 11.74
4/15/2022 12:15:00 PM 8.13 46.634 0.067 7.23 1.75 11.68
4/15/2022 12:30:00 PM 8.33 46.994 0.067 7.24 1.73 11.62
4/15/2022 12:45:00 PM 8.41 47.138 0.067 7.24 1.77 11.57
4/15/2022 1:00:00 PM 8.52 47.336 0.067 7.25 1.75 11.52
4/15/2022 1:15:00 PM 8.55 47.39 0.067 7.25 1.86 11.49
4/15/2022 1:30:00 PM 8.66 47.588 0.067 7.26 1.81 11.47
4/15/2022 1:45:00 PM 8.87 47.966 0.067 7.26 1.88 11.45
4/15/2022 2:00:00 PM 8.98 48.164 0.067 7.26 1.96 11.42
4/15/2022 2:15:00 PM 9.08 48.344 0.067 7.26 2.05 11.38
4/15/2022 2:30:00 PM 9.09 48.362 0.067 7.26 1.91 11.36
4/15/2022 2:45:00 PM 9.1 48.38 0.067 7.26 1.94 11.34
4/15/2022 3:00:00 PM 9.1 48.38 0.067 7.25 1.9 11.28
4/15/2022 3:15:00 PM 9.16 48.488 0.067 7.24 2.12 11.27
4/15/2022 3:30:00 PM 9.19 48.542 0.067 7.25 2.05 11.27
4/15/2022 3:45:00 PM 9.21 48.578 0.067 7.25 1.94 11.25
4/15/2022 4:00:00 PM 9.16 48.488 0.067 7.24 1.97 11.22
4/15/2022 4:15:00 PM 9.1 48.38 0.067 7.23 2.09 11.21
4/15/2022 4:30:00 PM 9.09 48.362 0.067 7.23 2.04 11.25
4/15/2022 4:45:00 PM 9.12 48.416 0.067 7.23 2.09 11.25
4/15/2022 5:00:00 PM 9.18 48.524 0.067 7.23 2.12 11.22
4/15/2022 5:15:00 PM 9.23 48.614 0.067 7.23 2.02 11.2
4/15/2022 5:30:00 PM 9.22 48.596 0.067 7.23 3.8 11.21
4/15/2022 5:45:00 PM 9.18 48.524 0.067 7.23 3.93 11.19
4/15/2022 6:00:00 PM 9.16 48.488 0.067 7.22 3.9 11.19
4/15/2022 6:15:00 PM 9.16 48.488 0.067 7.22 2.63 11.17
4/15/2022 6:30:00 PM 9.14 48.452 0.067 7.22 2.32 11.16
4/15/2022 6:45:00 PM 9.07 48.326 0.067 7.21 2.26 11.12
4/15/2022 7:00:00 PM 9 48.2 0.067 7.19 2.57 11.11
4/15/2022 7:15:00 PM 8.95 48.11 0.067 7.18 2.25 11.1
4/15/2022 7:30:00 PM 8.89 48.002 0.067 7.17 2.36 11.07
4/15/2022 7:45:00 PM 8.83 47.894 0.067 7.15 2.31 11.05
4/15/2022 8:00:00 PM 8.76 47.768 0.067 7.14 2.25 11.03
4/15/2022 8:15:00 PM 8.69 47.642 0.068 7.13 2.37 11.03
4/15/2022 8:30:00 PM 8.63 47.534 0.068 7.13 2.36 11.04
4/15/2022 8:45:00 PM 8.57 47.426 0.068 7.12 2.13 11.05
4/15/2022 9:00:00 PM 8.53 47.354 0.068 7.11 2.25 11.05
4/15/2022 9:15:00 PM 8.48 47.264 0.068 7.11 2.39 11.06
4/15/2022 9:30:00 PM 8.42 47.156 0.068 7.1 2.31 11.06
4/15/2022 9:45:00 PM 8.35 47.03 0.068 7.09 2.27 11.08
4/15/2022 10:00:00 PM 8.29 46.922 0.068 7.09 2.31 11.09
4/15/2022 10:15:00 PM 8.25 46.85 0.068 7.08 2.31 11.11
4/15/2022 10:30:00 PM 8.2 46.76 0.068 7.08 2.31 11.12
4/15/2022 10:45:00 PM 8.15 46.67 0.068 7.07 2.5 11.14
4/15/2022 11:00:00 PM 8.1 46.58 0.068 7.07 2.22 11.14
4/15/2022 11:15:00 PM 8.06 46.508 0.068 7.06 2.27 11.16
4/15/2022 11:30:00 PM 8.01 46.418 0.069 7.06 2.15 11.16
4/15/2022 11:45:00 PM 7.98 46.364 0.069 7.06 2.34 11.18
4/16/2022 12:00:00 AM 7.95 46.31 0.069 7.07 2.18 11.18
4/16/2022 12:15:00 AM 7.92 46.256 0.069 7.07 2.1 11.19
4/16/2022 12:30:00 AM 7.91 46.238 0.069 7.07 2.07 11.2
4/16/2022 12:45:00 AM 7.89 46.202 0.069 7.08 2.16 11.21
4/16/2022 1:00:00 AM 7.86 46.148 0.069 7.08 2.14 11.22
4/16/2022 1:15:00 AM 7.83 46.094 0.069 7.08 1.95 11.23
4/16/2022 1:30:00 AM 7.81 46.058 0.069 7.08 2.06 11.23
4/16/2022 1:45:00 AM 7.79 46.022 0.069 7.08 2.14 11.25
4/16/2022 2:00:00 AM 7.77 45.986 0.069 7.08 2.13 11.25
4/16/2022 2:15:00 AM 7.74 45.932 0.069 7.07 2.11 11.26
4/16/2022 2:30:00 AM 7.72 45.896 0.069 7.07 2.11 11.26
4/16/2022 2:45:00 AM 7.7 45.86 0.069 7.07 2.11 11.26
4/16/2022 3:00:00 AM 7.67 45.806 0.069 7.07 2.13 11.27
4/16/2022 3:15:00 AM 7.65 45.77 0.069 7.07 2.14 11.27
4/16/2022 3:30:00 AM 7.63 45.734 0.069 7.07 2.09 11.27
4/16/2022 3:45:00 AM 7.61 45.698 0.069 7.07 2.12 11.29
4/16/2022 4:00:00 AM 7.59 45.662 0.069 7.07 2.09 11.29
4/16/2022 4:15:00 AM 7.57 45.626 0.069 7.07 2.01 11.31
4/16/2022 4:30:00 AM 7.54 45.572 0.069 7.07 2.01 11.32
4/16/2022 4:45:00 AM 7.51 45.518 0.069 7.07 2.01 11.32
4/16/2022 5:00:00 AM 7.49 45.482 0.069 7.06 2.2 11.34
4/16/2022 5:15:00 AM 7.47 45.446 0.069 7.07 2.08 11.34
4/16/2022 5:30:00 AM 7.44 45.392 0.069 7.06 2.1 11.34
4/16/2022 5:45:00 AM 7.42 45.356 0.069 7.06 2.05 11.35
4/16/2022 6:00:00 AM 7.41 45.338 0.069 7.06 2.2 11.35
4/16/2022 6:15:00 AM 7.39 45.302 0.069 7.06 2.12 11.36
4/16/2022 6:30:00 AM 7.38 45.284 0.069 7.06 2.13 11.37
4/16/2022 6:45:00 AM 7.37 45.266 0.069 7.06 2.1 11.38
4/16/2022 7:00:00 AM 7.37 45.266 0.069 7.06 2.06 11.4
4/16/2022 7:15:00 AM 7.37 45.266 0.069 7.07 2.07 11.43
4/16/2022 7:30:00 AM 7.38 45.284 0.069 7.08 1.92 11.44
4/16/2022 7:45:00 AM 7.38 45.284 0.069 7.08 1.91 11.45
4/16/2022 8:00:00 AM 7.4 45.32 0.069 7.09 1.86 11.51
4/16/2022 8:15:00 AM 7.42 45.356 0.069 7.1 1.89 11.53
4/16/2022 8:30:00 AM 7.45 45.41 0.068 7.12 2.05 11.57
4/16/2022 8:45:00 AM 7.5 45.5 0.068 7.13 1.9 11.61
4/16/2022 9:00:00 AM 7.56 45.608 0.068 7.14 1.81 11.62
4/16/2022 9:15:00 AM 7.61 45.698 0.068 7.15 1.93 11.59
4/16/2022 9:30:00 AM 7.65 45.77 0.068 7.16 1.79 11.62
4/16/2022 9:45:00 AM 7.76 45.968 0.068 7.17 1.92 11.63
4/16/2022 10:00:00 AM 7.82 46.076 0.068 7.18 1.83 11.62
4/16/2022 10:15:00 AM 7.84 46.112 0.068 7.18 1.77 11.6
4/16/2022 10:30:00 AM 7.84 46.112 0.068 7.17 1.73 11.57
4/16/2022 10:45:00 AM 7.84 46.112 0.068 7.17 1.85 11.54
4/16/2022 11:00:00 AM 7.85 46.13 0.068 7.16 1.75 11.5
4/16/2022 11:15:00 AM 7.84 46.112 0.068 7.16 1.82 11.47
4/16/2022 11:30:00 AM 7.82 46.076 0.068 7.15 1.81 11.47
4/16/2022 11:45:00 AM 7.81 46.058 0.067 7.15 2.05 11.46
4/16/2022 12:00:00 PM 7.77 45.986 0.067 7.15 2.07 11.47
4/16/2022 12:15:00 PM 7.74 45.932 0.067 7.15 2.01 11.52
4/16/2022 12:30:00 PM 7.73 45.914 0.067 7.16 2.03 11.53
4/16/2022 12:45:00 PM 7.69 45.842 0.067 7.16 2.12 11.52
4/16/2022 1:00:00 PM 7.63 45.734 0.066 7.16 2.51 11.53
4/16/2022 1:15:00 PM 7.6 45.68 0.066 7.16 2.54 11.57
4/16/2022 1:30:00 PM 7.55 45.59 0.066 7.16 2.78 11.56
4/16/2022 1:45:00 PM 7.49 45.482 0.066 7.15 2.75 11.56
4/16/2022 2:00:00 PM 7.48 45.464 0.065 7.15 2.99 11.62
4/16/2022 2:15:00 PM 7.48 45.464 0.065 7.14 3.43 11.64
4/16/2022 2:30:00 PM 7.52 45.536 0.066 7.13 4 11.67
4/16/2022 2:45:00 PM 7.52 45.536 0.066 7.13 4.37 11.67
4/16/2022 3:00:00 PM 7.48 45.464 0.066 7.11 4.83 11.64
4/16/2022 3:15:00 PM 7.44 45.392 0.066 7.11 4.9 11.63
4/16/2022 3:30:00 PM 7.47 45.446 0.066 7.12 5.45 11.64
4/16/2022 3:45:00 PM 7.48 45.464 0.066 7.13 4.7 11.64
4/16/2022 4:00:00 PM 7.49 45.482 0.067 7.13 4.1 11.64
4/16/2022 4:15:00 PM 7.5 45.5 0.067 7.14 4.53 11.66
4/16/2022 4:30:00 PM 7.48 45.464 0.068 7.13 4.88 11.62
4/16/2022 4:45:00 PM 7.48 45.464 0.068 7.12 4.6 11.64
4/16/2022 5:00:00 PM 7.5 45.5 0.069 7.13 4.68 11.64
4/16/2022 5:15:00 PM 7.56 45.608 0.069 7.16 4.12 11.65
4/16/2022 5:30:00 PM 7.6 45.68 0.069 7.15 3.83 11.64
4/16/2022 5:45:00 PM 7.62 45.716 0.069 7.15 3.99 11.62
4/16/2022 6:00:00 PM 7.6 45.68 0.07 7.15 3.78 11.61
4/16/2022 6:15:00 PM 7.58 45.644 0.07 7.14 3.8 11.59
4/16/2022 6:30:00 PM 7.58 45.644 0.07 7.14 3.4 11.59
4/16/2022 6:45:00 PM 7.56 45.608 0.07 7.13 3.46 11.56
4/16/2022 7:00:00 PM 7.5 45.5 0.07 7.12 3.23 11.55
4/16/2022 7:15:00 PM 7.44 45.392 0.07 7.11 3.21 11.51
4/16/2022 7:30:00 PM 7.4 45.32 0.07 7.1 3.08 11.49
4/16/2022 7:45:00 PM 7.35 45.23 0.07 7.09 3.11 11.46
4/16/2022 8:00:00 PM 7.28 45.104 0.07 7.08 2.85 11.45
4/16/2022 8:15:00 PM 7.22 44.996 0.07 7.07 3.02 11.45
4/16/2022 8:30:00 PM 7.15 44.87 0.07 7.06 2.97 11.46
4/16/2022 8:45:00 PM 7.08 44.744 0.07 7.06 2.8 11.47
4/16/2022 9:00:00 PM 7.01 44.618 0.07 7.06 2.8 11.48
4/16/2022 9:15:00 PM 6.94 44.492 0.07 7.05 2.75 11.49
4/16/2022 9:30:00 PM 6.87 44.366 0.07 7.05 2.73 11.51
4/16/2022 9:45:00 PM 6.79 44.222 0.071 7.05 2.59 11.54
4/16/2022 10:00:00 PM 6.71 44.078 0.071 7.04 2.61 11.57
4/16/2022 10:15:00 PM 6.63 43.934 0.071 7.05 2.67 11.59
4/16/2022 10:30:00 PM 6.56 43.808 0.071 7.04 2.48 11.61
4/16/2022 10:45:00 PM 6.49 43.682 0.071 7.04 2.39 11.63
4/16/2022 11:00:00 PM 6.42 43.556 0.071 7.04 2.39 11.64
4/16/2022 11:15:00 PM 6.35 43.43 0.071 7.04 2.38 11.67
4/16/2022 11:30:00 PM 6.28 43.304 0.071 7.04 2.43 11.7
4/16/2022 11:45:00 PM 6.23 43.214 0.071 7.04 2.34 11.73
4/17/2022 12:00:00 AM 6.19 43.142 0.071 7.03 2.21 11.74
4/17/2022 12:15:00 AM 6.14 43.052 0.071 7.04 2.27 11.76
4/17/2022 12:30:00 AM 6.11 42.998 0.071 7.03 2.14 11.77
4/17/2022 12:45:00 AM 6.07 42.926 0.071 7.03 2.18 11.78
4/17/2022 1:00:00 AM 6.03 42.854 0.071 7.04 2.11 11.79
4/17/2022 1:15:00 AM 6 42.8 0.071 7.04 2.08 11.8
4/17/2022 1:30:00 AM 5.96 42.728 0.071 7.04 2.05 11.81
4/17/2022 1:45:00 AM 5.94 42.692 0.071 7.04 1.99 11.82
4/17/2022 2:00:00 AM 5.91 42.638 0.071 7.04 2.01 11.83
4/17/2022 2:15:00 AM 5.88 42.584 0.071 7.04 2.04 11.84
4/17/2022 2:30:00 AM 5.84 42.512 0.071 7.03 2.04 11.86
4/17/2022 2:45:00 AM 5.81 42.458 0.071 7.02 2.06 11.87
4/17/2022 3:00:00 AM 5.77 42.386 0.071 7.02 1.99 11.88
4/17/2022 3:15:00 AM 5.74 42.332 0.071 7.03 1.94 11.89
4/17/2022 3:30:00 AM 5.71 42.278 0.071 7.03 2.04 11.9
4/17/2022 3:45:00 AM 5.68 42.224 0.071 7.03 2.04 11.91
4/17/2022 4:00:00 AM 5.65 42.17 0.071 7.03 1.89 11.92
4/17/2022 4:15:00 AM 5.63 42.134 0.071 7.03 2.2 11.92
4/17/2022 4:30:00 AM 5.6 42.08 0.071 7.03 1.94 11.93
4/17/2022 4:45:00 AM 5.58 42.044 0.071 7.03 1.99 11.94
4/17/2022 5:00:00 AM 5.55 41.99 0.071 7.02 2.15 11.95
4/17/2022 5:15:00 AM 5.52 41.936 0.071 7.02 1.89 11.95
4/17/2022 5:30:00 AM 5.5 41.9 0.071 7.03 1.84 11.97
4/17/2022 5:45:00 AM 5.47 41.846 0.071 7.03 1.85 11.97
4/17/2022 6:00:00 AM 5.44 41.792 0.071 7.03 1.93 11.99
4/17/2022 6:15:00 AM 5.42 41.756 0.071 7.03 1.87 12
4/17/2022 6:30:00 AM 5.4 41.72 0.071 7.03 1.76 12.02
4/17/2022 6:45:00 AM 5.38 41.684 0.071 7.03 1.85 12.04
4/17/2022 7:00:00 AM 5.36 41.648 0.071 7.04 1.87 12.07
4/17/2022 7:15:00 AM 5.34 41.612 0.071 7.05 1.83 12.1
4/17/2022 7:30:00 AM 5.29 41.522 0.071 7.05 1.78 12.13
4/17/2022 7:45:00 AM 5.28 41.504 0.071 7.07 1.79 12.18
4/17/2022 8:00:00 AM 5.21 41.378 0.071 7.07 1.65 12.19
4/17/2022 8:15:00 AM 5.15 41.27 0.071 7.07 1.71 12.21
4/17/2022 8:30:00 AM 5.14 41.252 0.071 7.08 1.92 12.28
4/17/2022 8:45:00 AM 5.19 41.342 0.07 7.1 1.65 12.33
4/17/2022 9:00:00 AM 5.2 41.36 0.07 7.11 1.63 12.37
4/17/2022 9:15:00 AM 5.24 41.432 0.07 7.13 1.63 12.4
4/17/2022 9:30:00 AM 5.28 41.504 0.07 7.14 1.57 12.42
4/17/2022 9:45:00 AM 5.32 41.576 0.07 7.15 1.62 12.44
4/17/2022 10:00:00 AM 5.42 41.756 0.07 7.16 1.51 12.44
4/17/2022 10:15:00 AM 5.46 41.828 0.07 7.16 1.5 12.43
4/17/2022 10:30:00 AM 5.5 41.9 0.07 7.16 1.5 12.43
4/17/2022 10:45:00 AM 5.57 42.026 0.07 7.17 1.48 12.42
4/17/2022 11:00:00 AM 5.67 42.206 0.07 7.17 1.43 12.4
4/17/2022 11:15:00 AM 5.8 42.44 0.07 7.17 1.54 12.37
4/17/2022 11:30:00 AM 5.86 42.548 0.069 7.18 1.5 12.35
4/17/2022 11:45:00 AM 5.93 42.674 0.069 7.18 1.58 12.32
4/17/2022 12:00:00 PM 6.22 43.196 0.069 7.19 1.43 12.29
4/17/2022 12:15:00 PM 6.27 43.286 0.069 7.19 1.43 12.25
4/17/2022 12:30:00 PM 6.51 43.718 0.069 7.19 1.62 12.2
4/17/2022 12:45:00 PM 6.63 43.934 0.069 7.19 1.48 12.16
4/17/2022 1:00:00 PM 6.79 44.222 0.069 7.2 1.49 12.1
4/17/2022 1:15:00 PM 6.93 44.474 0.069 7.2 1.5 12.05
4/17/2022 1:30:00 PM 7.09 44.762 0.069 7.2 1.45 12.02
4/17/2022 1:45:00 PM 7.29 45.122 0.069 7.21 1.5 11.96
4/17/2022 2:00:00 PM 7.34 45.212 0.069 7.21 1.49 11.91
4/17/2022 2:15:00 PM 7.46 45.428 0.069 7.21 1.49 11.89
4/17/2022 2:30:00 PM 7.63 45.734 0.069 7.21 1.48 11.86
4/17/2022 2:45:00 PM 7.83 46.094 0.069 7.21 1.56 11.81
4/17/2022 3:00:00 PM 7.88 46.184 0.069 7.22 1.54 11.76
4/17/2022 3:15:00 PM 7.87 46.166 0.069 7.22 1.55 11.75
4/17/2022 3:30:00 PM 7.86 46.148 0.069 7.22 1.48 11.74
4/17/2022 3:45:00 PM 7.89 46.202 0.069 7.22 1.62 11.73
4/17/2022 4:00:00 PM 8 46.4 0.069 7.22 1.49 11.7
4/17/2022 4:15:00 PM 8.16 46.688 0.069 7.23 1.61 11.68
4/17/2022 4:30:00 PM 8.2 46.76 0.069 7.22 1.76 11.63
4/17/2022 4:45:00 PM 8.19 46.742 0.069 7.21 1.77 11.58
4/17/2022 5:00:00 PM 8.13 46.634 0.069 7.21 1.71 11.58
4/17/2022 5:15:00 PM 8.1 46.58 0.069 7.21 1.82 11.59
4/17/2022 5:30:00 PM 8.03 46.454 0.069 7.2 1.72 11.57
4/17/2022 5:45:00 PM 7.92 46.256 0.069 7.2 1.72 11.58
4/17/2022 6:00:00 PM 7.82 46.076 0.069 7.2 1.66 11.63
4/17/2022 6:15:00 PM 7.7 45.86 0.069 7.19 1.74 11.63
4/17/2022 6:30:00 PM 7.6 45.68 0.069 7.18 1.71 11.63
4/17/2022 6:45:00 PM 7.48 45.464 0.069 7.17 1.66 11.65
4/17/2022 7:00:00 PM 7.34 45.212 0.069 7.16 1.66 11.67
4/17/2022 7:15:00 PM 7.22 44.996 0.069 7.15 2.02 11.66
4/17/2022 7:30:00 PM 7.12 44.816 0.07 7.14 1.59 11.67
4/17/2022 7:45:00 PM 7.03 44.654 0.07 7.13 1.57 11.67
4/17/2022 8:00:00 PM 6.91 44.438 0.07 7.12 1.63 11.69
4/17/2022 8:15:00 PM 6.79 44.222 0.07 7.11 1.66 11.69
4/17/2022 8:30:00 PM 6.67 44.006 0.07 7.09 1.67 11.7
4/17/2022 8:45:00 PM 6.57 43.826 0.07 7.09 1.75 11.73
4/17/2022 9:00:00 PM 6.47 43.646 0.07 7.08 1.89 11.75
4/17/2022 9:15:00 PM 6.37 43.466 0.07 7.07 1.83 11.78
4/17/2022 9:30:00 PM 6.27 43.286 0.07 7.07 1.84 11.79
4/17/2022 9:45:00 PM 6.18 43.124 0.07 7.07 2.07 11.82
4/17/2022 10:00:00 PM 6.08 42.944 0.07 7.06 2 11.86
4/17/2022 10:15:00 PM 5.99 42.782 0.071 7.06 2.41 11.9
4/17/2022 10:30:00 PM 5.9 42.62 0.071 7.06 1.96 11.92
4/17/2022 10:45:00 PM 5.81 42.458 0.071 7.05 2.04 11.95
4/17/2022 11:00:00 PM 5.72 42.296 0.071 7.05 1.83 11.96
4/17/2022 11:15:00 PM 5.63 42.134 0.071 7.05 2.12 12
4/17/2022 11:30:00 PM 5.55 41.99 0.071 7.05 1.96 12.03
4/17/2022 11:45:00 PM 5.47 41.846 0.071 7.05 1.77 12.06
4/18/2022 12:00:00 AM 5.38 41.684 0.071 7.05 1.63 12.08
4/18/2022 12:15:00 AM 5.31 41.558 0.071 7.04 1.77 12.11
4/18/2022 12:30:00 AM 5.23 41.414 0.071 7.04 1.75 12.13
4/18/2022 12:45:00 AM 5.16 41.288 0.071 7.02 1.84 12.15
4/18/2022 1:00:00 AM 5.08 41.144 0.071 7.02 1.78 12.17
4/18/2022 1:15:00 AM 5.01 41.018 0.071 7.01 1.78 12.21
4/18/2022 1:30:00 AM 4.94 40.892 0.071 7.01 1.68 12.24
4/18/2022 1:45:00 AM 4.87 40.766 0.071 7 1.65 12.26
4/18/2022 2:00:00 AM 4.8 40.64 0.071 7.01 1.63 12.28
4/18/2022 2:15:00 AM 4.74 40.532 0.071 7 1.62 12.3
4/18/2022 2:30:00 AM 4.67 40.406 0.071 7 1.75 12.32
4/18/2022 2:45:00 AM 4.61 40.298 0.071 6.99 1.61 12.34
4/18/2022 3:00:00 AM 4.54 40.172 0.071 6.99 1.72 12.36
4/18/2022 3:15:00 AM 4.48 40.064 0.071 6.99 1.86 12.38
4/18/2022 3:30:00 AM 4.42 39.956 0.071 6.99 1.72 12.4
4/18/2022 3:45:00 AM 4.36 39.848 0.071 6.98 1.71 12.43
4/18/2022 4:00:00 AM 4.3 39.74 0.071 6.98 1.7 12.45
4/18/2022 4:15:00 AM 4.24 39.632 0.071 6.98 1.66 12.47
4/18/2022 4:30:00 AM 4.18 39.524 0.071 6.98 1.89 12.48
4/18/2022 4:45:00 AM 4.13 39.434 0.071 6.97 1.59 12.5
4/18/2022 5:00:00 AM 4.08 39.344 0.071 6.97 1.61 12.52
4/18/2022 5:15:00 AM 4.02 39.236 0.071 6.98 1.75 12.53
4/18/2022 5:30:00 AM 3.97 39.146 0.071 6.98 1.61 12.55
4/18/2022 5:45:00 AM 3.92 39.056 0.071 6.97 1.64 12.56
4/18/2022 6:00:00 AM 3.86 38.948 0.071 6.97 1.55 12.57
4/18/2022 6:15:00 AM 3.81 38.858 0.071 6.98 1.61 12.6
4/18/2022 6:30:00 AM 3.76 38.768 0.071 6.98 1.51 12.62
4/18/2022 6:45:00 AM 3.72 38.696 0.071 6.98 1.5 12.66
4/18/2022 7:00:00 AM 3.68 38.624 0.071 6.99 1.52 12.71
4/18/2022 7:15:00 AM 3.64 38.552 0.071 7 1.48 12.75
4/18/2022 7:30:00 AM 3.63 38.534 0.071 7.02 1.44 12.8
4/18/2022 7:45:00 AM 3.63 38.534 0.071 7.03 1.38 12.84
4/18/2022 8:00:00 AM 3.64 38.552 0.071 7.04 1.45 12.87
4/18/2022 8:15:00 AM 3.67 38.606 0.071 7.06 1.48 12.9
4/18/2022 8:30:00 AM 3.69 38.642 0.071 7.07 1.33 12.92
4/18/2022 8:45:00 AM 3.75 38.75 0.071 7.08 1.31 12.92
4/18/2022 9:00:00 AM 3.85 38.93 0.071 7.09 1.39 12.93
4/18/2022 9:15:00 AM 3.97 39.146 0.071 7.11 1.38 12.92
4/18/2022 9:30:00 AM 4.04 39.272 0.071 7.12 1.26 12.91
4/18/2022 9:45:00 AM 4.12 39.416 0.07 7.13 1.26 12.89
4/18/2022 10:00:00 AM 4.2 39.56 0.07 7.13 1.41 12.86
4/18/2022 10:15:00 AM 4.33 39.794 0.07 7.14 1.3 12.82
4/18/2022 10:30:00 AM 4.47 40.046 0.07 7.15 1.27 12.77
4/18/2022 10:45:00 AM 4.62 40.316 0.07 7.16 1.32 12.73
4/18/2022 11:00:00 AM 4.76 40.568 0.07 7.17 1.29 12.7
4/18/2022 11:15:00 AM 4.88 40.784 0.07 7.17 1.3 12.66
4/18/2022 11:30:00 AM 4.95 40.91 0.07 7.18 1.27 12.61
4/18/2022 11:45:00 AM 5.02 41.036 0.07 7.18 1.27 12.58
4/18/2022 12:00:00 PM 5.08 41.144 0.07 7.19 1.37 12.53
4/18/2022 12:15:00 PM 5.13 41.234 0.07 7.19 1.38 12.51
4/18/2022 12:30:00 PM 5.17 41.306 0.07 7.19 1.27 12.49
4/18/2022 12:45:00 PM 5.23 41.414 0.069 7.19 1.3 12.46
4/18/2022 1:00:00 PM 5.28 41.504 0.069 7.2 1.29 12.44
4/18/2022 1:15:00 PM 5.31 41.558 0.069 7.19 1.35 12.43
4/18/2022 1:30:00 PM 5.36 41.648 0.069 7.2 1.28 12.42
4/18/2022 1:45:00 PM 5.42 41.756 0.069 7.2 1.32 12.42
4/18/2022 2:00:00 PM 5.48 41.864 0.069 7.2 1.29 12.4
4/18/2022 2:15:00 PM 5.49 41.882 0.069 7.21 1.38 12.37
4/18/2022 2:30:00 PM 5.48 41.864 0.069 7.2 1.31 12.35
4/18/2022 2:45:00 PM 5.45 41.81 0.069 7.2 1.34 12.34
4/18/2022 3:00:00 PM 5.42 41.756 0.069 7.2 1.31 12.34
4/18/2022 3:15:00 PM 5.39 41.702 0.069 7.2 1.32 12.33
4/18/2022 3:30:00 PM 5.37 41.666 0.069 7.19 1.34 12.32
4/18/2022 3:45:00 PM 5.31 41.558 0.069 7.19 1.4 12.31
4/18/2022 4:00:00 PM 5.25 41.45 0.069 7.18 1.41 12.29
4/18/2022 4:15:00 PM 5.15 41.27 0.069 7.17 1.4 12.3
4/18/2022 4:30:00 PM 5.01 41.018 0.069 7.17 1.45 12.29
4/18/2022 4:45:00 PM 4.88 40.784 0.069 7.16 1.55 12.31
4/18/2022 5:00:00 PM 4.79 40.622 0.069 7.15 1.41 12.34
4/18/2022 5:15:00 PM 4.61 40.298 0.069 7.14 1.51 12.36
4/18/2022 5:30:00 PM 4.48 40.064 0.069 7.14 1.6 12.38
4/18/2022 5:45:00 PM 4.41 39.938 0.069 7.13 1.6 12.41
4/18/2022 6:00:00 PM 4.35 39.83 0.069 7.13 1.61 12.44
4/18/2022 6:15:00 PM 4.29 39.722 0.069 7.13 1.54 12.46
4/18/2022 6:30:00 PM 4.21 39.578 0.069 7.12 1.59 12.47
4/18/2022 6:45:00 PM 4.13 39.434 0.069 7.11 1.65 12.49
4/18/2022 7:00:00 PM 4.05 39.29 0.069 7.1 1.55 12.5
4/18/2022 7:15:00 PM 3.96 39.128 0.069 7.1 1.6 12.52
4/18/2022 7:30:00 PM 3.88 38.984 0.069 7.09 1.54 12.53
4/18/2022 7:45:00 PM 3.85 38.93 0.069 7.08 1.56 12.53
4/18/2022 8:00:00 PM 3.83 38.894 0.069 7.07 1.61 12.52
4/18/2022 8:15:00 PM 3.83 38.894 0.069 7.07 1.59 12.52
4/18/2022 8:30:00 PM 3.84 38.912 0.069 7.06 1.59 12.51
4/18/2022 8:45:00 PM 3.84 38.912 0.069 7.06 1.66 12.51
4/18/2022 9:00:00 PM 3.79 38.822 0.069 7.05 1.59 12.51
4/18/2022 9:15:00 PM 3.78 38.804 0.069 7.05 1.77 12.51
4/18/2022 9:30:00 PM 3.78 38.804 0.069 7.05 1.72 12.51
4/18/2022 9:45:00 PM 3.79 38.822 0.069 7.05 1.67 12.51
4/18/2022 10:00:00 PM 3.81 38.858 0.069 7.04 1.79 12.49
4/18/2022 10:15:00 PM 3.83 38.894 0.07 7.05 1.67 12.49
4/18/2022 10:30:00 PM 3.84 38.912 0.07 7.04 1.61 12.48
4/18/2022 10:45:00 PM 3.85 38.93 0.071 7.04 1.66 12.47
4/18/2022 11:00:00 PM 3.84 38.912 0.071 7.04 1.57 12.47
4/18/2022 11:15:00 PM 3.85 38.93 0.07 7.04 1.87 12.47
4/18/2022 11:30:00 PM 3.86 38.948 0.07 7.05 1.84 12.47
4/18/2022 11:45:00 PM 3.88 38.984 0.07 7.04 1.78 12.45
4/19/2022 12:00:00 AM 3.89 39.002 0.07 7.04 1.59 12.44
4/19/2022 12:15:00 AM 3.9 39.02 0.071 7.04 1.6 12.44
4/19/2022 12:30:00 AM 3.92 39.056 0.071 7.04 1.58 12.43
4/19/2022 12:45:00 AM 3.93 39.074 0.071 7.05 1.5 12.42
4/19/2022 1:00:00 AM 3.94 39.092 0.071 7.05 1.53 12.41
4/19/2022 1:15:00 AM 3.94 39.092 0.071 7.04 1.51 12.41
4/19/2022 1:30:00 AM 3.94 39.092 0.071 7.05 1.53 12.4
4/19/2022 1:45:00 AM 3.96 39.128 0.071 7.04 1.56 12.4
4/19/2022 2:00:00 AM 3.98 39.164 0.071 7.04 1.43 12.39
4/19/2022 2:15:00 AM 4 39.2 0.071 7.05 1.5 12.39
4/19/2022 2:30:00 AM 4.03 39.254 0.072 7.04 1.49 12.38
4/19/2022 2:45:00 AM 4.05 39.29 0.072 7.05 1.41 12.38
4/19/2022 3:00:00 AM 4.07 39.326 0.072 7.05 1.39 12.36
4/19/2022 3:15:00 AM 4.09 39.362 0.072 7.05 1.4 12.34
4/19/2022 3:30:00 AM 4.11 39.398 0.072 7.05 1.38 12.34
4/19/2022 3:45:00 AM 4.12 39.416 0.073 7.05 1.48 12.34
4/19/2022 4:00:00 AM 4.14 39.452 0.073 7.05 1.47 12.32
4/19/2022 4:15:00 AM 4.15 39.47 0.073 7.05 1.4 12.32
4/19/2022 4:30:00 AM 4.15 39.47 0.073 7.05 1.44 12.31
4/19/2022 4:45:00 AM 4.16 39.488 0.073 7.05 1.38 12.31
4/19/2022 5:00:00 AM 4.18 39.524 0.073 7.06 1.43 12.3
4/19/2022 5:15:00 AM 4.19 39.542 0.074 7.05 1.49 12.29
4/19/2022 5:30:00 AM 4.22 39.596 0.074 7.05 1.4 12.28
4/19/2022 5:45:00 AM 4.23 39.614 0.074 7.05 1.45 12.28
4/19/2022 6:00:00 AM 4.24 39.632 0.074 7.05 1.45 12.27
4/19/2022 6:15:00 AM 4.24 39.632 0.074 7.05 1.45 12.27
4/19/2022 6:30:00 AM 4.24 39.632 0.074 7.06 1.4 12.27
4/19/2022 6:45:00 AM 4.25 39.65 0.074 7.06 1.44 12.29
4/19/2022 7:00:00 AM 4.26 39.668 0.074 7.07 1.43 12.3
4/19/2022 7:15:00 AM 4.25 39.65 0.074 7.07 1.43 12.32
4/19/2022 7:30:00 AM 4.29 39.722 0.075 7.08 1.4 12.33
4/19/2022 7:45:00 AM 4.31 39.758 0.075 7.09 1.38 12.36
4/19/2022 8:00:00 AM 4.33 39.794 0.075 7.1 1.4 12.39
4/19/2022 8:15:00 AM 4.33 39.794 0.075 7.11 1.31 12.43
4/19/2022 8:30:00 AM 4.32 39.776 0.075 7.12 1.33 12.46
4/19/2022 8:45:00 AM 4.31 39.758 0.074 7.13 1.35 12.48
4/19/2022 9:00:00 AM 4.34 39.812 0.074 7.13 1.42 12.49
4/19/2022 9:15:00 AM 4.41 39.938 0.074 7.14 1.35 12.51
4/19/2022 9:30:00 AM 4.41 39.938 0.074 7.15 1.31 12.51
4/19/2022 9:45:00 AM 4.47 40.046 0.074 7.15 1.39 12.5
4/19/2022 10:00:00 AM 4.56 40.208 0.074 7.16 1.31 12.51
4/19/2022 10:15:00 AM 4.56 40.208 0.074 7.17 1.35 12.52
4/19/2022 10:30:00 AM 4.66 40.388 0.074 7.17 1.43 12.49
4/19/2022 10:45:00 AM 4.76 40.568 0.074 7.17 1.41 12.47
4/19/2022 11:00:00 AM 4.83 40.694 0.073 7.18 1.35 12.44
4/19/2022 11:15:00 AM 4.91 40.838 0.073 7.18 1.32 12.42
4/19/2022 11:30:00 AM 4.95 40.91 0.073 7.18 1.41 12.41
4/19/2022 11:45:00 AM 5.05 41.09 0.073 7.19 1.4 12.41
4/19/2022 12:00:00 PM 5.22 41.396 0.073 7.19 1.44 12.37
4/19/2022 12:15:00 PM 5.33 41.594 0.073 7.19 1.44 12.34
4/19/2022 12:30:00 PM 5.45 41.81 0.073 7.2 1.44 12.3
4/19/2022 12:45:00 PM 5.56 42.008 0.073 7.2 1.49 12.28
4/19/2022 1:00:00 PM 5.62 42.116 0.073 7.2 1.39 12.25
4/19/2022 1:15:00 PM 5.72 42.296 0.073 7.2 1.46 12.23
4/19/2022 1:30:00 PM 5.78 42.404 0.072 7.21 1.35 12.21
4/19/2022 1:45:00 PM 5.86 42.548 0.072 7.21 1.37 12.18
4/19/2022 2:00:00 PM 5.94 42.692 0.072 7.21 1.38 12.15
4/19/2022 2:15:00 PM 6.04 42.872 0.072 7.21 1.38 12.12
4/19/2022 2:30:00 PM 6.13 43.034 0.072 7.22 1.4 12.1
4/19/2022 2:45:00 PM 6.17 43.106 0.072 7.22 1.39 12.08
4/19/2022 3:00:00 PM 6.24 43.232 0.072 7.22 1.58 12.07
4/19/2022 3:15:00 PM 6.26 43.268 0.072 7.22 1.35 12.04
4/19/2022 3:30:00 PM 6.3 43.34 0.072 7.22 1.4 12.03
4/19/2022 3:45:00 PM 6.37 43.466 0.072 7.22 1.48 12.01
4/19/2022 4:00:00 PM 6.38 43.484 0.072 7.22 1.53 11.99
4/19/2022 4:15:00 PM 6.38 43.484 0.072 7.22 1.49 11.99
4/19/2022 4:30:00 PM 6.35 43.43 0.072 7.22 1.49 11.99
4/19/2022 4:45:00 PM 6.31 43.358 0.072 7.22 1.52 11.98
4/19/2022 5:00:00 PM 6.29 43.322 0.072 7.21 1.5 11.97
4/19/2022 5:15:00 PM 6.27 43.286 0.072 7.21 1.56 11.98
4/19/2022 5:30:00 PM 6.24 43.232 0.072 7.21 1.55 11.99
4/19/2022 5:45:00 PM 6.2 43.16 0.073 7.21 1.56 11.99
4/19/2022 6:00:00 PM 6.15 43.07 0.073 7.2 1.54 12
4/19/2022 6:15:00 PM 6.07 42.926 0.073 7.2 1.5 12
4/19/2022 6:30:00 PM 5.99 42.782 0.073 7.19 1.62 11.99
4/19/2022 6:45:00 PM 5.89 42.602 0.073 7.18 1.57 11.99
4/19/2022 7:00:00 PM 5.82 42.476 0.073 7.17 1.62 11.99
4/19/2022 7:15:00 PM 5.74 42.332 0.074 7.16 1.62 11.98
4/19/2022 7:30:00 PM 5.65 42.17 0.074 7.15 1.62 11.98
4/19/2022 7:45:00 PM 5.55 41.99 0.074 7.14 1.66 11.99
4/19/2022 8:00:00 PM 5.46 41.828 0.074 7.13 1.69 11.99
4/19/2022 8:15:00 PM 5.38 41.684 0.074 7.12 1.73 11.99
4/19/2022 8:30:00 PM 5.32 41.576 0.074 7.11 1.69 12
4/19/2022 8:45:00 PM 5.26 41.468 0.074 7.1 1.68 12.01
4/19/2022 9:00:00 PM 5.2 41.36 0.075 7.09 1.69 12.04
4/19/2022 9:15:00 PM 5.14 41.252 0.075 7.09 1.72 12.06
4/19/2022 9:30:00 PM 5.08 41.144 0.075 7.09 1.73 12.09
4/19/2022 9:45:00 PM 5.03 41.054 0.075 7.09 1.68 12.11
4/19/2022 10:00:00 PM 4.99 40.982 0.075 7.08 1.83 12.13
4/19/2022 10:15:00 PM 4.95 40.91 0.075 7.08 1.71 12.15
4/19/2022 10:30:00 PM 4.9 40.82 0.076 7.08 1.74 12.15
4/19/2022 10:45:00 PM 4.86 40.748 0.076 7.08 1.61 12.17
4/19/2022 11:00:00 PM 4.83 40.694 0.076 7.08 1.67 12.18
4/19/2022 11:15:00 PM 4.8 40.64 0.076 7.08 1.67 12.19
4/19/2022 11:30:00 PM 4.77 40.586 0.076 7.08 1.71 12.2
4/19/2022 11:45:00 PM 4.73 40.514 0.076 7.07 1.67 12.21
4/20/2022 12:00:00 AM 4.71 40.478 0.076 7.08 1.72 12.23
4/20/2022 12:15:00 AM 4.68 40.424 0.076 7.07 1.62 12.25
4/20/2022 12:30:00 AM 4.65 40.37 0.076 7.07 1.66 12.26
4/20/2022 12:45:00 AM 4.64 40.352 0.076 7.07 1.63 12.27
4/20/2022 1:00:00 AM 4.6 40.28 0.076 7.07 1.66 12.28
4/20/2022 1:15:00 AM 4.55 40.19 0.076 7.07 1.68 12.3
4/20/2022 1:30:00 AM 4.52 40.136 0.076 7.07 1.52 12.32
4/20/2022 1:45:00 AM 4.5 40.1 0.077 7.07 1.56 12.32
4/20/2022 2:00:00 AM 4.49 40.082 0.077 7.07 1.62 12.33
4/20/2022 2:15:00 AM 4.47 40.046 0.077 7.07 1.57 12.34
4/20/2022 2:30:00 AM 4.46 40.028 0.077 7.07 1.58 12.35
4/20/2022 2:45:00 AM 4.45 40.01 0.077 7.07 1.6 12.36
4/20/2022 3:00:00 AM 4.45 40.01 0.077 7.06 1.46 12.36
4/20/2022 3:15:00 AM 4.44 39.992 0.077 7.06 1.55 12.36
4/20/2022 3:30:00 AM 4.43 39.974 0.077 7.06 1.57 12.37
4/20/2022 3:45:00 AM 4.41 39.938 0.077 7.07 1.52 12.37
4/20/2022 4:00:00 AM 4.38 39.884 0.077 7.06 1.52 12.38
4/20/2022 4:15:00 AM 4.37 39.866 0.077 7.06 1.38 12.38
4/20/2022 4:30:00 AM 4.36 39.848 0.077 7.06 1.48 12.38
4/20/2022 4:45:00 AM 4.33 39.794 0.077 7.06 1.47 12.39
4/20/2022 5:00:00 AM 4.32 39.776 0.077 7.06 1.47 12.4
4/20/2022 5:15:00 AM 4.3 39.74 0.077 7.05 1.4 12.41
4/20/2022 5:30:00 AM 4.28 39.704 0.077 7.06 1.45 12.42
4/20/2022 5:45:00 AM 4.25 39.65 0.077 7.06 1.43 12.43
4/20/2022 6:00:00 AM 4.24 39.632 0.077 7.06 1.46 12.44
4/20/2022 6:15:00 AM 4.22 39.596 0.077 7.06 1.42 12.46
4/20/2022 6:30:00 AM 4.2 39.56 0.077 7.06 1.37 12.48
4/20/2022 6:45:00 AM 4.18 39.524 0.077 7.06 1.46 12.51
4/20/2022 7:00:00 AM 4.16 39.488 0.077 7.07 1.79 12.56
4/20/2022 7:15:00 AM 4.17 39.506 0.076 7.08 1.45 12.61
4/20/2022 7:30:00 AM 4.18 39.524 0.076 7.09 1.33 12.65
4/20/2022 7:45:00 AM 4.18 39.524 0.076 7.1 1.41 12.69
4/20/2022 8:00:00 AM 4.19 39.542 0.076 7.11 1.31 12.71
4/20/2022 8:15:00 AM 4.2 39.56 0.076 7.12 1.36 12.74
4/20/2022 8:30:00 AM 4.26 39.668 0.076 7.13 1.48 12.75
4/20/2022 8:45:00 AM 4.3 39.74 0.076 7.13 1.37 12.76
4/20/2022 9:00:00 AM 4.38 39.884 0.076 7.14 1.34 12.76
4/20/2022 9:15:00 AM 4.48 40.064 0.076 7.15 1.36 12.75
4/20/2022 9:30:00 AM 4.59 40.262 0.076 7.15 1.27 12.74
4/20/2022 9:45:00 AM 4.68 40.424 0.076 7.15 1.36 12.72
4/20/2022 10:00:00 AM 4.83 40.694 0.075 7.16 1.32 12.71
4/20/2022 10:15:00 AM 5.01 41.018 0.075 7.16 1.33 12.68
4/20/2022 10:30:00 AM 5.21 41.378 0.075 7.17 1.3 12.62
4/20/2022 10:45:00 AM 5.41 41.738 0.075 7.17 1.34 12.57
4/20/2022 11:00:00 AM 5.62 42.116 0.075 7.17 1.28 12.53
4/20/2022 11:15:00 AM 5.87 42.566 0.075 7.17 1.28 12.45
4/20/2022 11:30:00 AM 6.13 43.034 0.075 7.18 1.28 12.39
4/20/2022 11:45:00 AM 6.42 43.556 0.075 7.18 1.32 12.3
4/20/2022 12:00:00 PM 6.7 44.06 0.074 7.19 1.27 12.22
4/20/2022 12:15:00 PM 7 44.6 0.074 7.19 1.31 12.15
4/20/2022 12:30:00 PM 7.3 45.14 0.074 7.19 1.39 12.06
4/20/2022 12:45:00 PM 7.59 45.662 0.074 7.2 1.35 11.98
4/20/2022 1:00:00 PM 7.86 46.148 0.074 7.2 1.31 11.89
4/20/2022 1:15:00 PM 8.13 46.634 0.074 7.21 1.34 11.81
4/20/2022 1:30:00 PM 8.36 47.048 0.074 7.21 1.33 11.74
4/20/2022 1:45:00 PM 8.58 47.444 0.074 7.21 1.36 11.68
4/20/2022 2:00:00 PM 8.79 47.822 0.074 7.22 1.4 11.6
4/20/2022 2:15:00 PM 8.97 48.146 0.074 7.22 1.47 11.55
4/20/2022 2:30:00 PM 9.15 48.47 0.074 7.22 1.45 11.5
4/20/2022 2:45:00 PM 9.3 48.74 0.073 7.23 1.48 11.43
4/20/2022 3:00:00 PM 9.45 49.01 0.157 7.22 1.55 11.39
4/20/2022 3:15:00 PM 9.56 49.208 0.422 7.2 1.55 11.34
4/20/2022 3:30:00 PM 9.65 49.37 0.411 7.21 1.63 11.3
4/20/2022 3:45:00 PM 9.71 49.478 0.19 7.23 1.65 11.29
4/20/2022 4:00:00 PM 9.77 49.586 0.223 7.23 1.73 11.25
4/20/2022 4:15:00 PM 9.79 49.622 0.073 7.24 1.75 11.23
4/20/2022 4:30:00 PM 9.8 49.64 0.073 7.24 1.74 11.21
4/20/2022 4:45:00 PM 9.79 49.622 0.074 7.23 1.87 11.19
4/20/2022 5:00:00 PM 9.76 49.568 0.074 7.23 1.8 11.18
4/20/2022 5:15:00 PM 9.71 49.478 0.074 7.23 1.87 11.17
4/20/2022 5:30:00 PM 9.65 49.37 0.074 7.22 1.84 11.16
4/20/2022 5:45:00 PM 9.56 49.208 0.074 7.22 1.97 11.17
4/20/2022 6:00:00 PM 9.47 49.046 0.074 7.21 1.92 11.18
4/20/2022 6:15:00 PM 9.36 48.848 0.074 7.2 1.94 11.19
4/20/2022 6:30:00 PM 9.23 48.614 0.074 7.2 1.98 11.22
4/20/2022 6:45:00 PM 9.1 48.38 0.074 7.19 1.98 11.23
4/20/2022 7:00:00 PM 8.95 48.11 0.074 7.18 1.99 11.25
4/20/2022 7:15:00 PM 8.79 47.822 0.074 7.18 1.92 11.26
4/20/2022 7:30:00 PM 8.63 47.534 0.074 7.16 1.87 11.28
4/20/2022 7:45:00 PM 8.48 47.264 0.074 7.15 2.01 11.3
4/20/2022 8:00:00 PM 8.32 46.976 0.074 7.14 1.98 11.3
4/20/2022 8:15:00 PM 8.16 46.688 0.075 7.13 1.97 11.32
4/20/2022 8:30:00 PM 8 46.4 0.074 7.12 1.96 11.35
4/20/2022 8:45:00 PM 7.86 46.148 0.074 7.11 1.97 11.38
4/20/2022 9:00:00 PM 7.73 45.914 0.079 7.1 1.94 11.41
4/20/2022 9:15:00 PM 7.61 45.698 0.074 7.1 1.98 11.44
4/20/2022 9:30:00 PM 7.49 45.482 0.074 7.09 2.09 11.48
4/20/2022 9:45:00 PM 7.37 45.266 0.074 7.08 2.03 11.49
4/20/2022 10:00:00 PM 7.25 45.05 0.082 7.08 1.94 11.54
4/20/2022 10:15:00 PM 7.13 44.834 0.074 7.08 1.93 11.58
4/20/2022 10:30:00 PM 7.01 44.618 0.084 7.07 1.94 11.61
4/20/2022 10:45:00 PM 6.9 44.42 0.075 7.07 2.02 11.63
4/20/2022 11:00:00 PM 6.79 44.222 0.075 7.07 1.92 11.67
4/20/2022 11:15:00 PM 6.71 44.078 0.075 7.07 1.88 11.71
4/20/2022 11:30:00 PM 6.63 43.934 0.075 7.07 5.9 11.73
4/20/2022 11:45:00 PM 6.53 43.754 0.075 7.06 1.92 11.75
4/21/2022 12:00:00 AM 6.44 43.592 0.075 7.06 1.93 11.77
4/21/2022 12:15:00 AM 6.35 43.43 0.075 7.06 1.9 11.8
4/21/2022 12:30:00 AM 6.27 43.286 0.075 7.06 1.75 11.83
4/21/2022 12:45:00 AM 6.19 43.142 0.075 7.05 1.82 11.86
4/21/2022 1:00:00 AM 6.11 42.998 0.075 7.05 1.76 11.88
4/21/2022 1:15:00 AM 6.05 42.89 0.075 7.05 1.71 11.89
4/21/2022 1:30:00 AM 5.99 42.782 0.074 7.05 1.77 11.91
4/21/2022 1:45:00 AM 5.92 42.656 0.074 7.05 1.79 11.93
4/21/2022 2:00:00 AM 5.85 42.53 0.074 7.05 1.72 11.95
4/21/2022 2:15:00 AM 5.79 42.422 0.074 7.05 1.67 11.97
4/21/2022 2:30:00 AM 5.72 42.296 0.074 7.05 1.72 12
4/21/2022 2:45:00 AM 5.66 42.188 0.074 7.04 1.63 12.02
4/21/2022 3:00:00 AM 5.61 42.098 0.074 7.04 1.67 12.02
4/21/2022 3:15:00 AM 5.56 42.008 0.074 7.05 1.69 12.04
4/21/2022 3:30:00 AM 5.53 41.954 0.074 7.04 1.63 12.05
4/21/2022 3:45:00 AM 5.49 41.882 0.074 7.04 1.67 12.06
4/21/2022 4:00:00 AM 5.46 41.828 0.074 7.04 1.76 12.07
4/21/2022 4:15:00 AM 5.44 41.792 0.074 7.04 1.66 12.09
4/21/2022 4:30:00 AM 5.42 41.756 0.074 7.04 1.65 12.09
4/21/2022 4:45:00 AM 5.41 41.738 0.074 7.04 1.68 12.1
4/21/2022 5:00:00 AM 5.41 41.738 0.074 7.04 1.67 12.11
4/21/2022 5:15:00 AM 5.41 41.738 0.074 7.04 1.65 12.11
4/21/2022 5:30:00 AM 5.42 41.756 0.074 7.04 1.55 12.1
4/21/2022 5:45:00 AM 5.43 41.774 0.074 7.04 1.6 12.1
4/21/2022 6:00:00 AM 5.44 41.792 0.074 7.04 1.66 12.09
4/21/2022 6:15:00 AM 5.45 41.81 0.074 7.04 1.68 12.09
4/21/2022 6:30:00 AM 5.46 41.828 0.074 7.05 1.58 12.09
4/21/2022 6:45:00 AM 5.46 41.828 0.074 7.05 1.58 12.12
4/21/2022 7:00:00 AM 5.46 41.828 0.074 7.06 1.57 12.13
4/21/2022 7:15:00 AM 5.49 41.882 0.074 7.07 1.7 12.18
4/21/2022 7:30:00 AM 5.53 41.954 0.074 7.08 1.54 12.22
4/21/2022 7:45:00 AM 5.57 42.026 0.074 7.1 1.6 12.24
4/21/2022 8:00:00 AM 5.62 42.116 0.074 7.11 1.55 12.26
4/21/2022 8:15:00 AM 5.66 42.188 0.073 7.12 1.52 12.28
4/21/2022 8:30:00 AM 5.72 42.296 0.073 7.13 1.59 12.3
4/21/2022 8:45:00 AM 5.78 42.404 0.073 7.14 1.59 12.29
4/21/2022 9:00:00 AM 5.87 42.566 0.073 7.15 1.47 12.3
4/21/2022 9:15:00 AM 5.96 42.728 0.073 7.16 1.47 12.3
4/21/2022 9:30:00 AM 6.09 42.962 0.073 7.17 1.45 12.29
4/21/2022 9:45:00 AM 6.18 43.124 0.073 7.18 1.52 12.27
4/21/2022 10:00:00 AM 6.28 43.304 0.073 7.18 1.45 12.23
4/21/2022 10:15:00 AM 6.33 43.394 0.073 7.18 1.43 12.2
4/21/2022 10:30:00 AM 6.37 43.466 0.072 7.18 1.5 12.15
4/21/2022 10:45:00 AM 6.44 43.592 0.072 7.19 1.41 12.16
4/21/2022 11:00:00 AM 6.48 43.664 0.072 7.18 1.41 12.11
4/21/2022 11:15:00 AM 6.57 43.826 0.072 7.19 1.43 12.1
4/21/2022 11:30:00 AM 6.64 43.952 0.072 7.19 1.43 12.07
4/21/2022 11:45:00 AM 6.72 44.096 0.072 7.19 1.45 12.05
4/21/2022 12:00:00 PM 6.75 44.15 0.072 7.19 1.4 12.03
4/21/2022 12:15:00 PM 6.77 44.186 0.072 7.19 1.45 11.99
4/21/2022 12:30:00 PM 6.79 44.222 0.072 7.19 1.49 11.98
4/21/2022 12:45:00 PM 6.8 44.24 0.072 7.18 1.41 11.95
4/21/2022 1:00:00 PM 6.82 44.276 0.072 7.18 1.42 11.93
4/21/2022 1:15:00 PM 6.85 44.33 0.072 7.18 1.42 11.93
4/21/2022 1:30:00 PM 6.87 44.366 0.072 7.18 1.53 11.92
4/21/2022 1:45:00 PM 6.9 44.42 0.071 7.18 1.49 11.91
4/21/2022 2:00:00 PM 6.91 44.438 0.071 7.17 1.48 11.91
4/21/2022 2:15:00 PM 6.94 44.492 0.071 7.17 1.52 11.9
4/21/2022 2:30:00 PM 6.96 44.528 0.071 7.17 1.66 11.89
4/21/2022 2:45:00 PM 6.98 44.564 0.071 7.18 1.49 11.89
4/21/2022 3:00:00 PM 7 44.6 0.071 7.18 1.48 11.87
4/21/2022 3:15:00 PM 7.02 44.636 0.071 7.18 1.48 11.86
4/21/2022 3:30:00 PM 7.04 44.672 0.071 7.17 1.52 11.84
4/21/2022 3:45:00 PM 7.07 44.726 0.071 7.17 1.55 11.84
4/21/2022 4:00:00 PM 7.09 44.762 0.071 7.17 1.5 11.82
4/21/2022 4:15:00 PM 7.11 44.798 0.071 7.17 1.62 11.81
4/21/2022 4:30:00 PM 7.13 44.834 0.071 7.17 1.51 11.8
4/21/2022 4:45:00 PM 7.15 44.87 0.071 7.16 1.52 11.79
4/21/2022 5:00:00 PM 7.17 44.906 0.071 7.16 1.59 11.77
4/21/2022 5:15:00 PM 7.18 44.924 0.072 7.15 1.61 11.75
4/21/2022 5:30:00 PM 7.2 44.96 0.072 7.15 1.53 11.74
4/21/2022 5:45:00 PM 7.22 44.996 0.072 7.15 1.64 11.73
4/21/2022 6:00:00 PM 7.24 45.032 0.072 7.15 1.58 11.73
4/21/2022 6:15:00 PM 7.26 45.068 0.072 7.15 1.63 11.72
4/21/2022 6:30:00 PM 7.29 45.122 0.072 7.14 1.63 11.73
4/21/2022 6:45:00 PM 7.31 45.158 0.072 7.15 1.59 11.72
4/21/2022 7:00:00 PM 7.32 45.176 0.072 7.14 1.63 11.7
4/21/2022 7:15:00 PM 7.33 45.194 0.072 7.13 1.6 11.68
4/21/2022 7:30:00 PM 7.34 45.212 0.072 7.12 1.69 11.65
4/21/2022 7:45:00 PM 7.34 45.212 0.072 7.11 1.62 11.63
4/21/2022 8:00:00 PM 7.34 45.212 0.072 7.1 1.6 11.6
4/21/2022 8:15:00 PM 7.32 45.176 0.072 7.09 1.74 11.57
4/21/2022 8:30:00 PM 7.31 45.158 0.072 7.08 1.75 11.56
4/21/2022 8:45:00 PM 7.28 45.104 0.072 7.07 1.82 11.56
4/21/2022 9:00:00 PM 7.27 45.086 0.072 7.06 1.75 11.55
4/21/2022 9:15:00 PM 7.26 45.068 0.072 7.06 1.77 11.55
4/21/2022 9:30:00 PM 7.23 45.014 0.073 7.05 1.76 11.55
4/21/2022 9:45:00 PM 7.2 44.96 0.073 7.04 1.79 11.55
4/21/2022 10:00:00 PM 7.18 44.924 0.073 7.04 1.78 11.57
4/21/2022 10:15:00 PM 7.16 44.888 0.073 7.03 1.86 11.57
4/21/2022 10:30:00 PM 7.13 44.834 0.073 7.03 1.84 11.57
4/21/2022 10:45:00 PM 7.11 44.798 0.073 7.03 1.82 11.58
4/21/2022 11:00:00 PM 7.07 44.726 0.073 7.03 1.96 11.59
4/21/2022 11:15:00 PM 7.05 44.69 0.073 7.03 1.76 11.59
4/21/2022 11:30:00 PM 7.04 44.672 0.073 7.03 1.72 11.6
4/21/2022 11:45:00 PM 7.03 44.654 0.073 7.02 1.79 11.6
4/22/2022 12:00:00 AM 7.02 44.636 0.073 7.02 1.76 11.61
4/22/2022 12:15:00 AM 7 44.6 0.073 7.02 1.88 11.62
4/22/2022 12:30:00 AM 6.98 44.564 0.073 7.02 1.74 11.62
4/22/2022 12:45:00 AM 6.95 44.51 0.073 7.02 1.85 11.63
4/22/2022 1:00:00 AM 6.92 44.456 0.073 7.02 1.77 11.64
4/22/2022 1:15:00 AM 6.89 44.402 0.073 7.02 1.78 11.65
4/22/2022 1:30:00 AM 6.85 44.33 0.073 7.03 1.69 11.67
4/22/2022 1:45:00 AM 6.82 44.276 0.073 7.02 1.78 11.67
4/22/2022 2:00:00 AM 6.79 44.222 0.073 7.02 1.85 11.68
4/22/2022 2:15:00 AM 6.76 44.168 0.073 7.02 1.75 11.69
4/22/2022 2:30:00 AM 6.72 44.096 0.073 7.02 1.72 11.7
4/22/2022 2:45:00 AM 6.68 44.024 0.073 7.02 1.82 11.71
4/22/2022 3:00:00 AM 6.65 43.97 0.073 7.02 1.78 11.72
4/22/2022 3:15:00 AM 6.61 43.898 0.073 7.02 1.63 11.73
4/22/2022 3:30:00 AM 6.58 43.844 0.073 7.02 1.78 11.74
4/22/2022 3:45:00 AM 6.52 43.736 0.073 7.02 1.73 11.77
4/22/2022 4:00:00 AM 6.46 43.628 0.073 7.02 1.67 11.79
4/22/2022 4:15:00 AM 6.39 43.502 0.073 7.02 1.72 11.81
4/22/2022 4:30:00 AM 6.32 43.376 0.073 7.02 1.72 11.83
4/22/2022 4:45:00 AM 6.26 43.268 0.073 7.02 1.73 11.85
4/22/2022 5:00:00 AM 6.2 43.16 0.073 7.02 1.64 11.87
4/22/2022 5:15:00 AM 6.14 43.052 0.073 7.02 1.71 11.88
4/22/2022 5:30:00 AM 6.09 42.962 0.073 7.02 1.68 11.91
4/22/2022 5:45:00 AM 6.03 42.854 0.073 7.02 1.84 11.93
4/22/2022 6:00:00 AM 5.98 42.764 0.073 7.02 1.68 11.95
4/22/2022 6:15:00 AM 5.93 42.674 0.073 7.02 1.63 11.97
4/22/2022 6:30:00 AM 5.88 42.584 0.073 7.02 1.66 12
4/22/2022 6:45:00 AM 5.84 42.512 0.073 7.03 1.62 12.04
4/22/2022 7:00:00 AM 5.8 42.44 0.073 7.03 1.63 12.08
4/22/2022 7:15:00 AM 5.76 42.368 0.073 7.05 1.61 12.13
4/22/2022 7:30:00 AM 5.74 42.332 0.072 7.05 1.64 12.17
4/22/2022 7:45:00 AM 5.73 42.314 0.072 7.07 1.62 12.22
4/22/2022 8:00:00 AM 5.73 42.314 0.072 7.08 1.53 12.25
4/22/2022 8:15:00 AM 5.74 42.332 0.072 7.09 1.58 12.29
4/22/2022 8:30:00 AM 5.77 42.386 0.072 7.1 1.53 12.31
4/22/2022 8:45:00 AM 5.81 42.458 0.072 7.11 1.44 12.33
4/22/2022 9:00:00 AM 5.88 42.584 0.072 7.12 1.54 12.34
4/22/2022 9:15:00 AM 5.96 42.728 0.072 7.13 1.5 12.35
4/22/2022 9:30:00 AM 6.05 42.89 0.072 7.13 1.6 12.35
4/22/2022 9:45:00 AM 6.16 43.088 0.072 7.14 1.49 12.34
4/22/2022 10:00:00 AM 6.31 43.358 0.072 7.15 1.39 12.31
4/22/2022 10:15:00 AM 6.5 43.7 0.071 7.15 1.51 12.29
4/22/2022 10:30:00 AM 6.71 44.078 0.071 7.16 1.51 12.24
4/22/2022 10:45:00 AM 6.94 44.492 0.071 7.16 1.42 12.19
4/22/2022 11:00:00 AM 7.18 44.924 0.071 7.17 1.47 12.12
4/22/2022 11:15:00 AM 7.44 45.392 0.071 7.17 1.54 12.08
4/22/2022 11:30:00 AM 7.72 45.896 0.071 7.18 1.51 12
4/22/2022 11:45:00 AM 7.99 46.382 0.071 7.18 1.53 11.91
4/22/2022 12:00:00 PM 8.3 46.94 0.071 7.19 1.49 11.84
4/22/2022 12:15:00 PM 8.6 47.48 0.07 7.2 1.48 11.75
4/22/2022 12:30:00 PM 8.91 48.038 0.07 7.2 1.47 11.67
4/22/2022 12:45:00 PM 9.2 48.56 0.07 7.2 1.53 11.59
4/22/2022 1:00:00 PM 9.47 49.046 0.07 7.21 1.45 11.52
4/22/2022 1:15:00 PM 9.73 49.514 0.07 7.21 1.49 11.44
4/22/2022 1:30:00 PM 9.96 49.928 0.07 7.22 1.52 11.37
4/22/2022 1:45:00 PM 10.19 50.342 0.07 7.22 1.51 11.3
4/22/2022 2:00:00 PM 10.4 50.72 0.07 7.22 1.5 11.23
4/22/2022 2:15:00 PM 10.6 51.08 0.07 7.23 1.53 11.17
4/22/2022 2:30:00 PM 10.77 51.386 0.07 7.23 1.59 11.11
4/22/2022 2:45:00 PM 10.92 51.656 0.07 7.23 1.65 11.06
4/22/2022 3:00:00 PM 11.06 51.908 0.07 7.23 1.66 11.02
4/22/2022 3:15:00 PM 11.18 52.124 0.07 7.24 1.6 10.98
4/22/2022 3:30:00 PM 11.28 52.304 0.07 7.24 1.69 10.94
4/22/2022 3:45:00 PM 11.36 52.448 0.07 7.25 1.75 10.92
4/22/2022 4:00:00 PM 11.4 52.52 0.07 7.25 1.72 10.89
4/22/2022 4:15:00 PM 11.4 52.52 0.069 7.25 1.86 10.88
4/22/2022 4:30:00 PM 11.38 52.484 0.069 7.25 1.85 10.86
4/22/2022 4:45:00 PM 11.35 52.43 0.069 7.25 1.76 10.86
4/22/2022 5:00:00 PM 11.31 52.358 0.069 7.25 1.86 10.86
4/22/2022 5:15:00 PM 11.25 52.25 0.069 7.25 1.89 10.87
4/22/2022 5:30:00 PM 11.14 52.052 0.069 7.25 1.81 10.87
4/22/2022 5:45:00 PM 11.04 51.872 0.069 7.24 1.81 10.88
4/22/2022 6:00:00 PM 10.92 51.656 0.069 7.24 1.82 10.9
4/22/2022 6:15:00 PM 10.8 51.44 0.069 7.23 2.04 10.91
4/22/2022 6:30:00 PM 10.68 51.224 0.07 7.23 1.84 10.93
4/22/2022 6:45:00 PM 10.55 50.99 0.07 7.22 2.07 10.94
4/22/2022 7:00:00 PM 10.41 50.738 0.07 7.21 1.77 10.95
4/22/2022 7:15:00 PM 10.27 50.486 0.07 7.19 1.96 10.94
4/22/2022 7:30:00 PM 10.14 50.252 0.07 7.17 1.89 10.93
4/22/2022 7:45:00 PM 10 50 0.07 7.16 1.92 10.93
4/22/2022 8:00:00 PM 9.85 49.73 0.07 7.14 1.95 10.92
4/22/2022 8:15:00 PM 9.72 49.496 0.07 7.12 2.08 10.92
4/22/2022 8:30:00 PM 9.58 49.244 0.07 7.1 1.96 10.93
4/22/2022 8:45:00 PM 9.46 49.028 0.071 7.1 10.09 10.95
4/22/2022 9:00:00 PM 9.33 48.794 0.07 7.09 1.72 10.97
4/22/2022 9:15:00 PM 9.2 48.56 0.071 7.08 1.79 11.01
4/22/2022 9:30:00 PM 9.08 48.344 0.071 7.07 2.05 11.03
4/22/2022 9:45:00 PM 8.95 48.11 0.071 7.07 2.16 11.07
4/22/2022 10:00:00 PM 8.83 47.894 0.071 7.07 1.94 11.1
4/22/2022 10:15:00 PM 8.71 47.678 0.071 7.07 1.91 11.14
4/22/2022 10:30:00 PM 8.6 47.48 0.071 7.07 1.95 11.17
4/22/2022 10:45:00 PM 8.5 47.3 0.071 7.06 2.04 11.2
4/22/2022 11:00:00 PM 8.41 47.138 0.071 7.07 1.85 11.23
4/22/2022 11:15:00 PM 8.32 46.976 0.071 7.07 1.94 11.26
4/22/2022 11:30:00 PM 8.23 46.814 0.071 7.07 2.06 11.29
4/22/2022 11:45:00 PM 8.15 46.67 0.071 7.06 1.97 11.31
4/23/2022 12:00:00 AM 8.08 46.544 0.071 7.06 1.98 11.33
4/23/2022 12:15:00 AM 8 46.4 0.071 7.06 2.06 11.36
4/23/2022 12:30:00 AM 7.94 46.292 0.071 7.06 2.14 11.38
4/23/2022 12:45:00 AM 7.87 46.166 0.071 7.06 2.33 11.4
4/23/2022 1:00:00 AM 7.82 46.076 0.071 7.06 2.25 11.41
4/23/2022 1:15:00 AM 7.76 45.968 0.071 7.05 1.89 11.42
4/23/2022 1:30:00 AM 7.71 45.878 0.071 7.06 1.87 11.43
4/23/2022 1:45:00 AM 7.67 45.806 0.071 7.06 1.95 11.45
4/23/2022 2:00:00 AM 7.63 45.734 0.071 7.06 1.87 11.47
4/23/2022 2:15:00 AM 7.59 45.662 0.071 7.05 1.94 11.48
4/23/2022 2:30:00 AM 7.55 45.59 0.071 7.05 1.74 11.49
4/23/2022 2:45:00 AM 7.52 45.536 0.071 7.05 2.01 11.49
4/23/2022 3:00:00 AM 7.49 45.482 0.071 7.05 1.76 11.5
4/23/2022 3:15:00 AM 7.46 45.428 0.071 7.05 2.02 11.51
4/23/2022 3:30:00 AM 7.43 45.374 0.071 7.05 1.94 11.51
4/23/2022 3:45:00 AM 7.41 45.338 0.071 7.05 1.85 11.52
4/23/2022 4:00:00 AM 7.39 45.302 0.071 7.05 2 11.52
4/23/2022 4:15:00 AM 7.36 45.248 0.071 7.05 1.89 11.53
4/23/2022 4:30:00 AM 7.34 45.212 0.071 7.05 1.93 11.54
4/23/2022 4:45:00 AM 7.32 45.176 0.071 7.05 2.05 11.54
4/23/2022 5:00:00 AM 7.3 45.14 0.071 7.05 1.84 11.55
4/23/2022 5:15:00 AM 7.28 45.104 0.071 7.05 2.47 11.55
4/23/2022 5:30:00 AM 7.26 45.068 0.071 7.05 2.09 11.56
4/23/2022 5:45:00 AM 7.24 45.032 0.071 7.05 1.89 11.57
4/23/2022 6:00:00 AM 7.22 44.996 0.071 7.05 2.26 11.58
4/23/2022 6:15:00 AM 7.21 44.978 0.071 7.04 1.79 11.58
4/23/2022 6:30:00 AM 7.19 44.942 0.071 7.05 1.8 11.59
4/23/2022 6:45:00 AM 7.18 44.924 0.071 7.05 1.71 11.6
4/23/2022 7:00:00 AM 7.17 44.906 0.071 7.05 1.76 11.62
4/23/2022 7:15:00 AM 7.16 44.888 0.071 7.06 1.71 11.65
4/23/2022 7:30:00 AM 7.16 44.888 0.071 7.06 1.76 11.69
4/23/2022 7:45:00 AM 7.17 44.906 0.071 7.08 1.67 11.74
4/23/2022 8:00:00 AM 7.18 44.924 0.071 7.09 1.57 11.79
4/23/2022 8:15:00 AM 7.2 44.96 0.071 7.1 1.73 11.82
4/23/2022 8:30:00 AM 7.21 44.978 0.071 7.11 1.57 11.83
4/23/2022 8:45:00 AM 7.24 45.032 0.07 7.13 1.6 11.86
4/23/2022 9:00:00 AM 7.29 45.122 0.07 7.13 1.47 11.88
4/23/2022 9:15:00 AM 7.35 45.23 0.07 7.15 1.53 11.89
4/23/2022 9:30:00 AM 7.45 45.41 0.07 7.16 1.6 11.9
4/23/2022 9:45:00 AM 7.53 45.554 0.07 7.17 1.58 11.9
4/23/2022 10:00:00 AM 7.63 45.734 0.07 7.18 1.66 11.9
4/23/2022 10:15:00 AM 7.74 45.932 0.07 7.19 1.68 11.87
4/23/2022 10:30:00 AM 7.93 46.274 0.07 7.19 1.62 11.84
4/23/2022 10:45:00 AM 8.13 46.634 0.07 7.2 1.57 11.81
4/23/2022 11:00:00 AM 8.21 46.778 0.07 7.2 1.54 11.76
4/23/2022 11:15:00 AM 8.41 47.138 0.069 7.21 1.48 11.74
4/23/2022 11:30:00 AM 8.58 47.444 0.069 7.21 1.72 11.68
4/23/2022 11:45:00 AM 8.73 47.714 0.069 7.22 1.56 11.63
4/23/2022 12:00:00 PM 8.93 48.074 0.069 7.23 1.53 11.59
4/23/2022 12:15:00 PM 9.08 48.344 0.069 7.23 1.53 11.55
4/23/2022 12:30:00 PM 9.23 48.614 0.069 7.24 1.57 11.49
4/23/2022 12:45:00 PM 9.36 48.848 0.069 7.24 1.59 11.45
4/23/2022 1:00:00 PM 9.39 48.902 0.069 7.23 1.58 11.39
4/23/2022 1:15:00 PM 9.39 48.902 0.069 7.23 1.64 11.36
4/23/2022 1:30:00 PM 9.4 48.92 0.069 7.23 1.48 11.32
4/23/2022 1:45:00 PM 9.42 48.956 0.069 7.22 1.69 11.29
4/23/2022 2:00:00 PM 9.47 49.046 0.069 7.22 1.58 11.29
4/23/2022 2:15:00 PM 9.54 49.172 0.069 7.23 1.64 11.3
4/23/2022 2:30:00 PM 9.62 49.316 0.069 7.24 1.76 11.29
4/23/2022 2:45:00 PM 9.79 49.622 0.069 7.24 1.6 11.28
4/23/2022 3:00:00 PM 9.93 49.874 0.068 7.25 1.82 11.27
4/23/2022 3:15:00 PM 10.07 50.126 0.068 7.25 1.66 11.24
4/23/2022 3:30:00 PM 10.14 50.252 0.068 7.25 1.8 11.21
4/23/2022 3:45:00 PM 10.21 50.378 0.068 7.26 1.62 11.19
4/23/2022 4:00:00 PM 10.27 50.486 0.068 7.26 1.66 11.16
4/23/2022 4:15:00 PM 10.37 50.666 0.068 7.26 1.94 11.12
4/23/2022 4:30:00 PM 10.45 50.81 0.068 7.25 1.79 11.07
4/23/2022 4:45:00 PM 10.51 50.918 0.068 7.25 1.85 11.03
4/23/2022 5:00:00 PM 10.54 50.972 0.068 7.24 1.74 11
4/23/2022 5:15:00 PM 10.56 51.008 0.068 7.24 1.74 10.97
4/23/2022 5:30:00 PM 10.59 51.062 0.068 7.24 1.87 10.95
4/23/2022 5:45:00 PM 10.59 51.062 0.068 7.23 1.63 10.95
4/23/2022 6:00:00 PM 10.54 50.972 0.068 7.23 1.73 10.92
4/23/2022 6:15:00 PM 10.49 50.882 0.069 7.22 1.8 10.9
4/23/2022 6:30:00 PM 10.44 50.792 0.069 7.21 1.84 10.89
4/23/2022 6:45:00 PM 10.4 50.72 0.069 7.2 1.99 10.87
4/23/2022 7:00:00 PM 10.34 50.612 0.069 7.19 1.86 10.87
4/23/2022 7:15:00 PM 10.25 50.45 0.069 7.18 1.82 10.87
4/23/2022 7:30:00 PM 10.16 50.288 0.069 7.17 1.89 10.86
4/23/2022 7:45:00 PM 10.07 50.126 0.069 7.16 1.8 10.85
4/23/2022 8:00:00 PM 9.97 49.946 0.069 7.14 1.83 10.83
4/23/2022 8:15:00 PM 9.87 49.766 0.069 7.12 1.89 10.82
4/23/2022 8:30:00 PM 9.76 49.568 0.069 7.1 1.95 10.82
4/23/2022 8:45:00 PM 9.67 49.406 0.069 7.08 2.02 10.82
4/23/2022 9:00:00 PM 9.58 49.244 0.07 7.07 2.06 10.83
4/23/2022 9:15:00 PM 9.49 49.082 0.07 7.07 2.1 10.85
4/23/2022 9:30:00 PM 9.4 48.92 0.07 7.06 2.23 10.87
4/23/2022 9:45:00 PM 9.31 48.758 0.07 7.06 1.97 10.89
4/23/2022 10:00:00 PM 9.22 48.596 0.07 7.05 2.06 10.91
4/23/2022 10:15:00 PM 9.13 48.434 0.07 7.05 2.02 10.94
4/23/2022 10:30:00 PM 9.05 48.29 0.07 7.05 2.18 10.96
4/23/2022 10:45:00 PM 8.96 48.128 0.07 7.05 2 10.98
4/23/2022 11:00:00 PM 8.88 47.984 0.07 7.05 2.03 11
4/23/2022 11:15:00 PM 8.79 47.822 0.07 7.05 2.17 11.03
4/23/2022 11:30:00 PM 8.71 47.678 0.07 7.05 1.92 11.06
4/23/2022 11:45:00 PM 8.64 47.552 0.07 7.05 1.99 11.07
4/24/2022 12:00:00 AM 8.56 47.408 0.07 7.04 2.03 11.09
4/24/2022 12:15:00 AM 8.49 47.282 0.07 7.04 2.15 11.12
4/24/2022 12:30:00 AM 8.42 47.156 0.07 7.05 2.06 11.14
4/24/2022 12:45:00 AM 8.36 47.048 0.071 7.05 2.07 11.15
4/24/2022 1:00:00 AM 8.29 46.922 0.071 7.04 1.95 11.16
4/24/2022 1:15:00 AM 8.23 46.814 0.071 7.04 2.07 11.18
4/24/2022 1:30:00 AM 8.19 46.742 0.071 7.04 1.93 11.2
4/24/2022 1:45:00 AM 8.13 46.634 0.071 7.04 2.01 11.22
4/24/2022 2:00:00 AM 8.08 46.544 0.071 7.04 2.01 11.23
4/24/2022 2:15:00 AM 8.03 46.454 0.071 7.04 2.07 11.24
4/24/2022 2:30:00 AM 7.99 46.382 0.071 7.04 2.03 11.25
4/24/2022 2:45:00 AM 7.95 46.31 0.071 7.04 1.89 11.26
4/24/2022 3:00:00 AM 7.91 46.238 0.071 7.04 2.04 11.27
4/24/2022 3:15:00 AM 7.86 46.148 0.071 7.03 1.9 11.28
4/24/2022 3:30:00 AM 7.82 46.076 0.071 7.03 1.85 11.29
4/24/2022 3:45:00 AM 7.78 46.004 0.071 7.03 1.92 11.32
4/24/2022 4:00:00 AM 7.74 45.932 0.071 7.03 1.99 11.32
4/24/2022 4:15:00 AM 7.7 45.86 0.071 7.02 2.07 11.34
4/24/2022 4:30:00 AM 7.66 45.788 0.071 7.03 1.8 11.35
4/24/2022 4:45:00 AM 7.63 45.734 0.071 7.02 2.01 11.35
4/24/2022 5:00:00 AM 7.6 45.68 0.071 7.02 2.07 11.36
4/24/2022 5:15:00 AM 7.57 45.626 0.071 7.02 2.1 11.38
4/24/2022 5:30:00 AM 7.54 45.572 0.071 7.02 2.04 11.39
4/24/2022 5:45:00 AM 7.5 45.5 0.071 7.02 1.92 11.38
4/24/2022 6:00:00 AM 7.47 45.446 0.071 7.02 2.01 11.41
4/24/2022 6:15:00 AM 7.43 45.374 0.071 7.02 1.93 11.43
4/24/2022 6:30:00 AM 7.4 45.32 0.07 7.02 2.06 11.44
4/24/2022 6:45:00 AM 7.37 45.266 0.07 7.02 1.94 11.47
4/24/2022 7:00:00 AM 7.35 45.23 0.07 7.03 1.84 11.51
4/24/2022 7:15:00 AM 7.32 45.176 0.07 7.04 1.76 11.57
4/24/2022 7:30:00 AM 7.31 45.158 0.07 7.05 1.78 11.61
4/24/2022 7:45:00 AM 7.32 45.176 0.07 7.06 1.79 11.66
4/24/2022 8:00:00 AM 7.33 45.194 0.07 7.07 1.77 11.69
4/24/2022 8:15:00 AM 7.36 45.248 0.07 7.09 1.91 11.72
4/24/2022 8:30:00 AM 7.4 45.32 0.07 7.1 1.7 11.75
4/24/2022 8:45:00 AM 7.45 45.41 0.07 7.11 1.75 11.76
4/24/2022 9:00:00 AM 7.53 45.554 0.07 7.13 1.67 11.77
4/24/2022 9:15:00 AM 7.63 45.734 0.07 7.14 1.73 11.76
4/24/2022 9:30:00 AM 7.75 45.95 0.07 7.15 1.6 11.75
4/24/2022 9:45:00 AM 7.9 46.22 0.07 7.16 1.71 11.75
4/24/2022 10:00:00 AM 8.08 46.544 0.069 7.17 1.64 11.7
4/24/2022 10:15:00 AM 8.3 46.94 0.069 7.17 1.62 11.67
4/24/2022 10:30:00 AM 8.55 47.39 0.069 7.18 1.66 11.63
4/24/2022 10:45:00 AM 8.81 47.858 0.069 7.19 1.57 11.56
4/24/2022 11:00:00 AM 9.1 48.38 0.069 7.2 1.72 11.49
4/24/2022 11:15:00 AM 9.41 48.938 0.069 7.21 1.59 11.43
4/24/2022 11:30:00 AM 9.76 49.568 0.069 7.21 1.54 11.35
4/24/2022 11:45:00 AM 10.12 50.216 0.069 7.22 1.54 11.26
4/24/2022 12:00:00 PM 10.48 50.864 0.069 7.23 1.62 11.18
4/24/2022 12:15:00 PM 10.84 51.512 0.069 7.23 1.59 11.08
4/24/2022 12:30:00 PM 11.22 52.196 0.068 7.24 1.73 10.99
4/24/2022 12:45:00 PM 11.52 52.736 0.068 7.25 1.67 10.9
4/24/2022 1:00:00 PM 11.9 53.42 0.068 7.25 1.63 10.82
4/24/2022 1:15:00 PM 12.2 53.96 0.068 7.25 1.7 10.72
4/24/2022 1:30:00 PM 12.38 54.284 0.068 7.26 1.97 10.65
4/24/2022 1:45:00 PM 12.56 54.608 0.068 7.26 1.77 10.59
4/24/2022 2:00:00 PM 12.72 54.896 0.068 7.26 1.65 10.54
4/24/2022 2:15:00 PM 12.95 55.31 0.068 7.27 1.97 10.48
4/24/2022 2:30:00 PM 13.15 55.67 0.068 7.27 1.77 10.42
4/24/2022 2:45:00 PM 13.3 55.94 0.068 7.27 1.94 10.37
4/24/2022 3:00:00 PM 13.48 56.264 0.068 7.27 1.8 10.32
4/24/2022 3:15:00 PM 13.51 56.318 0.068 7.28 1.97 10.29
4/24/2022 3:30:00 PM 13.58 56.444 0.068 7.28 2.05 10.26
4/24/2022 3:45:00 PM 13.78 56.804 0.068 7.29 1.89 10.24
4/24/2022 4:00:00 PM 13.94 57.092 0.068 7.28 1.97 10.19
4/24/2022 4:15:00 PM 14 57.2 0.068 7.29 1.88 10.15
4/24/2022 4:30:00 PM 13.98 57.164 0.068 7.28 1.98 10.1
4/24/2022 4:45:00 PM 13.98 57.164 0.068 7.27 1.88 10.07
4/24/2022 5:00:00 PM 13.99 57.182 0.068 7.27 1.97 10.07
4/24/2022 5:15:00 PM 13.96 57.128 0.068 7.26 1.96 10.06
4/24/2022 5:30:00 PM 13.96 57.128 0.068 7.25 2.16 10.04
4/24/2022 5:45:00 PM 13.93 57.074 0.068 7.25 1.84 10.03
4/24/2022 6:00:00 PM 13.89 57.002 0.068 7.24 2.11 10.03
4/24/2022 6:15:00 PM 13.81 56.858 0.068 7.24 1.99 10.02
4/24/2022 6:30:00 PM 13.72 56.696 0.068 7.23 2.21 10.02
4/24/2022 6:45:00 PM 13.61 56.498 0.068 7.22 1.97 10
4/24/2022 7:00:00 PM 13.46 56.228 0.069 7.2 1.99 9.99
4/24/2022 7:15:00 PM 13.3 55.94 0.069 7.18 2.13 9.99
4/24/2022 7:30:00 PM 13.16 55.688 0.069 7.17 2.12 9.99
4/24/2022 7:45:00 PM 13.01 55.418 0.069 7.15 2.11 10
4/24/2022 8:00:00 PM 12.86 55.148 0.069 7.13 2.08 9.99
4/24/2022 8:15:00 PM 12.7 54.86 0.069 7.11 2.15 10
4/24/2022 8:30:00 PM 12.54 54.572 0.069 7.1 2.22 10.01
4/24/2022 8:45:00 PM 12.39 54.302 0.069 7.08 2.33 10.03
4/24/2022 9:00:00 PM 12.26 54.068 0.07 7.07 2.27 10.06
4/24/2022 9:15:00 PM 12.13 53.834 0.07 7.06 2.28 10.09
4/24/2022 9:30:00 PM 12 53.6 0.07 7.06 2.39 10.12
4/24/2022 9:45:00 PM 11.87 53.366 0.07 7.05 2.33 10.14
4/24/2022 10:00:00 PM 11.76 53.168 0.07 7.04 2.37 10.17
4/24/2022 10:15:00 PM 11.64 52.952 0.07 7.03 2.4 10.21
4/24/2022 10:30:00 PM 11.52 52.736 0.07 7.03 2.42 10.24
4/24/2022 10:45:00 PM 11.4 52.52 0.07 7.02 2.37 10.26
4/24/2022 11:00:00 PM 11.29 52.322 0.07 7.02 2.39 10.29
4/24/2022 11:15:00 PM 11.18 52.124 0.07 7.02 2.44 10.32
4/24/2022 11:30:00 PM 11.08 51.944 0.07 7.01 2.3 10.35
4/24/2022 11:45:00 PM 10.98 51.764 0.071 7.01 2.32 10.37
4/25/2022 12:00:00 AM 10.88 51.584 0.071 7.01 2.36 10.4
4/25/2022 12:15:00 AM 10.79 51.422 0.071 7.01 2.42 10.42
4/25/2022 12:30:00 AM 10.7 51.26 0.071 7.01 2.4 10.45
4/25/2022 12:45:00 AM 10.62 51.116 0.071 7 2.44 10.47
4/25/2022 1:00:00 AM 10.54 50.972 0.071 7 2.47 10.49
4/25/2022 1:15:00 AM 10.46 50.828 0.071 7 2.43 10.51
4/25/2022 1:30:00 AM 10.39 50.702 0.071 7.01 2.47 10.53
4/25/2022 1:45:00 AM 10.31 50.558 0.071 7 2.52 10.55
4/25/2022 2:00:00 AM 10.25 50.45 0.071 7 2.33 10.57
4/25/2022 2:15:00 AM 10.18 50.324 0.071 7 2.28 10.59
4/25/2022 2:30:00 AM 10.12 50.216 0.071 7.01 2.39 10.61
4/25/2022 2:45:00 AM 10.06 50.108 0.071 7.01 2.41 10.62
4/25/2022 3:00:00 AM 10 50 0.071 7.01 2.39 10.64
4/25/2022 3:15:00 AM 9.95 49.91 0.071 7.01 2.3 10.65
4/25/2022 3:30:00 AM 9.9 49.82 0.071 7.01 2.44 10.67
4/25/2022 3:45:00 AM 9.85 49.73 0.071 7.01 2.27 10.68
4/25/2022 4:00:00 AM 9.8 49.64 0.071 7.01 2.39 10.69
4/25/2022 4:15:00 AM 9.76 49.568 0.07 7.01 2.49 10.71
4/25/2022 4:30:00 AM 9.71 49.478 0.07 7.01 2.28 10.72
4/25/2022 4:45:00 AM 9.67 49.406 0.07 7.02 2.37 10.73
4/25/2022 5:00:00 AM 9.63 49.334 0.07 7.01 2.34 10.75
4/25/2022 5:15:00 AM 9.58 49.244 0.07 7.01 2.22 10.76
4/25/2022 5:30:00 AM 9.53 49.154 0.07 7.01 2.26 10.77
4/25/2022 5:45:00 AM 9.48 49.064 0.07 7.01 2.4 10.78
4/25/2022 6:00:00 AM 9.44 48.992 0.07 7.01 2.23 10.8
4/25/2022 6:15:00 AM 9.39 48.902 0.07 7.01 2.17 10.82
4/25/2022 6:30:00 AM 9.34 48.812 0.07 7.01 2.2 10.84
4/25/2022 6:45:00 AM 9.31 48.758 0.07 7.01 2.12 10.88
4/25/2022 7:00:00 AM 9.28 48.704 0.07 7.02 2.31 10.93
4/25/2022 7:15:00 AM 9.27 48.686 0.07 7.03 2.21 10.99
4/25/2022 7:30:00 AM 9.25 48.65 0.07 7.05 2.21 11.05
4/25/2022 7:45:00 AM 9.26 48.668 0.07 7.06 2.14 11.1
4/25/2022 8:00:00 AM 9.28 48.704 0.07 7.08 2.06 11.15
4/25/2022 8:15:00 AM 9.33 48.794 0.07 7.1 2.12 11.19
4/25/2022 8:30:00 AM 9.4 48.92 0.07 7.13 2.12 11.21
4/25/2022 8:45:00 AM 9.46 49.028 0.07 7.15 1.94 11.23
4/25/2022 9:00:00 AM 9.54 49.172 0.07 7.16 2.14 11.23
4/25/2022 9:15:00 AM 9.67 49.406 0.069 7.18 1.96 11.22
4/25/2022 9:30:00 AM 9.79 49.622 0.069 7.19 1.94 11.2
4/25/2022 9:45:00 AM 9.92 49.856 0.069 7.19 1.98 11.17
4/25/2022 10:00:00 AM 10.07 50.126 0.069 7.2 1.89 11.15
4/25/2022 10:15:00 AM 10.26 50.468 0.069 7.21 2.06 11.11
4/25/2022 10:30:00 AM 10.47 50.846 0.069 7.21 2.03 11.07
4/25/2022 10:45:00 AM 10.7 51.26 0.069 7.22 1.88 11.03
4/25/2022 11:00:00 AM 10.94 51.692 0.069 7.22 1.93 10.98
4/25/2022 11:15:00 AM 11.2 52.16 0.069 7.23 1.88 10.92
4/25/2022 11:30:00 AM 11.47 52.646 0.069 7.24 1.9 10.86
4/25/2022 11:45:00 AM 11.78 53.204 0.069 7.25 2.01 10.8
4/25/2022 12:00:00 PM 12.1 53.78 0.069 7.25 2.12 10.72
4/25/2022 12:15:00 PM 12.42 54.356 0.068 7.25 2.06 10.65
4/25/2022 12:30:00 PM 12.74 54.932 0.068 7.26 1.9 10.57
4/25/2022 12:45:00 PM 13.05 55.49 0.068 7.26 2.2 10.5
4/25/2022 1:00:00 PM 13.36 56.048 0.068 7.27 1.88 10.42
4/25/2022 1:15:00 PM 13.63 56.534 0.068 7.27 1.97 10.35
4/25/2022 1:30:00 PM 13.91 57.038 0.068 7.28 1.95 10.28
4/25/2022 1:45:00 PM 14.15 57.47 0.068 7.28 2.03 10.22
4/25/2022 2:00:00 PM 14.41 57.938 0.068 7.28 2.04 10.16
4/25/2022 2:15:00 PM 14.64 58.352 0.068 7.29 1.99 10.1
4/25/2022 2:30:00 PM 14.85 58.73 0.068 7.29 2.07 10.05
4/25/2022 2:45:00 PM 14.89 58.802 0.068 7.29 1.95 9.99
4/25/2022 3:00:00 PM 14.99 58.982 0.068 7.29 1.99 9.96
4/25/2022 3:15:00 PM 15.06 59.108 0.068 7.29 2.21 9.93
4/25/2022 3:30:00 PM 15.13 59.234 0.068 7.29 2.16 9.9
4/25/2022 3:45:00 PM 15.26 59.468 0.068 7.29 2.09 9.87
4/25/2022 4:00:00 PM 15.33 59.594 0.068 7.29 2.11 9.84
4/25/2022 4:15:00 PM 15.41 59.738 0.068 7.29 2.45 9.81
4/25/2022 4:30:00 PM 15.43 59.774 0.068 7.28 2.39 9.78
4/25/2022 4:45:00 PM 15.42 59.756 0.068 7.28 2.07 9.75
4/25/2022 5:00:00 PM 15.39 59.702 0.068 7.27 2.1 9.73
4/25/2022 5:15:00 PM 15.32 59.576 0.068 7.27 2.18 9.71
4/25/2022 5:30:00 PM 15.24 59.432 0.068 7.26 2.39 9.72
4/25/2022 5:45:00 PM 15.14 59.252 0.068 7.26 2.09 9.74
4/25/2022 6:00:00 PM 15.02 59.036 0.068 7.26 2.2 9.74
4/25/2022 6:15:00 PM 14.92 58.856 0.068 7.26 2.07 9.77
4/25/2022 6:30:00 PM 14.79 58.622 0.069 7.25 2.37 9.76
4/25/2022 6:45:00 PM 14.65 58.37 0.069 7.23 2.54 9.74
4/25/2022 7:00:00 PM 14.49 58.082 0.069 7.21 2.57 9.73
4/25/2022 7:15:00 PM 14.3 57.74 0.069 7.2 2.61 9.74
4/25/2022 7:30:00 PM 14.13 57.434 0.069 7.19 2.54 9.74
4/25/2022 7:45:00 PM 13.97 57.146 0.069 7.17 2.58 9.74
4/25/2022 8:00:00 PM 13.81 56.858 0.069 7.16 2.74 9.74
4/25/2022 8:15:00 PM 13.65 56.57 0.069 7.15 2.86 9.74
4/25/2022 8:30:00 PM 13.48 56.264 0.07 7.13 3 9.75
4/25/2022 8:45:00 PM 13.32 55.976 0.07 7.12 3.17 9.78
4/25/2022 9:00:00 PM 13.18 55.724 0.07 7.12 2.92 9.81
4/25/2022 9:15:00 PM 13.05 55.49 0.07 7.11 3.04 9.83
4/25/2022 9:30:00 PM 12.92 55.256 0.07 7.11 3.12 9.87
4/25/2022 9:45:00 PM 12.8 55.04 0.07 7.1 3.56 9.9
4/25/2022 10:00:00 PM 12.68 54.824 0.07 7.1 3.12 9.93
4/25/2022 10:15:00 PM 12.57 54.626 0.07 7.1 3.04 9.96
4/25/2022 10:30:00 PM 12.46 54.428 0.07 7.09 3.15 9.99
4/25/2022 10:45:00 PM 12.35 54.23 0.07 7.09 3.07 10.01
4/25/2022 11:00:00 PM 12.25 54.05 0.07 7.09 3 10.03
4/25/2022 11:15:00 PM 12.15 53.87 0.071 7.09 3.08 10.07
4/25/2022 11:30:00 PM 12.06 53.708 0.071 7.09 3.24 10.09
4/25/2022 11:45:00 PM 11.97 53.546 0.071 7.09 3.14 10.11
4/26/2022 12:00:00 AM 11.89 53.402 0.071 7.09 3.25 10.13
4/26/2022 12:15:00 AM 11.81 53.258 0.071 7.09 3.6 10.15
4/26/2022 12:30:00 AM 11.73 53.114 0.071 7.08 3.33 10.17
4/26/2022 12:45:00 AM 11.66 52.988 0.071 7.08 3.23 10.18
4/26/2022 1:00:00 AM 11.58 52.844 0.071 7.08 3.16 10.21
4/26/2022 1:15:00 AM 11.51 52.718 0.071 7.08 3.06 10.22
4/26/2022 1:30:00 AM 11.45 52.61 0.071 7.07 3.03 10.24
4/26/2022 1:45:00 AM 11.38 52.484 0.071 7.07 2.96 10.26
4/26/2022 2:00:00 AM 11.32 52.376 0.071 7.07 3.14 10.28
4/26/2022 2:15:00 AM 11.26 52.268 0.071 7.07 3.06 10.29
4/26/2022 2:30:00 AM 11.21 52.178 0.071 7.07 2.78 10.3
4/26/2022 2:45:00 AM 11.16 52.088 0.071 7.06 2.98 10.31
4/26/2022 3:00:00 AM 11.1 51.98 0.071 7.06 2.93 10.33
4/26/2022 3:15:00 AM 11.05 51.89 0.071 7.06 2.94 10.34
4/26/2022 3:30:00 AM 11 51.8 0.071 7.06 3.05 10.36
4/26/2022 3:45:00 AM 10.95 51.71 0.071 7.06 2.82 10.37
4/26/2022 4:00:00 AM 10.9 51.62 0.071 7.06 3.05 10.38
4/26/2022 4:15:00 AM 10.86 51.548 0.071 7.05 3.14 10.39
4/26/2022 4:30:00 AM 10.81 51.458 0.071 7.05 2.86 10.4
4/26/2022 4:45:00 AM 10.77 51.386 0.071 7.05 2.86 10.42
4/26/2022 5:00:00 AM 10.73 51.314 0.071 7.05 2.95 10.42
4/26/2022 5:15:00 AM 10.69 51.242 0.071 7.04 2.92 10.44
4/26/2022 5:30:00 AM 10.65 51.17 0.071 7.04 2.91 10.45
4/26/2022 5:45:00 AM 10.61 51.098 0.071 7.05 2.74 10.46
4/26/2022 6:00:00 AM 10.58 51.044 0.071 7.05 2.96 10.47
4/26/2022 6:15:00 AM 10.54 50.972 0.071 7.06 2.98 10.48
4/26/2022 6:30:00 AM 10.51 50.918 0.071 7.06 2.84 10.5
4/26/2022 6:45:00 AM 10.47 50.846 0.071 7.06 2.78 10.52
4/26/2022 7:00:00 AM 10.44 50.792 0.071 7.07 2.83 10.56
4/26/2022 7:15:00 AM 10.41 50.738 0.071 7.08 2.83 10.59
4/26/2022 7:30:00 AM 10.38 50.684 0.071 7.09 2.6 10.65
4/26/2022 7:45:00 AM 10.36 50.648 0.071 7.1 2.64 10.7
4/26/2022 8:00:00 AM 10.34 50.612 0.071 7.12 2.79 10.74
4/26/2022 8:15:00 AM 10.34 50.612 0.071 7.13 2.62 10.78
4/26/2022 8:30:00 AM 10.34 50.612 0.071 7.14 2.8 10.83
4/26/2022 8:45:00 AM 10.34 50.612 0.07 7.16 2.58 10.87
4/26/2022 9:00:00 AM 10.34 50.612 0.07 7.17 2.77 10.89
4/26/2022 9:15:00 AM 10.34 50.612 0.07 7.18 2.72 10.88
4/26/2022 9:30:00 AM 10.36 50.648 0.07 7.18 2.58 10.91
4/26/2022 9:45:00 AM 10.4 50.72 0.07 7.2 2.76 10.94
4/26/2022 10:00:00 AM 10.44 50.792 0.07 7.21 2.7 10.94
4/26/2022 10:15:00 AM 10.48 50.864 0.07 7.21 2.89 10.95
4/26/2022 10:30:00 AM 10.51 50.918 0.07 7.22 2.77 10.96
4/26/2022 10:45:00 AM 10.57 51.026 0.07 7.23 2.78 10.95
4/26/2022 11:00:00 AM 10.58 51.044 0.07 7.23 2.66 10.94
4/26/2022 11:15:00 AM 10.62 51.116 0.07 7.24 2.81 10.94
4/26/2022 11:30:00 AM 10.64 51.152 0.07 7.24 2.62 10.93
4/26/2022 11:45:00 AM 10.68 51.224 0.07 7.24 2.4 10.92
4/26/2022 12:00:00 PM 10.72 51.296 0.07 7.25 2.23 10.91
4/26/2022 12:15:00 PM 10.79 51.422 0.069 7.25 2.56 10.9
4/26/2022 12:30:00 PM 10.85 51.53 0.069 7.26 2.37 10.9
4/26/2022 12:45:00 PM 10.91 51.638 0.069 7.26 2.63 10.89
4/26/2022 1:00:00 PM 10.96 51.728 0.069 7.27 2.38 10.88
4/26/2022 1:15:00 PM 10.97 51.746 0.069 7.27 2.49 10.85
4/26/2022 1:30:00 PM 10.95 51.71 0.069 7.26 2.68 10.82
4/26/2022 1:45:00 PM 10.95 51.71 0.069 7.26 2.62 10.82
4/26/2022 2:00:00 PM 10.95 51.71 0.069 7.26 2.49 10.81
4/26/2022 2:15:00 PM 10.95 51.71 0.069 7.26 2.51 10.8
4/26/2022 2:30:00 PM 10.95 51.71 0.069 7.26 2.51 10.81
4/26/2022 2:45:00 PM 10.92 51.656 0.069 7.25 2.53 10.79
4/26/2022 3:00:00 PM 10.9 51.62 0.069 7.25 2.72 10.8
4/26/2022 3:15:00 PM 10.87 51.566 0.069 7.25 2.54 10.78
4/26/2022 3:30:00 PM 10.88 51.584 0.069 7.26 2.55 10.81
4/26/2022 3:45:00 PM 10.87 51.566 0.069 7.26 2.45 10.82
4/26/2022 4:00:00 PM 10.85 51.53 0.069 7.26 2.49 10.82
4/26/2022 4:15:00 PM 10.81 51.458 0.069 7.26 2.35 10.81
4/26/2022 4:30:00 PM 10.79 51.422 0.069 7.26 2.53 10.81
4/26/2022 4:45:00 PM 10.78 51.404 0.069 7.26 2.58 10.83
4/26/2022 5:00:00 PM 10.79 51.422 0.069 7.26 2.55 10.85
4/26/2022 5:15:00 PM 10.78 51.404 0.069 7.26 2.61 10.84
4/26/2022 5:30:00 PM 10.76 51.368 0.069 7.26 2.44 10.84
4/26/2022 5:45:00 PM 10.73 51.314 0.069 7.26 2.56 10.83
4/26/2022 6:00:00 PM 10.7 51.26 0.069 7.26 2.44 10.83
4/26/2022 6:15:00 PM 10.66 51.188 0.069 7.25 2.44 10.82
4/26/2022 6:30:00 PM 10.59 51.062 0.069 7.24 2.58 10.79
4/26/2022 6:45:00 PM 10.52 50.936 0.07 7.23 2.58 10.78
4/26/2022 7:00:00 PM 10.44 50.792 0.07 7.22 2.6 10.75
4/26/2022 7:15:00 PM 10.36 50.648 0.07 7.21 2.61 10.74
4/26/2022 7:30:00 PM 10.26 50.468 0.07 7.19 2.54 10.72
4/26/2022 7:45:00 PM 10.17 50.306 0.07 7.17 2.63 10.7
4/26/2022 8:00:00 PM 10.06 50.108 0.07 7.16 2.64 10.7
4/26/2022 8:15:00 PM 9.97 49.946 0.07 7.15 2.7 10.69
4/26/2022 8:30:00 PM 9.87 49.766 0.07 7.14 2.5 10.69
4/26/2022 8:45:00 PM 9.78 49.604 0.07 7.13 2.74 10.71
4/26/2022 9:00:00 PM 9.69 49.442 0.071 7.12 2.56 10.72
4/26/2022 9:15:00 PM 9.6 49.28 0.071 7.12 2.73 10.74
4/26/2022 9:30:00 PM 9.51 49.118 0.071 7.12 2.64 10.76
4/26/2022 9:45:00 PM 9.42 48.956 0.071 7.11 2.73 10.79
4/26/2022 10:00:00 PM 9.34 48.812 0.071 7.11 2.69 10.81
4/26/2022 10:15:00 PM 9.25 48.65 0.071 7.1 2.78 10.83
4/26/2022 10:30:00 PM 9.16 48.488 0.071 7.1 2.66 10.85
4/26/2022 10:45:00 PM 9.07 48.326 0.071 7.1 2.68 10.88
4/26/2022 11:00:00 PM 8.99 48.182 0.071 7.1 2.64 10.9
4/26/2022 11:15:00 PM 8.91 48.038 0.071 7.1 2.68 10.92
4/26/2022 11:30:00 PM 8.82 47.876 0.071 7.1 2.51 10.95
4/26/2022 11:45:00 PM 8.75 47.75 0.071 7.1 2.7 10.96
4/27/2022 12:00:00 AM 8.67 47.606 0.071 7.09 2.78 10.99
4/27/2022 12:15:00 AM 8.6 47.48 0.071 7.09 2.65 11.01
4/27/2022 12:30:00 AM 8.54 47.372 0.071 7.09 2.69 11.02
4/27/2022 12:45:00 AM 8.47 47.246 0.071 7.09 2.64 11.04
4/27/2022 1:00:00 AM 8.39 47.102 0.071 7.09 2.59 11.06
4/27/2022 1:15:00 AM 8.33 46.994 0.071 7.08 3.08 11.07
4/27/2022 1:30:00 AM 8.26 46.868 0.071 7.03 2.71 11.1
4/27/2022 1:45:00 AM 8.2 46.76 0.071 7.04 3.35 11.12
4/27/2022 2:00:00 AM 8.14 46.652 0.072 7.05 2.64 11.14
4/27/2022 2:15:00 AM 8.09 46.562 0.072 7.05 2.6 11.15
4/27/2022 2:30:00 AM 8.03 46.454 0.072 7.05 2.85 11.16
4/27/2022 2:45:00 AM 7.98 46.364 0.072 7.05 3.18 11.18
4/27/2022 3:00:00 AM 7.92 46.256 0.072 7.05 2.62 11.2
4/27/2022 3:15:00 AM 7.87 46.166 0.072 7.05 2.49 11.21
4/27/2022 3:30:00 AM 7.82 46.076 0.072 7.05 2.73 11.23
4/27/2022 3:45:00 AM 7.76 45.968 0.072 7.05 2.66 11.24
4/27/2022 4:00:00 AM 7.72 45.896 0.072 7.05 2.52 11.25
4/27/2022 4:15:00 AM 7.68 45.824 0.072 7.05 2.54 11.26
4/27/2022 4:30:00 AM 7.63 45.734 0.072 7.05 2.5 11.26
4/27/2022 4:45:00 AM 7.57 45.626 0.072 7.05 2.65 11.29
4/27/2022 5:00:00 AM 7.52 45.536 0.072 7.05 2.54 11.3
4/27/2022 5:15:00 AM 7.48 45.464 0.072 7.05 2.69 11.31
4/27/2022 5:30:00 AM 7.44 45.392 0.072 7.05 2.5 11.34
4/27/2022 5:45:00 AM 7.39 45.302 0.072 7.05 2.62 11.35
4/27/2022 6:00:00 AM 7.35 45.23 0.072 7.05 2.64 11.35
4/27/2022 6:15:00 AM 7.3 45.14 0.072 7.05 2.66 11.37
4/27/2022 6:30:00 AM 7.25 45.05 0.072 7.05 2.53 11.4
4/27/2022 6:45:00 AM 7.18 44.924 0.072 7.06 2.48 11.42
4/27/2022 7:00:00 AM 7.12 44.816 0.072 7.06 2.32 11.47
4/27/2022 7:15:00 AM 7.09 44.762 0.071 7.08 2.4 11.54
4/27/2022 7:30:00 AM 7.06 44.708 0.071 7.09 2.46 11.6
4/27/2022 7:45:00 AM 7.03 44.654 0.071 7.1 2.54 11.63
4/27/2022 8:00:00 AM 7.01 44.618 0.071 7.11 2.59 11.68
4/27/2022 8:15:00 AM 6.96 44.528 0.071 7.12 2.24 11.71
4/27/2022 8:30:00 AM 6.91 44.438 0.071 7.12 2.2 11.73
4/27/2022 8:45:00 AM 6.93 44.474 0.071 7.14 2.33 11.8
4/27/2022 9:00:00 AM 6.93 44.474 0.071 7.16 2.29 11.84
4/27/2022 9:15:00 AM 6.94 44.492 0.071 7.17 2.33 11.86
4/27/2022 9:30:00 AM 6.98 44.564 0.071 7.18 2.38 11.87
4/27/2022 9:45:00 AM 7.04 44.672 0.071 7.19 2.43 11.89
4/27/2022 10:00:00 AM 7.17 44.906 0.071 7.2 2.28 11.88
4/27/2022 10:15:00 AM 7.26 45.068 0.07 7.21 2.29 11.86
4/27/2022 10:30:00 AM 7.26 45.068 0.07 7.21 2.4 11.84
4/27/2022 10:45:00 AM 7.11 44.798 0.07 7.21 2.33 11.82
4/27/2022 11:00:00 AM 7.13 44.834 0.07 7.21 2.38 11.83
4/27/2022 11:15:00 AM 7.35 45.23 0.07 7.23 2.22 11.83
4/27/2022 11:30:00 AM 7.37 45.266 0.07 7.23 2.32 11.8
4/27/2022 11:45:00 AM 7.36 45.248 0.07 7.23 2.2 11.76
4/27/2022 12:00:00 PM 7.47 45.446 0.07 7.23 2.09 11.78
4/27/2022 12:15:00 PM 7.43 45.374 0.07 7.24 2.31 11.78
4/27/2022 12:30:00 PM 7.44 45.392 0.07 7.24 2.3 11.78
4/27/2022 12:45:00 PM 7.46 45.428 0.07 7.24 2.1 11.78
4/27/2022 1:00:00 PM 7.48 45.464 0.07 7.25 2.28 11.79
4/27/2022 1:15:00 PM 7.47 45.446 0.07 7.25 2.02 11.76
4/27/2022 1:30:00 PM 7.5 45.5 0.07 7.25 2.13 11.78
4/27/2022 1:45:00 PM 7.51 45.518 0.07 7.25 2.28 11.76
4/27/2022 2:00:00 PM 7.55 45.59 0.07 7.26 2.18 11.76
4/27/2022 2:15:00 PM 7.58 45.644 0.07 7.25 2.36 11.74
4/27/2022 2:30:00 PM 7.58 45.644 0.07 7.26 2.07 11.73
4/27/2022 2:45:00 PM 7.51 45.518 0.07 7.25 2.1 11.71
4/27/2022 3:00:00 PM 7.49 45.482 0.07 7.24 2.09 11.7
4/27/2022 3:15:00 PM 7.47 45.446 0.07 7.25 2.2 11.7
4/27/2022 3:30:00 PM 7.43 45.374 0.07 7.24 2.2 11.69
4/27/2022 3:45:00 PM 7.41 45.338 0.07 7.24 2.28 11.71
4/27/2022 4:00:00 PM 7.37 45.266 0.07 7.24 2.18 11.71
4/27/2022 4:15:00 PM 7.32 45.176 0.07 7.23 2.16 11.71
4/27/2022 4:30:00 PM 7.31 45.158 0.07 7.24 2.18 11.73
4/27/2022 4:45:00 PM 7.24 45.032 0.07 7.23 2.22 11.73
4/27/2022 5:00:00 PM 7.18 44.924 0.07 7.23 2.19 11.75
4/27/2022 5:15:00 PM 7.12 44.816 0.07 7.22 2.12 11.75
4/27/2022 5:30:00 PM 7.06 44.708 0.07 7.22 2.23 11.75
4/27/2022 5:45:00 PM 7 44.6 0.07 7.21 2.34 11.76
4/27/2022 6:00:00 PM 6.94 44.492 0.07 7.2 2.34 11.75
4/27/2022 6:15:00 PM 6.87 44.366 0.07 7.2 2.32 11.75
4/27/2022 6:30:00 PM 6.8 44.24 0.071 7.19 2.21 11.74
4/27/2022 6:45:00 PM 6.71 44.078 0.071 7.18 2.31 11.75
4/27/2022 7:00:00 PM 6.65 43.97 0.071 7.16 2.46 11.73
4/27/2022 7:15:00 PM 6.57 43.826 0.071 7.15 2.33 11.73
4/27/2022 7:30:00 PM 6.5 43.7 0.071 7.13 2.29 11.72
4/27/2022 7:45:00 PM 6.44 43.592 0.071 7.12 2.21 11.72
4/27/2022 8:00:00 PM 6.37 43.466 0.071 7.11 2.24 11.72
4/27/2022 8:15:00 PM 6.29 43.322 0.071 7.1 2.3 11.74
4/27/2022 8:30:00 PM 6.23 43.214 0.071 7.09 2.36 11.74
4/27/2022 8:45:00 PM 6.18 43.124 0.071 7.09 2.43 11.76
4/27/2022 9:00:00 PM 6.12 43.016 0.071 7.08 2.52 11.77
4/27/2022 9:15:00 PM 6.07 42.926 0.072 7.08 2.36 11.78
4/27/2022 9:30:00 PM 6.02 42.836 0.072 7.07 2.13 11.79
4/27/2022 9:45:00 PM 5.97 42.746 0.072 7.07 2.52 11.8
4/27/2022 10:00:00 PM 5.93 42.674 0.072 7.07 2.24 11.81
4/27/2022 10:15:00 PM 5.88 42.584 0.072 7.07 2.32 11.83
4/27/2022 10:30:00 PM 5.85 42.53 0.072 7.07 2.45 11.84
4/27/2022 10:45:00 PM 5.81 42.458 0.072 7.07 2.32 11.86
4/27/2022 11:00:00 PM 5.78 42.404 0.072 7.07 2.48 11.87
4/27/2022 11:15:00 PM 5.74 42.332 0.072 7.07 1.81 11.89
4/27/2022 11:30:00 PM 5.71 42.278 0.072 7.07 1.87 11.89
4/27/2022 11:45:00 PM 5.68 42.224 0.072 7.07 1.83 11.91
4/28/2022 12:00:00 AM 5.66 42.188 0.072 7.07 1.79 11.91
4/28/2022 12:15:00 AM 5.62 42.116 0.072 7.07 1.88 11.92
4/28/2022 12:30:00 AM 5.58 42.044 0.072 7.07 1.91 11.93
4/28/2022 12:45:00 AM 5.55 41.99 0.072 7.06 1.79 11.94
4/28/2022 1:00:00 AM 5.51 41.918 0.072 7.07 1.95 11.95
4/28/2022 1:15:00 AM 5.48 41.864 0.072 7.06 2.01 11.96
4/28/2022 1:30:00 AM 5.44 41.792 0.072 7.06 1.82 11.97
4/28/2022 1:45:00 AM 5.42 41.756 0.072 7.07 1.76 11.98
4/28/2022 2:00:00 AM 5.39 41.702 0.072 7.07 1.7 11.99
4/28/2022 2:15:00 AM 5.37 41.666 0.072 7.06 1.75 12
4/28/2022 2:30:00 AM 5.34 41.612 0.072 7.05 2.56 12.02
4/28/2022 2:45:00 AM 5.31 41.558 0.072 7.06 2.84 12.02
4/28/2022 3:00:00 AM 5.29 41.522 0.072 7.07 2.95 12.03
4/28/2022 3:15:00 AM 5.26 41.468 0.072 7.06 2.77 12.04
4/28/2022 3:30:00 AM 5.24 41.432 0.072 7.07 2.72 12.04
4/28/2022 3:45:00 AM 5.21 41.378 0.072 7.07 2.63 12.06
4/28/2022 4:00:00 AM 5.18 41.324 0.072 7.07 2.4 12.06
4/28/2022 4:15:00 AM 5.16 41.288 0.072 7.07 2.55 12.06
4/28/2022 4:30:00 AM 5.13 41.234 0.072 7.07 2.6 12.08
4/28/2022 4:45:00 AM 5.11 41.198 0.072 7.07 2.77 12.08
4/28/2022 5:00:00 AM 5.09 41.162 0.072 7.07 2.15 12.09
4/28/2022 5:15:00 AM 5.06 41.108 0.072 7.07 1.95 12.09
4/28/2022 5:30:00 AM 5.04 41.072 0.072 7.07 1.68 12.1
4/28/2022 5:45:00 AM 5.01 41.018 0.073 7.07 1.71 12.1
4/28/2022 6:00:00 AM 4.99 40.982 0.073 7.07 1.8 12.12
4/28/2022 6:15:00 AM 4.98 40.964 0.073 7.07 1.8 12.13
4/28/2022 6:30:00 AM 4.97 40.946 0.073 7.08 1.88 12.15
4/28/2022 6:45:00 AM 4.94 40.892 0.072 7.09 2 12.21
4/28/2022 7:00:00 AM 4.93 40.874 0.072 7.1 1.71 12.26
4/28/2022 7:15:00 AM 4.95 40.91 0.072 7.11 1.53 12.31
4/28/2022 7:30:00 AM 4.95 40.91 0.072 7.13 1.87 12.35
4/28/2022 7:45:00 AM 4.92 40.856 0.072 7.13 1.82 12.39
4/28/2022 8:00:00 AM 4.93 40.874 0.072 7.14 1.49 12.41
4/28/2022 8:15:00 AM 4.94 40.892 0.072 7.15 1.53 12.43
4/28/2022 8:30:00 AM 4.96 40.928 0.072 7.16 1.41 12.46
4/28/2022 8:45:00 AM 5 41 0.072 7.17 1.38 12.48
4/28/2022 9:00:00 AM 5.06 41.108 0.072 7.17 1.27 12.48
4/28/2022 9:15:00 AM 5.11 41.198 0.072 7.18 1.29 12.48
4/28/2022 9:30:00 AM 5.22 41.396 0.072 7.18 1.29 12.47
4/28/2022 9:45:00 AM 5.32 41.576 0.072 7.19 1.32 12.46
4/28/2022 10:00:00 AM 5.44 41.792 0.072 7.2 1.28 12.44
4/28/2022 10:15:00 AM 5.6 42.08 0.072 7.2 1.37 12.41
4/28/2022 10:30:00 AM 5.79 42.422 0.072 7.21 1.33 12.38
4/28/2022 10:45:00 AM 5.99 42.782 0.072 7.21 1.32 12.32
4/28/2022 11:00:00 AM 6.21 43.178 0.072 7.21 1.27 12.27
4/28/2022 11:15:00 AM 6.43 43.574 0.071 7.22 1.31 12.22
4/28/2022 11:30:00 AM 6.7 44.06 0.071 7.22 1.33 12.14
4/28/2022 11:45:00 AM 6.95 44.51 0.071 7.23 1.26 12.08
4/28/2022 12:00:00 PM 7.22 44.996 0.071 7.23 1.24 11.99
4/28/2022 12:15:00 PM 7.52 45.536 0.071 7.23 1.29 11.9
4/28/2022 12:30:00 PM 7.81 46.058 0.071 7.24 1.29 11.84
4/28/2022 12:45:00 PM 8.1 46.58 0.071 7.24 1.27 11.74
4/28/2022 1:00:00 PM 8.35 47.03 0.071 7.24 1.47 11.66
4/28/2022 1:15:00 PM 8.6 47.48 0.071 7.24 1.48 11.59
4/28/2022 1:30:00 PM 8.84 47.912 0.071 7.25 1.43 11.51
4/28/2022 1:45:00 PM 9.05 48.29 0.071 7.25 1.3 11.44
4/28/2022 2:00:00 PM 9.24 48.632 0.071 7.25 1.33 11.38
4/28/2022 2:15:00 PM 9.43 48.974 0.071 7.26 1.42 11.31
4/28/2022 2:30:00 PM 9.58 49.244 0.071 7.25 1.4 11.26
4/28/2022 2:45:00 PM 9.71 49.478 0.071 7.26 1.56 11.2
4/28/2022 3:00:00 PM 9.83 49.694 0.071 7.26 1.38 11.15
4/28/2022 3:15:00 PM 9.94 49.892 0.071 7.26 1.47 11.11
4/28/2022 3:30:00 PM 10.04 50.072 0.071 7.26 1.49 11.07
4/28/2022 3:45:00 PM 10.11 50.198 0.071 7.26 1.53 11.04
4/28/2022 4:00:00 PM 10.16 50.288 0.071 7.26 1.51 10.99
4/28/2022 4:15:00 PM 10.2 50.36 0.071 7.26 1.55 10.97
4/28/2022 4:30:00 PM 10.19 50.342 0.071 7.26 1.72 10.94
4/28/2022 4:45:00 PM 10.17 50.306 0.071 7.26 1.67 10.93
4/28/2022 5:00:00 PM 10.12 50.216 0.071 7.25 1.66 10.92
4/28/2022 5:15:00 PM 10.06 50.108 0.071 7.25 1.47 10.91
4/28/2022 5:30:00 PM 10.02 50.036 0.071 7.25 1.53 10.9
4/28/2022 5:45:00 PM 9.94 49.892 0.071 7.24 1.48 10.88
4/28/2022 6:00:00 PM 9.84 49.712 0.071 7.23 1.56 10.88
4/28/2022 6:15:00 PM 9.75 49.55 0.071 7.23 1.55 10.89
4/28/2022 6:30:00 PM 9.64 49.352 0.071 7.23 1.59 10.91
4/28/2022 6:45:00 PM 9.51 49.118 0.071 7.22 1.55 10.93
4/28/2022 7:00:00 PM 9.37 48.866 0.071 7.21 1.56 10.95
4/28/2022 7:15:00 PM 9.2 48.56 0.071 7.21 1.61 10.97
4/28/2022 7:30:00 PM 9.03 48.254 0.072 7.19 1.73 10.99
4/28/2022 7:45:00 PM 8.88 47.984 0.072 7.18 1.73 11
4/28/2022 8:00:00 PM 8.73 47.714 0.072 7.17 1.79 11.02
4/28/2022 8:15:00 PM 8.57 47.426 0.072 7.16 1.84 11.03
4/28/2022 8:30:00 PM 8.42 47.156 0.072 7.15 1.97 11.04
4/28/2022 8:45:00 PM 8.27 46.886 0.072 7.14 1.82 11.08
4/28/2022 9:00:00 PM 8.11 46.598 0.072 7.13 1.88 11.1
4/28/2022 9:15:00 PM 7.95 46.31 0.072 7.12 1.83 11.14
4/28/2022 9:30:00 PM 7.8 46.04 0.072 7.12 1.88 11.19
4/28/2022 9:45:00 PM 7.66 45.788 0.072 7.11 1.96 11.22
4/28/2022 10:00:00 PM 7.53 45.554 0.073 7.11 1.88 11.27
4/28/2022 10:15:00 PM 7.41 45.338 0.073 7.11 2.58 11.3
4/28/2022 10:30:00 PM 7.29 45.122 0.073 7.1 1.84 11.34
4/28/2022 10:45:00 PM 7.17 44.906 0.073 7.1 1.83 11.37
4/28/2022 11:00:00 PM 7.05 44.69 0.073 7.1 1.9 11.41
4/28/2022 11:15:00 PM 6.94 44.492 0.073 7.09 1.81 11.45
4/28/2022 11:30:00 PM 6.83 44.294 0.073 7.09 1.79 11.48
4/28/2022 11:45:00 PM 6.72 44.096 0.073 7.09 2.01 11.51
4/29/2022 12:00:00 AM 6.6 43.88 0.073 7.09 1.84 11.55
4/29/2022 12:15:00 AM 6.5 43.7 0.073 7.09 1.65 11.59
4/29/2022 12:30:00 AM 6.39 43.502 0.073 7.09 1.67 11.63
4/29/2022 12:45:00 AM 6.29 43.322 0.073 7.09 2.1 11.66
4/29/2022 1:00:00 AM 6.2 43.16 0.073 7.08 2.14 11.68
4/29/2022 1:15:00 AM 6.11 42.998 0.073 7.08 1.66 11.71
4/29/2022 1:30:00 AM 6.01 42.818 0.073 7.08 1.77 11.75
4/29/2022 1:45:00 AM 5.93 42.674 0.073 7.08 1.63 11.78
4/29/2022 2:00:00 AM 5.84 42.512 0.073 7.08 1.66 11.81
4/29/2022 2:15:00 AM 5.75 42.35 0.073 7.08 1.58 11.84
4/29/2022 2:30:00 AM 5.67 42.206 0.073 7.07 1.67 11.86
4/29/2022 2:45:00 AM 5.59 42.062 0.073 7.07 1.61 11.88
4/29/2022 3:00:00 AM 5.52 41.936 0.073 7.07 1.6 11.9
4/29/2022 3:15:00 AM 5.44 41.792 0.073 7.07 1.63 11.93
4/29/2022 3:30:00 AM 5.37 41.666 0.074 7.07 1.55 11.96
4/29/2022 3:45:00 AM 5.29 41.522 0.074 7.07 1.7 11.99
4/29/2022 4:00:00 AM 5.21 41.378 0.074 7.07 1.68 12.01
4/29/2022 4:15:00 AM 5.15 41.27 0.074 7.05 1.52 12.03
4/29/2022 4:30:00 AM 5.08 41.144 0.074 7.04 3.23 12.05
4/29/2022 4:45:00 AM 4.99 40.982 0.074 7.03 2.14 12.08
4/29/2022 5:00:00 AM 4.92 40.856 0.074 7.03 2.46 12.11
4/29/2022 5:15:00 AM 4.86 40.748 0.074 7.03 2.18 12.14
4/29/2022 5:30:00 AM 4.8 40.64 0.074 7.03 2.25 12.16
4/29/2022 5:45:00 AM 4.73 40.514 0.074 7.03 2.29 12.18
4/29/2022 6:00:00 AM 4.68 40.424 0.074 7.03 2.42 12.21
4/29/2022 6:15:00 AM 4.62 40.316 0.074 7.03 2.5 12.24
4/29/2022 6:30:00 AM 4.56 40.208 0.074 7.04 2.33 12.27
4/29/2022 6:45:00 AM 4.52 40.136 0.074 7.05 2.31 12.32
4/29/2022 7:00:00 AM 4.47 40.046 0.074 7.05 2.42 12.37
4/29/2022 7:15:00 AM 4.44 39.992 0.074 7.06 2.43 12.42
4/29/2022 7:30:00 AM 4.42 39.956 0.073 7.07 2.28 12.46
4/29/2022 7:45:00 AM 4.42 39.956 0.073 7.08 2.28 12.51
4/29/2022 8:00:00 AM 4.45 40.01 0.073 7.09 2.36 12.55
4/29/2022 8:15:00 AM 4.47 40.046 0.073 7.1 2.11 12.57
4/29/2022 8:30:00 AM 4.51 40.118 0.073 7.12 2.11 12.59
4/29/2022 8:45:00 AM 4.58 40.244 0.073 7.13 2.35 12.61
4/29/2022 9:00:00 AM 4.68 40.424 0.073 7.14 2.2 12.6
4/29/2022 9:15:00 AM 4.79 40.622 0.073 7.15 2.15 12.6
4/29/2022 9:30:00 AM 4.9 40.82 0.073 7.15 2.22 12.59
4/29/2022 9:45:00 AM 5.03 41.054 0.073 7.16 2.16 12.58
4/29/2022 10:00:00 AM 5.17 41.306 0.073 7.17 2.16 12.56
4/29/2022 10:15:00 AM 5.35 41.63 0.073 7.18 2.15 12.52
4/29/2022 10:30:00 AM 5.56 42.008 0.073 7.18 2.13 12.47
4/29/2022 10:45:00 AM 5.66 42.188 0.073 7.19 2.22 12.43
4/29/2022 11:00:00 AM 5.89 42.602 0.072 7.2 2.02 12.39
4/29/2022 11:15:00 AM 6.15 43.07 0.072 7.2 2.16 12.31
4/29/2022 11:30:00 AM 6.46 43.628 0.072 7.21 2.06 12.24
4/29/2022 11:45:00 AM 6.75 44.15 0.072 7.22 2.09 12.15
4/29/2022 12:00:00 PM 7.05 44.69 0.072 7.22 2.19 12.08
4/29/2022 12:15:00 PM 7.35 45.23 0.072 7.22 2.11 11.98
4/29/2022 12:30:00 PM 7.66 45.788 0.072 7.23 2.04 11.9
4/29/2022 12:45:00 PM 7.97 46.346 0.072 7.23 2.12 11.81
4/29/2022 1:00:00 PM 8.26 46.868 0.072 7.23 2.19 11.71
4/29/2022 1:15:00 PM 8.56 47.408 0.072 7.24 2.19 11.61
4/29/2022 1:30:00 PM 8.82 47.876 0.072 7.24 2.1 11.53
4/29/2022 1:45:00 PM 9.07 48.326 0.072 7.24 2.99 11.44
4/29/2022 2:00:00 PM 9.28 48.704 0.072 7.25 2.83 11.36
4/29/2022 2:15:00 PM 9.52 49.136 0.072 7.25 2.8 11.28
4/29/2022 2:30:00 PM 9.7 49.46 0.072 7.25 3.09 11.21
4/29/2022 2:45:00 PM 9.86 49.748 0.072 7.25 3.21 11.14
4/29/2022 3:00:00 PM 10.01 50.018 0.072 7.25 3.59 11.08
4/29/2022 3:15:00 PM 10.15 50.27 0.072 7.25 5.6 11.03
4/29/2022 3:30:00 PM 10.28 50.504 0.072 7.25 3.82 10.98
4/29/2022 3:45:00 PM 10.38 50.684 0.072 7.25 3.61 10.94
4/29/2022 4:00:00 PM 10.46 50.828 0.072 7.25 3.45 10.89
4/29/2022 4:15:00 PM 10.51 50.918 0.072 7.25 3.31 10.85
4/29/2022 4:30:00 PM 10.52 50.936 0.072 7.24 3.41 10.82
4/29/2022 4:45:00 PM 10.54 50.972 0.072 7.24 3.45 10.79
4/29/2022 5:00:00 PM 10.55 50.99 0.072 7.24 3.26 10.76
4/29/2022 5:15:00 PM 10.52 50.936 0.072 7.23 3.28 10.73
4/29/2022 5:30:00 PM 10.47 50.846 0.072 7.23 3.22 10.71
4/29/2022 5:45:00 PM 10.43 50.774 0.072 7.22 3.18 10.7
4/29/2022 6:00:00 PM 10.39 50.702 0.072 7.21 3.2 10.68
4/29/2022 6:15:00 PM 10.31 50.558 0.072 7.21 3.14 10.67
4/29/2022 6:30:00 PM 10.23 50.414 0.072 7.2 3.11 10.68
4/29/2022 6:45:00 PM 10.16 50.288 0.072 7.2 3.2 10.68
4/29/2022 7:00:00 PM 10.05 50.09 0.072 7.19 3.05 10.69
4/29/2022 7:15:00 PM 9.94 49.892 0.072 7.19 3.07 10.7
4/29/2022 7:30:00 PM 9.81 49.658 0.072 7.18 3.24 10.7
4/29/2022 7:45:00 PM 9.67 49.406 0.072 7.16 3.13 10.71
4/29/2022 8:00:00 PM 9.53 49.154 0.072 7.15 3.26 10.71
4/29/2022 8:15:00 PM 9.39 48.902 0.073 7.14 3.12 10.71
4/29/2022 8:30:00 PM 9.26 48.668 0.073 7.13 3.21 10.73
4/29/2022 8:45:00 PM 9.12 48.416 0.073 7.12 3.31 10.75
4/29/2022 9:00:00 PM 8.98 48.164 0.073 7.11 3.15 10.79
4/29/2022 9:15:00 PM 8.83 47.894 0.073 7.1 3.5 10.81
4/29/2022 9:30:00 PM 8.68 47.624 0.073 7.1 3.39 10.85
4/29/2022 9:45:00 PM 8.55 47.39 0.073 7.09 3.36 10.89
4/29/2022 10:00:00 PM 8.42 47.156 0.073 7.09 3.44 10.92
4/29/2022 10:15:00 PM 8.29 46.922 0.073 7.09 3.39 10.96
4/29/2022 10:30:00 PM 8.17 46.706 0.073 7.08 3.37 11.01
4/29/2022 10:45:00 PM 8.05 46.49 0.074 7.08 3.43 11.04
4/29/2022 11:00:00 PM 7.93 46.274 0.074 7.08 3.54 11.08
4/29/2022 11:15:00 PM 7.81 46.058 0.074 7.08 3.36 11.12
4/29/2022 11:30:00 PM 7.7 45.86 0.074 7.08 3.19 11.14
4/29/2022 11:45:00 PM 7.58 45.644 0.074 7.08 3.17 11.19
4/30/2022 12:00:00 AM 7.46 45.428 0.074 7.08 3.56 11.23
4/30/2022 12:15:00 AM 7.35 45.23 0.074 7.08 3.38 11.26
4/30/2022 12:30:00 AM 7.24 45.032 0.074 7.07 3.39 11.29
4/30/2022 12:45:00 AM 7.12 44.816 0.074 7.07 3.4 11.32
4/30/2022 1:00:00 AM 7.02 44.636 0.074 7.07 3.28 11.36
4/30/2022 1:15:00 AM 6.92 44.456 0.074 7.07 3.35 11.4
4/30/2022 1:30:00 AM 6.81 44.258 0.074 7.07 3.48 11.43
4/30/2022 1:45:00 AM 6.71 44.078 0.074 7.07 3.56 11.45
4/30/2022 2:00:00 AM 6.62 43.916 0.074 7.07 3.83 11.49
4/30/2022 2:15:00 AM 6.52 43.736 0.074 7.07 3.65 11.52
4/30/2022 2:30:00 AM 6.43 43.574 0.074 7.07 3.62 11.56
4/30/2022 2:45:00 AM 6.35 43.43 0.074 7.06 3.43 11.58
4/30/2022 3:00:00 AM 6.25 43.25 0.074 7.07 3.21 11.61
4/30/2022 3:15:00 AM 6.17 43.106 0.074 7.06 3.49 11.63
4/30/2022 3:30:00 AM 6.09 42.962 0.074 7.06 3.48 11.66
4/30/2022 3:45:00 AM 6 42.8 0.074 7.06 3.27 11.69
4/30/2022 4:00:00 AM 5.93 42.674 0.074 7.06 3.28 11.72
4/30/2022 4:15:00 AM 5.84 42.512 0.074 7.06 3.1 11.75
4/30/2022 4:30:00 AM 5.76 42.368 0.074 7.06 3.29 11.77
4/30/2022 4:45:00 AM 5.69 42.242 0.074 7.06 3.51 11.78
4/30/2022 5:00:00 AM 5.61 42.098 0.074 7.06 3.22 11.81
4/30/2022 5:15:00 AM 5.54 41.972 0.074 7.05 3.17 11.84
4/30/2022 5:30:00 AM 5.47 41.846 0.074 7.05 3.3 11.87
4/30/2022 5:45:00 AM 5.39 41.702 0.074 7.05 3.3 11.91
4/30/2022 6:00:00 AM 5.32 41.576 0.074 7.05 3.18 11.93
4/30/2022 6:15:00 AM 5.26 41.468 0.074 7.06 3.23 11.96
4/30/2022 6:30:00 AM 5.2 41.36 0.074 7.06 3.12 12
4/30/2022 6:45:00 AM 5.15 41.27 0.074 7.06 3.21 12.05
4/30/2022 7:00:00 AM 5.09 41.162 0.074 7.06 3.01 12.1
4/30/2022 7:15:00 AM 5.04 41.072 0.074 7.06 2.98 12.16
4/30/2022 7:30:00 AM 5.01 41.018 0.074 7.07 2.94 12.2
4/30/2022 7:45:00 AM 5.01 41.018 0.074 7.08 3.07 12.25
4/30/2022 8:00:00 AM 5.01 41.018 0.074 7.08 3.08 12.29
4/30/2022 8:15:00 AM 5.02 41.036 0.074 7.09 2.95 12.33
4/30/2022 8:30:00 AM 5.04 41.072 0.074 7.1 2.99 12.35
4/30/2022 8:45:00 AM 5.11 41.198 0.074 7.11 2.88 12.37
4/30/2022 9:00:00 AM 5.21 41.378 0.074 7.12 2.94 12.37
4/30/2022 9:15:00 AM 5.32 41.576 0.074 7.13 2.88 12.36
4/30/2022 9:30:00 AM 5.45 41.81 0.074 7.13 2.85 12.36
4/30/2022 9:45:00 AM 5.6 42.08 0.074 7.14 2.79 12.35
4/30/2022 10:00:00 AM 5.75 42.35 0.074 7.15 3 12.34
4/30/2022 10:15:00 AM 5.95 42.71 0.073 7.16 2.93 12.29
4/30/2022 10:30:00 AM 6.18 43.124 0.073 7.16 3.05 12.23
4/30/2022 10:45:00 AM 6.4 43.52 0.073 7.17 2.87 12.19
4/30/2022 11:00:00 AM 6.63 43.934 0.073 7.17 2.8 12.12
4/30/2022 11:15:00 AM 6.86 44.348 0.073 7.18 3.05 12.07
4/30/2022 11:30:00 AM 7.12 44.816 0.073 7.18 2.84 11.99
4/30/2022 11:45:00 AM 7.4 45.32 0.073 7.19 2.92 11.91
4/30/2022 12:00:00 PM 7.7 45.86 0.073 7.2 3.1 11.83
4/30/2022 12:15:00 PM 8.01 46.418 0.073 7.2 3.32 11.74
4/30/2022 12:30:00 PM 8.33 46.994 0.073 7.2 3.07 11.66
4/30/2022 12:45:00 PM 8.61 47.498 0.073 7.21 2.88 11.57
4/30/2022 1:00:00 PM 8.89 48.002 0.073 7.21 3.06 11.48
4/30/2022 1:15:00 PM 9.19 48.542 0.073 7.21 3 11.39
4/30/2022 1:30:00 PM 9.41 48.938 0.073 7.21 2.97 11.31
4/30/2022 1:45:00 PM 9.62 49.316 0.073 7.22 3.03 11.22
4/30/2022 2:00:00 PM 9.85 49.73 0.073 7.22 2.99 11.14
4/30/2022 2:15:00 PM 10.05 50.09 0.072 7.22 3.07 11.07
4/30/2022 2:30:00 PM 10.24 50.432 0.072 7.22 2.93 10.99
4/30/2022 2:45:00 PM 10.39 50.702 0.072 7.22 3.03 10.94
4/30/2022 3:00:00 PM 10.53 50.954 0.072 7.22 3.09 10.88
4/30/2022 3:15:00 PM 10.68 51.224 0.072 7.23 3.12 10.82
4/30/2022 3:30:00 PM 10.84 51.512 0.072 7.23 3.17 10.76
4/30/2022 3:45:00 PM 10.91 51.638 0.072 7.22 3.19 10.71
4/30/2022 4:00:00 PM 11.01 51.818 0.072 7.22 3.14 10.66
4/30/2022 4:15:00 PM 11.06 51.908 0.072 7.22 3.22 10.62
4/30/2022 4:30:00 PM 11.12 52.016 0.072 7.22 3.43 10.58
4/30/2022 4:45:00 PM 11.17 52.106 0.072 7.22 3.44 10.55
4/30/2022 5:00:00 PM 11.17 52.106 0.072 7.21 3.3 10.52
4/30/2022 5:15:00 PM 11.13 52.034 0.072 7.21 3.36 10.48
4/30/2022 5:30:00 PM 11.12 52.016 0.072 7.2 3.38 10.44
4/30/2022 5:45:00 PM 11.14 52.052 0.073 7.2 3.02 10.41
4/30/2022 6:00:00 PM 11.1 51.98 0.073 7.19 3.36 10.39
4/30/2022 6:15:00 PM 11.08 51.944 0.073 7.18 3.16 10.38
4/30/2022 6:30:00 PM 11.01 51.818 0.073 7.18 3.21 10.37
4/30/2022 6:45:00 PM 10.96 51.728 0.073 7.17 3.11 10.37
4/30/2022 7:00:00 PM 10.9 51.62 0.073 7.16 3.45 10.35
4/30/2022 7:15:00 PM 10.82 51.476 0.073 7.16 3.08 10.35
4/30/2022 7:30:00 PM 10.73 51.314 0.073 7.15 3.13 10.36
4/30/2022 7:45:00 PM 10.63 51.134 0.073 7.14 3.34 10.34
4/30/2022 8:00:00 PM 10.52 50.936 0.073 7.12 3.38 10.34
4/30/2022 8:15:00 PM 10.4 50.72 0.073 7.11 3.12 10.33
4/30/2022 8:30:00 PM 10.28 50.504 0.073 7.1 3.18 10.34
4/30/2022 8:45:00 PM 10.15 50.27 0.074 7.09 3.28 10.35
4/30/2022 9:00:00 PM 10.03 50.054 0.074 7.09 4.4 10.37
4/30/2022 9:15:00 PM 9.91 49.838 0.074 7.08 3.47 10.4
4/30/2022 9:30:00 PM 9.79 49.622 0.074 7.07 3.37 10.43
4/30/2022 9:45:00 PM 9.66 49.388 0.074 7.07 3.27 10.46
4/30/2022 10:00:00 PM 9.54 49.172 0.074 7.07 3.36 10.49
4/30/2022 10:15:00 PM 9.41 48.938 0.074 7.06 3.32 10.52
4/30/2022 10:30:00 PM 9.29 48.722 0.074 7.06 3.63 10.56
4/30/2022 10:45:00 PM 9.18 48.524 0.074 7.06 3.37 10.59
4/30/2022 11:00:00 PM 9.06 48.308 0.074 7.06 3.45 10.63
4/30/2022 11:15:00 PM 8.95 48.11 0.074 7.06 3.39 10.67
4/30/2022 11:30:00 PM 8.83 47.894 0.074 7.06 3.61 10.71
4/30/2022 11:45:00 PM 8.72 47.696 0.075 7.05 3.26 10.72
5/1/2022 12:00:00 AM 8.6 47.48 0.075 7.05 3.68 10.77
5/1/2022 12:15:00 AM 8.49 47.282 0.075 7.05 3.43 10.8
5/1/2022 12:30:00 AM 8.38 47.084 0.075 7.05 4.04 10.83
5/1/2022 12:45:00 AM 8.27 46.886 0.075 7.05 3.35 10.88
5/1/2022 1:00:00 AM 8.16 46.688 0.075 7.05 3.38 10.91
5/1/2022 1:15:00 AM 8.05 46.49 0.075 7.05 3.4 10.93
5/1/2022 1:30:00 AM 7.95 46.31 0.075 7.05 3.73 10.96
5/1/2022 1:45:00 AM 7.85 46.13 0.075 7.05 3.47 10.99
5/1/2022 2:00:00 AM 7.75 45.95 0.075 7.05 3.8 11.03
5/1/2022 2:15:00 AM 7.65 45.77 0.075 7.04 3.48 11.06
5/1/2022 2:30:00 AM 7.55 45.59 0.075 7.04 3.5 11.09
5/1/2022 2:45:00 AM 7.44 45.392 0.075 7.04 3.37 11.11
5/1/2022 3:00:00 AM 7.35 45.23 0.075 7.04 3.42 11.15
5/1/2022 3:15:00 AM 7.25 45.05 0.075 7.04 3.49 11.19
5/1/2022 3:30:00 AM 7.16 44.888 0.075 7.04 3.36 11.22
5/1/2022 3:45:00 AM 7.06 44.708 0.075 7.04 3.47 11.25
5/1/2022 4:00:00 AM 6.97 44.546 0.075 7.04 3.26 11.28
5/1/2022 4:15:00 AM 6.89 44.402 0.075 7.04 3.35 11.31
5/1/2022 4:30:00 AM 6.79 44.222 0.075 7.04 3.27 11.34
5/1/2022 4:45:00 AM 6.71 44.078 0.075 7.04 3.38 11.37
5/1/2022 5:00:00 AM 6.64 43.952 0.075 7.03 3.29 11.38
5/1/2022 5:15:00 AM 6.55 43.79 0.075 7.04 3.46 11.41
5/1/2022 5:30:00 AM 6.46 43.628 0.075 7.04 3.34 11.45
5/1/2022 5:45:00 AM 6.4 43.52 0.075 7.04 3.23 11.47
5/1/2022 6:00:00 AM 6.32 43.376 0.075 7.04 3.43 11.5
5/1/2022 6:15:00 AM 6.26 43.268 0.075 7.04 3.25 11.53
5/1/2022 6:30:00 AM 6.21 43.178 0.075 7.04 3.27 11.59
5/1/2022 6:45:00 AM 6.17 43.106 0.075 7.05 3.2 11.66
5/1/2022 7:00:00 AM 6.13 43.034 0.075 7.06 3.27 11.71
5/1/2022 7:15:00 AM 6.11 42.998 0.075 7.07 3.24 11.76
5/1/2022 7:30:00 AM 6.08 42.944 0.075 7.08 3.31 11.81
5/1/2022 7:45:00 AM 6.06 42.908 0.075 7.09 3.24 11.85
5/1/2022 8:00:00 AM 6.06 42.908 0.075 7.1 3.11 11.89
5/1/2022 8:15:00 AM 6.05 42.89 0.075 7.1 3.11 11.92
5/1/2022 8:30:00 AM 6.08 42.944 0.075 7.11 3.15 11.95
5/1/2022 8:45:00 AM 6.14 43.052 0.075 7.12 3.2 11.96
5/1/2022 9:00:00 AM 6.24 43.232 0.074 7.13 3.28 11.98
5/1/2022 9:15:00 AM 6.31 43.358 0.074 7.13 3.26 11.98
5/1/2022 9:30:00 AM 6.45 43.61 0.074 7.14 3.23 11.99
5/1/2022 9:45:00 AM 6.61 43.898 0.074 7.14 3.32 11.97
5/1/2022 10:00:00 AM 6.58 43.844 0.074 7.15 3.26 11.95
5/1/2022 10:15:00 AM 6.65 43.97 0.074 7.15 3.24 11.93
5/1/2022 10:30:00 AM 6.72 44.096 0.074 7.16 3.27 11.91
5/1/2022 10:45:00 AM 6.75 44.15 0.074 7.16 3.29 11.86
5/1/2022 11:00:00 AM 6.82 44.276 0.074 7.16 3.26 11.83
5/1/2022 11:15:00 AM 6.95 44.51 0.074 7.17 3.41 11.83
5/1/2022 11:30:00 AM 7.04 44.672 0.074 7.17 3.11 11.8
5/1/2022 11:45:00 AM 7.06 44.708 0.074 7.17 3.3 11.74
5/1/2022 12:00:00 PM 7.12 44.816 0.074 7.16 3.09 11.7
5/1/2022 12:15:00 PM 7.22 44.996 0.074 7.17 3.2 11.7
5/1/2022 12:30:00 PM 7.29 45.122 0.074 7.18 3.24 11.68
5/1/2022 12:45:00 PM 7.35 45.23 0.073 7.18 3.27 11.65
5/1/2022 1:00:00 PM 7.38 45.284 0.074 7.17 3.27 11.57
5/1/2022 1:15:00 PM 7.43 45.374 0.074 7.16 3.34 11.56
5/1/2022 1:30:00 PM 7.48 45.464 0.074 7.17 3.3 11.52
5/1/2022 1:45:00 PM 7.52 45.536 0.073 7.17 3.21 11.52
5/1/2022 2:00:00 PM 7.57 45.626 0.073 7.17 3.22 11.51
5/1/2022 2:15:00 PM 7.61 45.698 0.073 7.17 3.37 11.48
5/1/2022 2:30:00 PM 7.66 45.788 0.073 7.17 3.63 11.46
5/1/2022 2:45:00 PM 7.71 45.878 0.073 7.17 3.23 11.44
5/1/2022 3:00:00 PM 7.76 45.968 0.073 7.17 3.4 11.44
5/1/2022 3:15:00 PM 7.8 46.04 0.073 7.18 3.3 11.43
5/1/2022 3:30:00 PM 7.84 46.112 0.073 7.18 3.32 11.41
5/1/2022 3:45:00 PM 7.87 46.166 0.073 7.18 3.25 11.39
5/1/2022 4:00:00 PM 7.91 46.238 0.073 7.18 3.36 11.39
5/1/2022 4:15:00 PM 7.93 46.274 0.073 7.18 3.39 11.36
5/1/2022 4:30:00 PM 7.97 46.346 0.073 7.18 3.37 11.37
5/1/2022 4:45:00 PM 7.98 46.364 0.073 7.18 3.34 11.34
5/1/2022 5:00:00 PM 8 46.4 0.073 7.17 3.34 11.33
5/1/2022 5:15:00 PM 8.02 46.436 0.073 7.17 3.45 11.3
5/1/2022 5:30:00 PM 8.03 46.454 0.073 7.17 3.48 11.27
5/1/2022 5:45:00 PM 8.04 46.472 0.073 7.16 3.7 11.25
5/1/2022 6:00:00 PM 8.05 46.49 0.073 7.16 3.61 11.23
5/1/2022 6:15:00 PM 8.06 46.508 0.073 7.15 3.5 11.2
5/1/2022 6:30:00 PM 8.07 46.526 0.073 7.15 3.47 11.18
5/1/2022 6:45:00 PM 8.09 46.562 0.073 7.14 3.47 11.16
5/1/2022 7:00:00 PM 8.1 46.58 0.073 7.14 3.48 11.14
5/1/2022 7:15:00 PM 8.1 46.58 0.073 7.14 3.47 11.13
5/1/2022 7:30:00 PM 8.12 46.616 0.073 7.13 3.5 11.12
5/1/2022 7:45:00 PM 8.11 46.598 0.074 7.12 3.56 11.06
5/1/2022 8:00:00 PM 8.11 46.598 0.074 7.11 3.39 11.04
5/1/2022 8:15:00 PM 8.11 46.598 0.074 7.11 4.08 11.01
5/1/2022 8:30:00 PM 8.1 46.58 0.074 7.1 3.23 10.98
5/1/2022 8:45:00 PM 8.11 46.598 0.074 7.09 3.24 10.96
5/1/2022 9:00:00 PM 8.1 46.58 0.074 7.09 3.45 10.95
5/1/2022 9:15:00 PM 8.1 46.58 0.074 7.09 3.25 10.94
5/1/2022 9:30:00 PM 8.1 46.58 0.074 7.08 3.35 10.93
5/1/2022 9:45:00 PM 8.1 46.58 0.074 7.08 3.39 10.92
5/1/2022 10:00:00 PM 8.1 46.58 0.074 7.08 3.3 10.92
5/1/2022 10:15:00 PM 8.1 46.58 0.074 7.08 3.45 10.91
5/1/2022 10:30:00 PM 8.1 46.58 0.075 7.08 3.65 10.9
5/1/2022 10:45:00 PM 8.11 46.598 0.075 7.08 3.37 10.9
5/1/2022 11:00:00 PM 8.1 46.58 0.075 7.07 3.33 10.9
5/1/2022 11:15:00 PM 8.11 46.598 0.075 7.07 3.28 10.9
5/1/2022 11:30:00 PM 8.11 46.598 0.075 7.07 3.43 10.89
5/1/2022 11:45:00 PM 8.11 46.598 0.075 7.07 3.43 10.89
5/2/2022 12:00:00 AM 8.12 46.616 0.075 7.07 3.41 10.88
5/2/2022 12:15:00 AM 8.12 46.616 0.075 7.07 3.54 10.88
5/2/2022 12:30:00 AM 8.12 46.616 0.075 7.07 3.35 10.88
5/2/2022 12:45:00 AM 8.13 46.634 0.075 7.07 3.42 10.88
5/2/2022 1:00:00 AM 8.13 46.634 0.075 7.06 3.36 10.87
5/2/2022 1:15:00 AM 8.13 46.634 0.075 7.06 3.39 10.86
5/2/2022 1:30:00 AM 8.13 46.634 0.075 7.05 3.46 10.87
5/2/2022 1:45:00 AM 8.12 46.616 0.075 7.05 3.41 10.86
5/2/2022 2:00:00 AM 8.12 46.616 0.075 7.05 3.44 10.86
5/2/2022 2:15:00 AM 8.12 46.616 0.075 7.05 3.39 10.87
5/2/2022 2:30:00 AM 8.11 46.598 0.075 7.05 3.28 10.87
5/2/2022 2:45:00 AM 8.11 46.598 0.075 7.04 3.39 10.87
5/2/2022 3:00:00 AM 8.11 46.598 0.075 7.04 3.39 10.86
5/2/2022 3:15:00 AM 8.11 46.598 0.075 7.04 3.39 10.86
5/2/2022 3:30:00 AM 8.11 46.598 0.075 7.04 3.44 10.86
5/2/2022 3:45:00 AM 8.11 46.598 0.075 7.03 3.33 10.86
5/2/2022 4:00:00 AM 8.11 46.598 0.075 7.03 3.34 10.86
5/2/2022 4:15:00 AM 8.1 46.58 0.075 7.03 3.36 10.86
5/2/2022 4:30:00 AM 8.1 46.58 0.075 7.03 3.26 10.86
5/2/2022 4:45:00 AM 8.1 46.58 0.075 7.03 3.49 10.85
5/2/2022 5:00:00 AM 8.1 46.58 0.076 7.03 3.81 10.86
5/2/2022 5:15:00 AM 8.1 46.58 0.076 7.02 3.46 10.86
5/2/2022 5:30:00 AM 8.1 46.58 0.076 7.02 3.44 10.86
5/2/2022 5:45:00 AM 8.1 46.58 0.076 7.02 3.26 10.86
5/2/2022 6:00:00 AM 8.1 46.58 0.076 7.02 3.36 10.86
5/2/2022 6:15:00 AM 8.1 46.58 0.076 7.02 3.3 10.87
5/2/2022 6:30:00 AM 8.1 46.58 0.076 7.02 3.49 10.88
5/2/2022 6:45:00 AM 8.1 46.58 0.076 7.03 3.25 10.92
5/2/2022 7:00:00 AM 8.12 46.616 0.076 7.04 3.39 10.96
5/2/2022 7:15:00 AM 8.15 46.67 0.076 7.05 3.56 11.03
5/2/2022 7:30:00 AM 8.19 46.742 0.076 7.07 3.48 11.08
5/2/2022 7:45:00 AM 8.21 46.778 0.076 7.08 3.38 11.09
5/2/2022 8:00:00 AM 8.22 46.796 0.076 7.09 3.19 11.09
5/2/2022 8:15:00 AM 8.23 46.814 0.076 7.09 3.26 11.08
5/2/2022 8:30:00 AM 8.23 46.814 0.076 7.08 3.2 11.05
5/2/2022 8:45:00 AM 8.31 46.958 0.075 7.1 3.18 11.15
5/2/2022 9:00:00 AM 8.53 47.354 0.075 7.12 3.2 11.19
5/2/2022 9:15:00 AM 8.68 47.624 0.075 7.13 3.24 11.2
5/2/2022 9:30:00 AM 8.67 47.606 0.075 7.14 3.49 11.19
5/2/2022 9:45:00 AM 8.73 47.714 0.075 7.15 3.26 11.2
5/2/2022 10:00:00 AM 8.75 47.75 0.075 7.15 3.18 11.2
5/2/2022 10:15:00 AM 8.8 47.84 0.075 7.16 3.34 11.2
5/2/2022 10:30:00 AM 8.75 47.75 0.075 7.15 3.19 11.11
5/2/2022 10:45:00 AM 8.77 47.786 0.075 7.14 3.86 11.07
5/2/2022 11:00:00 AM 8.78 47.804 0.075 7.13 3.22 11.02
5/2/2022 11:15:00 AM 8.78 47.804 0.075 7.13 3.28 11.03
5/2/2022 11:30:00 AM 8.79 47.822 0.075 7.14 3.2 11.05
5/2/2022 11:45:00 AM 8.79 47.822 0.075 7.14 3.24 11.02
5/2/2022 12:00:00 PM 8.8 47.84 0.075 7.13 3.2 10.99
5/2/2022 12:15:00 PM 8.86 47.948 0.075 7.14 3.23 11.04
5/2/2022 12:30:00 PM 9.14 48.452 0.075 7.15 3.24 11.08
5/2/2022 12:45:00 PM 9.28 48.704 0.075 7.16 3.3 11.09
5/2/2022 1:00:00 PM 9.61 49.298 0.074 7.17 3.18 11.05
5/2/2022 1:15:00 PM 9.46 49.028 0.074 7.17 3.2 11.01
5/2/2022 1:30:00 PM 9.9 49.82 0.074 7.17 3.21 11
5/2/2022 1:45:00 PM 10.03 50.054 0.074 7.17 3.27 10.97
5/2/2022 2:00:00 PM 10.06 50.108 0.074 7.17 3.23 10.93
5/2/2022 2:15:00 PM 10.02 50.036 0.074 7.18 3.29 10.91
5/2/2022 2:30:00 PM 10.13 50.234 0.074 7.18 3.32 10.88
5/2/2022 2:45:00 PM 10.19 50.342 0.074 7.18 3.36 10.85
5/2/2022 3:00:00 PM 10.22 50.396 0.074 7.18 3.27 10.82
5/2/2022 3:15:00 PM 10.28 50.504 0.074 7.18 3.35 10.8
5/2/2022 3:30:00 PM 10.34 50.612 0.074 7.18 3.26 10.76
5/2/2022 3:45:00 PM 10.4 50.72 0.074 7.18 3.29 10.74
5/2/2022 4:00:00 PM 10.51 50.918 0.074 7.18 3.27 10.71
5/2/2022 4:15:00 PM 10.56 51.008 0.074 7.18 3.3 10.68
5/2/2022 4:30:00 PM 10.59 51.062 0.074 7.18 3.36 10.64
5/2/2022 4:45:00 PM 10.58 51.044 0.074 7.17 3.3 10.61
5/2/2022 5:00:00 PM 10.57 51.026 0.074 7.17 3.37 10.59
5/2/2022 5:15:00 PM 10.57 51.026 0.074 7.16 3.59 10.57
5/2/2022 5:30:00 PM 10.55 50.99 0.074 7.16 3.3 10.56
5/2/2022 5:45:00 PM 10.53 50.954 0.074 7.15 3.25 10.53
5/2/2022 6:00:00 PM 10.51 50.918 0.074 7.15 3.3 10.52
5/2/2022 6:15:00 PM 10.49 50.882 0.074 7.14 3.48 10.5
5/2/2022 6:30:00 PM 10.45 50.81 0.074 7.13 4.3 10.44
5/2/2022 6:45:00 PM 10.44 50.792 0.074 7.13 3.32 10.45
5/2/2022 7:00:00 PM 10.41 50.738 0.074 7.12 3.66 10.41
5/2/2022 7:15:00 PM 10.37 50.666 0.075 7.1 3.3 10.37
5/2/2022 7:30:00 PM 10.34 50.612 0.075 7.09 3.3 10.35
5/2/2022 7:45:00 PM 10.31 50.558 0.075 7.09 3.29 10.32
5/2/2022 8:00:00 PM 10.28 50.504 0.075 7.07 3.31 10.3
5/2/2022 8:15:00 PM 10.24 50.432 0.075 7.07 3.39 10.28
5/2/2022 8:30:00 PM 10.21 50.378 0.075 7.06 3.35 10.26
5/2/2022 8:45:00 PM 10.18 50.324 0.075 7.05 3.37 10.25
5/2/2022 9:00:00 PM 10.14 50.252 0.075 7.04 3.8 10.25
5/2/2022 9:15:00 PM 10.06 50.108 0.075 7.04 3.85 10.25
5/2/2022 9:30:00 PM 10 50 0.076 7.04 3.45 10.25
5/2/2022 9:45:00 PM 9.94 49.892 0.076 7.03 3.49 10.25
5/2/2022 10:00:00 PM 9.87 49.766 0.076 7.03 3.59 10.27
5/2/2022 10:15:00 PM 9.8 49.64 0.076 7.02 3.4 10.27
5/2/2022 10:30:00 PM 9.73 49.514 0.076 7.02 3.41 10.29
5/2/2022 10:45:00 PM 9.67 49.406 0.076 7.02 3.54 10.3
5/2/2022 11:00:00 PM 9.59 49.262 0.076 7.02 3.47 10.32
5/2/2022 11:15:00 PM 9.53 49.154 0.076 7.02 3.53 10.33
5/2/2022 11:30:00 PM 9.45 49.01 0.076 7.01 3.4 10.36
5/2/2022 11:45:00 PM 9.38 48.884 0.076 7.01 3.34 10.37
5/3/2022 12:00:00 AM 9.31 48.758 0.076 7.01 3.11 10.39
5/3/2022 12:15:00 AM 9.24 48.632 0.076 7.01 3.28 10.41
5/3/2022 12:30:00 AM 9.17 48.506 0.076 7.01 3.16 10.44
5/3/2022 12:45:00 AM 9.1 48.38 0.076 7.01 3.2 10.45
5/3/2022 1:00:00 AM 9.03 48.254 0.077 7.01 3.2 10.47
5/3/2022 1:15:00 AM 8.95 48.11 0.077 7.01 3.44 10.5
5/3/2022 1:30:00 AM 8.88 47.984 0.077 7 3.25 10.52
5/3/2022 1:45:00 AM 8.81 47.858 0.077 7.01 3.29 10.55
5/3/2022 2:00:00 AM 8.73 47.714 0.077 7 3.26 10.56
5/3/2022 2:15:00 AM 8.66 47.588 0.077 7 3.35 10.58
5/3/2022 2:30:00 AM 8.58 47.444 0.077 7 3.41 10.6
5/3/2022 2:45:00 AM 8.52 47.336 0.077 7 3.49 10.62
5/3/2022 3:00:00 AM 8.45 47.21 0.077 7 3.49 10.65
5/3/2022 3:15:00 AM 8.37 47.066 0.077 7 3.48 10.68
5/3/2022 3:30:00 AM 8.3 46.94 0.077 7 3.79 10.69
5/3/2022 3:45:00 AM 8.23 46.814 0.077 7 3.54 10.71
5/3/2022 4:00:00 AM 8.17 46.706 0.077 7 3.55 10.74
5/3/2022 4:15:00 AM 8.11 46.598 0.077 7 3.38 10.76
5/3/2022 4:30:00 AM 8.06 46.508 0.077 7 3.54 10.78
5/3/2022 4:45:00 AM 8.02 46.436 0.077 6.99 3.43 10.8
5/3/2022 5:00:00 AM 7.98 46.364 0.077 6.99 3.58 10.81
5/3/2022 5:15:00 AM 7.94 46.292 0.077 6.99 3.51 10.83
5/3/2022 5:30:00 AM 7.89 46.202 0.077 7 3.44 10.85
5/3/2022 5:45:00 AM 7.86 46.148 0.077 7 3.51 10.86
5/3/2022 6:00:00 AM 7.81 46.058 0.077 7 3.44 10.87
5/3/2022 6:15:00 AM 7.78 46.004 0.077 7 3.49 10.9
5/3/2022 6:30:00 AM 7.75 45.95 0.077 7.01 3.43 10.96
5/3/2022 6:45:00 AM 7.72 45.896 0.077 7.01 3.39 11.02
5/3/2022 7:00:00 AM 7.7 45.86 0.077 7.02 3.58 11.07
5/3/2022 7:15:00 AM 7.69 45.842 0.077 7.03 3.57 11.12
5/3/2022 7:30:00 AM 7.68 45.824 0.077 7.04 3.42 11.16
5/3/2022 7:45:00 AM 7.67 45.806 0.077 7.04 3.42 11.2
5/3/2022 8:00:00 AM 7.65 45.77 0.077 7.05 3.55 11.24
5/3/2022 8:15:00 AM 7.67 45.806 0.076 7.06 3.42 11.3
5/3/2022 8:30:00 AM 7.7 45.86 0.076 7.06 3.29 11.33
5/3/2022 8:45:00 AM 7.74 45.932 0.076 7.07 3.41 11.36
5/3/2022 9:00:00 AM 7.82 46.076 0.076 7.08 3.38 11.38
5/3/2022 9:15:00 AM 7.87 46.166 0.076 7.08 3.33 11.37
5/3/2022 9:30:00 AM 7.95 46.31 0.076 7.09 3.5 11.38
5/3/2022 9:45:00 AM 8.02 46.436 0.076 7.09 3.33 11.38
5/3/2022 10:00:00 AM 8.09 46.562 0.076 7.09 3.48 11.38
5/3/2022 10:15:00 AM 8.21 46.778 0.076 7.1 3.26 11.37
5/3/2022 10:30:00 AM 8.34 47.012 0.076 7.1 3.23 11.35
5/3/2022 10:45:00 AM 8.48 47.264 0.075 7.1 3.51 11.33
5/3/2022 11:00:00 AM 8.6 47.48 0.075 7.11 3.38 11.3
5/3/2022 11:15:00 AM 8.56 47.408 0.075 7.11 3.32 11.26
5/3/2022 11:30:00 AM 8.59 47.462 0.075 7.11 3.37 11.23
5/3/2022 11:45:00 AM 8.65 47.57 0.075 7.11 3.29 11.21
5/3/2022 12:00:00 PM 8.74 47.732 0.075 7.11 3.28 11.18
5/3/2022 12:15:00 PM 8.93 48.074 0.075 7.12 3.3 11.16
5/3/2022 12:30:00 PM 9.09 48.362 0.075 7.12 3.24 11.13
5/3/2022 12:45:00 PM 9.23 48.614 0.075 7.12 3.32 11.09
5/3/2022 1:00:00 PM 9.31 48.758 0.075 7.12 3.26 11.05
5/3/2022 1:15:00 PM 9.41 48.938 0.075 7.12 3.22 11.01
5/3/2022 1:30:00 PM 9.48 49.064 0.075 7.12 3.17 10.96
5/3/2022 1:45:00 PM 9.56 49.208 0.075 7.12 3.25 10.93
5/3/2022 2:00:00 PM 9.61 49.298 0.075 7.12 3.11 10.89
5/3/2022 2:15:00 PM 9.61 49.298 0.075 7.12 3.12 10.83
5/3/2022 2:30:00 PM 9.63 49.334 0.075 7.11 3.16 10.78
5/3/2022 2:45:00 PM 9.73 49.514 0.075 7.11 3.44 10.77
5/3/2022 3:00:00 PM 9.79 49.622 0.075 7.11 3.21 10.75
5/3/2022 3:15:00 PM 9.85 49.73 0.075 7.11 3.32 10.72
5/3/2022 3:30:00 PM 9.91 49.838 0.075 7.11 3.18 10.69
5/3/2022 3:45:00 PM 9.94 49.892 0.075 7.11 3.15 10.64
5/3/2022 4:00:00 PM 9.98 49.964 0.075 7.1 3.08 10.6
5/3/2022 4:15:00 PM 10.03 50.054 0.075 7.1 3.24 10.58
5/3/2022 4:30:00 PM 10.07 50.126 0.075 7.1 3.15 10.56
5/3/2022 4:45:00 PM 10.09 50.162 0.075 7.09 3.23 10.51
5/3/2022 5:00:00 PM 10.2 50.36 0.075 7.1 3.14 10.53
5/3/2022 5:15:00 PM 10.27 50.486 0.075 7.1 3.14 10.52
5/3/2022 5:30:00 PM 10.29 50.522 0.075 7.1 3.13 10.47
5/3/2022 5:45:00 PM 10.32 50.576 0.075 7.09 3.06 10.45
5/3/2022 6:00:00 PM 10.35 50.63 0.075 7.09 3.15 10.42
5/3/2022 6:15:00 PM 10.39 50.702 0.075 7.09 3.06 10.43
5/3/2022 6:30:00 PM 10.39 50.702 0.075 7.09 3.01 10.39
5/3/2022 6:45:00 PM 10.42 50.756 0.075 7.08 3.06 10.36
5/3/2022 7:00:00 PM 10.43 50.774 0.075 7.07 2.97 10.29
5/3/2022 7:15:00 PM 10.43 50.774 0.075 7.07 3.07 10.25
5/3/2022 7:30:00 PM 10.45 50.81 0.075 7.06 3.02 10.2
5/3/2022 7:45:00 PM 10.44 50.792 0.075 7.05 3 10.14
5/3/2022 8:00:00 PM 10.43 50.774 0.075 7.04 3.27 10.08
5/3/2022 8:15:00 PM 10.44 50.792 0.075 7.03 3.62 10.05
5/3/2022 8:30:00 PM 10.45 50.81 0.075 7.02 3.73 10.03
5/3/2022 8:45:00 PM 10.45 50.81 0.075 7.02 3.65 10.03
5/3/2022 9:00:00 PM 10.46 50.828 0.075 7.02 3.79 10.01
5/3/2022 9:15:00 PM 10.46 50.828 0.075 7.02 3.46 10.02
5/3/2022 9:30:00 PM 10.45 50.81 0.076 7.02 3.52 10.03
5/3/2022 9:45:00 PM 10.45 50.81 0.076 7.03 3.79 10.03
5/3/2022 10:00:00 PM 10.44 50.792 0.076 7.03 3.83 10.05
5/3/2022 10:15:00 PM 10.41 50.738 0.076 7.04 3.59 10.08
5/3/2022 10:30:00 PM 10.37 50.666 0.076 7.04 3.81 10.11
5/3/2022 10:45:00 PM 10.35 50.63 0.076 7.04 3.68 10.13
5/3/2022 11:00:00 PM 10.32 50.576 0.076 7.04 3.82 10.15
5/3/2022 11:15:00 PM 10.29 50.522 0.076 7.05 4.6 10.17
5/3/2022 11:30:00 PM 10.26 50.468 0.076 7.05 4.04 10.19
5/3/2022 11:45:00 PM 10.24 50.432 0.076 7.05 4.09 10.21
5/4/2022 12:00:00 AM 10.22 50.396 0.076 7.06 3.94 10.25
5/4/2022 12:15:00 AM 10.2 50.36 0.076 7.06 3.93 10.26
5/4/2022 12:30:00 AM 10.18 50.324 0.076 7.06 3.93 10.29
5/4/2022 12:45:00 AM 10.16 50.288 0.076 7.06 4.12 10.3
5/4/2022 1:00:00 AM 10.14 50.252 0.077 7.06 4.34 10.32
5/4/2022 1:15:00 AM 10.13 50.234 0.077 7.07 4.44 10.32
5/4/2022 1:30:00 AM 10.12 50.216 0.077 7.07 4.22 10.32
5/4/2022 1:45:00 AM 10.12 50.216 0.077 7.07 4.04 10.3
5/4/2022 2:00:00 AM 10.1 50.18 0.077 7.07 4.07 10.31
5/4/2022 2:15:00 AM 10.09 50.162 0.077 7.07 4.29 10.31
5/4/2022 2:30:00 AM 10.08 50.144 0.077 7.07 4.03 10.29
5/4/2022 2:45:00 AM 10.07 50.126 0.078 7.07 4 10.3
5/4/2022 3:00:00 AM 10.06 50.108 0.078 7.07 4.03 10.29
5/4/2022 3:15:00 AM 10.04 50.072 0.078 7.07 4.28 10.29
5/4/2022 3:30:00 AM 10.04 50.072 0.078 7.06 3.95 10.28
5/4/2022 3:45:00 AM 10.03 50.054 0.078 7.06 3.83 10.28
5/4/2022 4:00:00 AM 10.02 50.036 0.078 7.06 3.82 10.27
5/4/2022 4:15:00 AM 10.01 50.018 0.079 7.06 3.74 10.27
5/4/2022 4:30:00 AM 10 50 0.079 7.06 4.02 10.26
5/4/2022 4:45:00 AM 9.99 49.982 0.079 7.06 3.86 10.26
5/4/2022 5:00:00 AM 9.99 49.982 0.079 7.06 3.6 10.26
5/4/2022 5:15:00 AM 9.98 49.964 0.079 7.05 3.57 10.24
5/4/2022 5:30:00 AM 9.96 49.928 0.079 7.05 3.89 10.25
5/4/2022 5:45:00 AM 9.96 49.928 0.079 7.05 3.84 10.24
5/4/2022 6:00:00 AM 9.94 49.892 0.079 7.05 3.69 10.24
5/4/2022 6:15:00 AM 9.93 49.874 0.079 7.04 3.75 10.24
5/4/2022 6:30:00 AM 9.91 49.838 0.079 7.04 4.09 10.24
5/4/2022 6:45:00 AM 9.9 49.82 0.079 7.04 4.5 10.25
5/4/2022 7:00:00 AM 9.89 49.802 0.08 7.04 3.74 10.26
5/4/2022 7:15:00 AM 9.88 49.784 0.08 7.04 3.75 10.27
5/4/2022 7:30:00 AM 9.88 49.784 0.079 7.05 3.68 10.32
5/4/2022 7:45:00 AM 9.87 49.766 0.079 7.05 3.56 10.34
5/4/2022 8:00:00 AM 9.88 49.784 0.079 7.06 3.69 10.38
5/4/2022 8:15:00 AM 9.88 49.784 0.079 7.07 3.95 10.45
5/4/2022 8:30:00 AM 9.9 49.82 0.079 7.08 3.65 10.5
5/4/2022 8:45:00 AM 9.91 49.838 0.079 7.09 3.6 10.55
5/4/2022 9:00:00 AM 9.9 49.82 0.079 7.1 3.82 10.56
5/4/2022 9:15:00 AM 9.96 49.928 0.079 7.11 3.73 10.63
5/4/2022 9:30:00 AM 9.98 49.964 0.078 7.12 3.64 10.66
5/4/2022 9:45:00 AM 9.97 49.946 0.078 7.13 3.79 10.65
5/4/2022 10:00:00 AM 10 50 0.078 7.14 4.16 10.68
5/4/2022 10:15:00 AM 10.05 50.09 0.078 7.15 3.99 10.71
5/4/2022 10:30:00 AM 10.12 50.216 0.078 7.16 3.83 10.75
5/4/2022 10:45:00 AM 10.16 50.288 0.078 7.17 3.87 10.76
5/4/2022 11:00:00 AM 10.2 50.36 0.078 7.17 4.16 10.74
5/4/2022 11:15:00 AM 10.38 50.684 0.077 7.17 3.98 10.76
5/4/2022 11:30:00 AM 10.59 51.062 0.077 7.18 4.02 10.75
5/4/2022 11:45:00 AM 10.57 51.026 0.077 7.18 3.84 10.71
5/4/2022 12:00:00 PM 10.6 51.08 0.077 7.18 3.77 10.66
5/4/2022 12:15:00 PM 10.63 51.134 0.077 7.18 4.03 10.65
5/4/2022 12:30:00 PM 10.73 51.314 0.077 7.18 3.96 10.62
5/4/2022 12:45:00 PM 10.79 51.422 0.077 7.18 3.79 10.63
5/4/2022 1:00:00 PM 10.96 51.728 0.077 7.19 3.71 10.61
5/4/2022 1:15:00 PM 10.94 51.692 0.077 7.18 3.93 10.55
5/4/2022 1:30:00 PM 11.02 51.836 0.077 7.19 3.57 10.56
5/4/2022 1:45:00 PM 11.12 52.016 0.077 7.2 3.86 10.57
5/4/2022 2:00:00 PM 11.15 52.07 0.077 7.2 3.81 10.55
5/4/2022 2:15:00 PM 11.22 52.196 0.077 7.2 3.86 10.54
5/4/2022 2:30:00 PM 11.35 52.43 0.077 7.21 3.84 10.54
5/4/2022 2:45:00 PM 11.38 52.484 0.077 7.21 3.78 10.52
5/4/2022 3:00:00 PM 11.48 52.664 0.077 7.21 3.66 10.51
5/4/2022 3:15:00 PM 11.5 52.7 0.077 7.21 3.85 10.49
5/4/2022 3:30:00 PM 11.47 52.646 0.077 7.21 4.22 10.46
5/4/2022 3:45:00 PM 11.45 52.61 0.077 7.2 4.13 10.44
5/4/2022 4:00:00 PM 11.41 52.538 0.077 7.19 4.01 10.41
5/4/2022 4:15:00 PM 11.37 52.466 0.077 7.19 3.95 10.38
5/4/2022 4:30:00 PM 11.4 52.52 0.077 7.18 4.01 10.39
5/4/2022 4:45:00 PM 11.37 52.466 0.077 7.18 3.92 10.36
5/4/2022 5:00:00 PM 11.36 52.448 0.077 7.17 4.11 10.33
5/4/2022 5:15:00 PM 11.33 52.394 0.077 7.16 4.04 10.3
5/4/2022 5:30:00 PM 11.32 52.376 0.077 7.16 3.99 10.3
5/4/2022 5:45:00 PM 11.28 52.304 0.077 7.15 4.07 10.29
5/4/2022 6:00:00 PM 11.27 52.286 0.078 7.15 4.02 10.31
5/4/2022 6:15:00 PM 11.22 52.196 0.078 7.14 4.12 10.27
5/4/2022 6:30:00 PM 11.2 52.16 0.078 7.14 4.19 10.28
5/4/2022 6:45:00 PM 11.16 52.088 0.078 7.14 3.92 10.27
5/4/2022 7:00:00 PM 11.13 52.034 0.078 7.13 4.05 10.26
5/4/2022 7:15:00 PM 11.07 51.926 0.078 7.12 4.14 10.21
5/4/2022 7:30:00 PM 11.03 51.854 0.078 7.11 4.76 10.18
5/4/2022 7:45:00 PM 10.98 51.764 0.078 7.1 4.03 10.14
5/4/2022 8:00:00 PM 10.93 51.674 0.078 7.09 4.05 10.11
5/4/2022 8:15:00 PM 10.89 51.602 0.078 7.08 4.08 10.09
5/4/2022 8:30:00 PM 10.84 51.512 0.079 7.07 4.08 10.07
5/4/2022 8:45:00 PM 10.8 51.44 0.079 7.06 4.12 10.06
5/4/2022 9:00:00 PM 10.76 51.368 0.079 7.05 4.18 10.05
5/4/2022 9:15:00 PM 10.72 51.296 0.079 7.05 4.07 10.04
5/4/2022 9:30:00 PM 10.67 51.206 0.079 7.04 4.16 10.04
5/4/2022 9:45:00 PM 10.63 51.134 0.079 7.04 4.24 10.03
5/4/2022 10:00:00 PM 10.6 51.08 0.079 7.04 4.17 10.04
5/4/2022 10:15:00 PM 10.56 51.008 0.079 7.03 4.29 10.05
5/4/2022 10:30:00 PM 10.52 50.936 0.079 7.03 4.33 10.05
5/4/2022 10:45:00 PM 10.48 50.864 0.079 7.03 4.13 10.06
5/4/2022 11:00:00 PM 10.44 50.792 0.079 7.02 4.18 10.06
5/4/2022 11:15:00 PM 10.4 50.72 0.079 7.02 4.33 10.07
5/4/2022 11:30:00 PM 10.37 50.666 0.08 7.02 4.44 10.08
5/4/2022 11:45:00 PM 10.33 50.594 0.08 7.02 4.2 10.08
5/5/2022 12:00:00 AM 10.28 50.504 0.08 7.01 4.14 10.08
5/5/2022 12:15:00 AM 10.24 50.432 0.08 7.01 4.16 10.1
5/5/2022 12:30:00 AM 10.2 50.36 0.08 7.01 4.49 10.1
5/5/2022 12:45:00 AM 10.16 50.288 0.08 7.01 4.3 10.11
5/5/2022 1:00:00 AM 10.12 50.216 0.08 7 4.19 10.11
5/5/2022 1:15:00 AM 10.06 50.108 0.08 7 4.23 10.12
5/5/2022 1:30:00 AM 10.02 50.036 0.08 7 4.16 10.13
5/5/2022 1:45:00 AM 9.97 49.946 0.08 7 4.07 10.14
5/5/2022 2:00:00 AM 9.91 49.838 0.08 7 4.24 10.16
5/5/2022 2:15:00 AM 9.86 49.748 0.08 7 4.14 10.17
5/5/2022 2:30:00 AM 9.81 49.658 0.08 7 4.04 10.17
5/5/2022 2:45:00 AM 9.76 49.568 0.08 7 4.47 10.19
5/5/2022 3:00:00 AM 9.7 49.46 0.08 7 4.1 10.2
5/5/2022 3:15:00 AM 9.65 49.37 0.08 7 4.11 10.22
5/5/2022 3:30:00 AM 9.6 49.28 0.08 6.99 4.01 10.23
5/5/2022 3:45:00 AM 9.55 49.19 0.08 6.99 4 10.24
5/5/2022 4:00:00 AM 9.5 49.1 0.08 6.99 4.1 10.25
5/5/2022 4:15:00 AM 9.45 49.01 0.08 6.99 4.18 10.25
5/5/2022 4:30:00 AM 9.4 48.92 0.08 6.99 4.69 10.27
5/5/2022 4:45:00 AM 9.34 48.812 0.08 6.98 4.12 10.28
5/5/2022 5:00:00 AM 9.28 48.704 0.08 6.99 4 10.3
5/5/2022 5:15:00 AM 9.23 48.614 0.08 6.98 3.97 10.31
5/5/2022 5:30:00 AM 9.18 48.524 0.08 6.98 4.19 10.33
5/5/2022 5:45:00 AM 9.13 48.434 0.08 6.98 4.17 10.33
5/5/2022 6:00:00 AM 9.08 48.344 0.08 6.98 4.31 10.35
5/5/2022 6:15:00 AM 9.04 48.272 0.08 6.98 4.07 10.38
5/5/2022 6:30:00 AM 9.02 48.236 0.08 6.99 4.17 10.41
5/5/2022 6:45:00 AM 8.99 48.182 0.08 6.99 4.03 10.46
5/5/2022 7:00:00 AM 8.96 48.128 0.08 6.99 4.07 10.5
5/5/2022 7:15:00 AM 8.92 48.056 0.08 7 4.1 10.55
5/5/2022 7:30:00 AM 8.9 48.02 0.08 7 4.02 10.6
5/5/2022 7:45:00 AM 8.91 48.038 0.08 7.01 4.13 10.65
5/5/2022 8:00:00 AM 8.92 48.056 0.079 7.02 4.12 10.68
5/5/2022 8:15:00 AM 8.94 48.092 0.079 7.03 4.05 10.73
5/5/2022 8:30:00 AM 8.96 48.128 0.079 7.03 4.1 10.76
5/5/2022 8:45:00 AM 8.99 48.182 0.079 7.04 3.99 10.79
5/5/2022 9:00:00 AM 9.05 48.29 0.079 7.04 3.99 10.83
5/5/2022 9:15:00 AM 9.12 48.416 0.079 7.05 3.95 10.85
5/5/2022 9:30:00 AM 9.19 48.542 0.079 7.05 3.95 10.87
5/5/2022 9:45:00 AM 9.26 48.668 0.079 7.05 3.97 10.86
5/5/2022 10:00:00 AM 9.33 48.794 0.079 7.06 4.06 10.89
5/5/2022 10:15:00 AM 9.39 48.902 0.079 7.06 4.07 10.89
5/5/2022 10:30:00 AM 9.5 49.1 0.078 7.07 3.97 10.88
5/5/2022 10:45:00 AM 9.64 49.352 0.078 7.07 4.03 10.86
5/5/2022 11:00:00 AM 9.77 49.586 0.078 7.07 4.2 10.84
5/5/2022 11:15:00 AM 9.92 49.856 0.078 7.07 4.01 10.81
5/5/2022 11:30:00 AM 10.08 50.144 0.078 7.07 3.79 10.78
5/5/2022 11:45:00 AM 10.19 50.342 0.078 7.07 4.07 10.75
5/5/2022 12:00:00 PM 10.34 50.612 0.078 7.07 3.7 10.71
5/5/2022 12:15:00 PM 10.52 50.936 0.078 7.07 3.7 10.66
5/5/2022 12:30:00 PM 10.67 51.206 0.078 7.07 3.81 10.62
5/5/2022 12:45:00 PM 10.82 51.476 0.078 7.07 3.73 10.57
5/5/2022 1:00:00 PM 10.86 51.548 0.078 7.07 3.72 10.52
5/5/2022 1:15:00 PM 10.93 51.674 0.077 7.07 3.87 10.48
5/5/2022 1:30:00 PM 11.08 51.944 0.077 7.07 3.86 10.43
5/5/2022 1:45:00 PM 11.17 52.106 0.077 7.07 3.97 10.36
5/5/2022 2:00:00 PM 11.34 52.412 0.077 7.07 3.94 10.33
5/5/2022 2:15:00 PM 11.48 52.664 0.077 7.07 3.85 10.28
5/5/2022 2:30:00 PM 11.59 52.862 0.077 7.06 3.73 10.22
5/5/2022 2:45:00 PM 11.71 53.078 0.077 7.07 3.67 10.17
5/5/2022 3:00:00 PM 11.72 53.096 0.077 7.06 3.78 10.12
5/5/2022 3:15:00 PM 11.78 53.204 0.077 7.06 3.71 10.08
5/5/2022 3:30:00 PM 11.9 53.42 0.077 7.06 3.8 10.03
5/5/2022 3:45:00 PM 11.94 53.492 0.077 7.06 3.84 9.98
5/5/2022 4:00:00 PM 12.02 53.636 0.077 7.06 3.71 9.95
5/5/2022 4:15:00 PM 12.14 53.852 0.077 7.06 3.78 9.91
5/5/2022 4:30:00 PM 12.11 53.798 0.077 7.05 3.69 9.86
5/5/2022 4:45:00 PM 12.16 53.888 0.077 7.05 3.69 9.82
5/5/2022 5:00:00 PM 12.23 54.014 0.077 7.05 3.72 9.77
5/5/2022 5:15:00 PM 12.27 54.086 0.077 7.04 3.8 9.73
5/5/2022 5:30:00 PM 12.28 54.104 0.077 7.04 3.85 9.69
5/5/2022 5:45:00 PM 12.32 54.176 0.077 7.03 3.73 9.64
5/5/2022 6:00:00 PM 12.35 54.23 0.077 7.03 3.73 9.6
5/5/2022 6:15:00 PM 12.37 54.266 0.077 7.02 3.72 9.57
5/5/2022 6:30:00 PM 12.4 54.32 0.077 7.02 3.82 9.54
5/5/2022 6:45:00 PM 12.39 54.302 0.077 7.01 3.69 9.49
5/5/2022 7:00:00 PM 12.4 54.32 0.078 7 3.81 9.44
5/5/2022 7:15:00 PM 12.4 54.32 0.078 7 3.8 9.38
5/5/2022 7:30:00 PM 12.39 54.302 0.078 6.99 3.73 9.34
5/5/2022 7:45:00 PM 12.37 54.266 0.078 6.98 3.72 9.27
5/5/2022 8:00:00 PM 12.36 54.248 0.078 6.97 3.75 9.26
5/5/2022 8:15:00 PM 12.35 54.23 0.078 6.97 3.8 9.22
5/5/2022 8:30:00 PM 12.32 54.176 0.078 6.96 3.76 9.19
5/5/2022 8:45:00 PM 12.32 54.176 0.078 6.95 3.83 9.17
5/5/2022 9:00:00 PM 12.28 54.104 0.078 6.95 3.78 9.16
5/5/2022 9:15:00 PM 12.23 54.014 0.079 6.95 3.73 9.17
5/5/2022 9:30:00 PM 12.2 53.96 0.079 6.95 3.73 9.16
5/5/2022 9:45:00 PM 12.16 53.888 0.079 6.94 3.65 9.17
5/5/2022 10:00:00 PM 12.11 53.798 0.079 6.94 3.6 9.16
5/5/2022 10:15:00 PM 12.06 53.708 0.079 6.94 3.81 9.17
5/5/2022 10:30:00 PM 12.01 53.618 0.079 6.94 3.82 9.18
5/5/2022 10:45:00 PM 11.96 53.528 0.079 6.94 3.84 9.21
5/5/2022 11:00:00 PM 11.91 53.438 0.079 6.93 3.79 9.21
5/5/2022 11:15:00 PM 11.85 53.33 0.079 6.93 3.8 9.23
5/5/2022 11:30:00 PM 11.79 53.222 0.079 6.93 3.88 9.24
5/5/2022 11:45:00 PM 11.72 53.096 0.079 6.93 3.76 9.28
5/6/2022 12:00:00 AM 11.67 53.006 0.08 6.93 3.82 9.29
5/6/2022 12:15:00 AM 11.61 52.898 0.08 6.93 3.94 9.31
5/6/2022 12:30:00 AM 11.55 52.79 0.08 6.93 3.72 9.33
5/6/2022 12:45:00 AM 11.49 52.682 0.08 6.93 4.03 9.35
5/6/2022 1:00:00 AM 11.43 52.574 0.08 6.93 3.68 9.37
5/6/2022 1:15:00 AM 11.36 52.448 0.08 6.93 3.7 9.39
5/6/2022 1:30:00 AM 11.3 52.34 0.08 6.93 3.7 9.42
5/6/2022 1:45:00 AM 11.24 52.232 0.08 6.93 3.69 9.43
5/6/2022 2:00:00 AM 11.18 52.124 0.08 6.92 3.77 9.45
5/6/2022 2:15:00 AM 11.12 52.016 0.08 6.93 3.79 9.48
5/6/2022 2:30:00 AM 11.06 51.908 0.08 6.93 3.61 9.49
5/6/2022 2:45:00 AM 11 51.8 0.08 6.93 3.64 9.51
5/6/2022 3:00:00 AM 10.95 51.71 0.08 6.93 3.93 9.54
5/6/2022 3:15:00 AM 10.88 51.584 0.08 6.92 3.66 9.55
5/6/2022 3:30:00 AM 10.82 51.476 0.08 6.92 3.63 9.57
5/6/2022 3:45:00 AM 10.76 51.368 0.08 6.92 3.72 9.58
5/6/2022 4:00:00 AM 10.71 51.278 0.08 6.92 3.76 9.59
5/6/2022 4:15:00 AM 10.65 51.17 0.08 6.93 3.67 9.63
5/6/2022 4:30:00 AM 10.59 51.062 0.08 6.92 3.71 9.64
5/6/2022 4:45:00 AM 10.53 50.954 0.08 6.92 3.79 9.65
5/6/2022 5:00:00 AM 10.48 50.864 0.08 6.93 3.69 9.67
5/6/2022 5:15:00 AM 10.42 50.756 0.08 6.93 3.71 9.69
5/6/2022 5:30:00 AM 10.37 50.666 0.08 6.93 3.71 9.71
5/6/2022 5:45:00 AM 10.31 50.558 0.08 6.93 3.79 9.74
5/6/2022 6:00:00 AM 10.26 50.468 0.08 6.93 3.8 9.76
5/6/2022 6:15:00 AM 10.21 50.378 0.08 6.93 3.75 9.78
5/6/2022 6:30:00 AM 10.16 50.288 0.08 6.94 3.67 9.82
5/6/2022 6:45:00 AM 10.11 50.198 0.08 6.94 5.16 9.86
5/6/2022 7:00:00 AM 10.07 50.126 0.08 6.94 3.73 9.9
5/6/2022 7:15:00 AM 10.03 50.054 0.08 6.95 3.68 9.94
5/6/2022 7:30:00 AM 10 50 0.08 6.96 3.71 9.99
5/6/2022 7:45:00 AM 9.96 49.928 0.079 6.97 3.63 10.07
5/6/2022 8:00:00 AM 9.93 49.874 0.079 6.97 3.68 10.13
5/6/2022 8:15:00 AM 9.9 49.82 0.079 6.98 3.71 10.17
5/6/2022 8:30:00 AM 9.86 49.748 0.079 6.98 3.68 10.17
5/6/2022 8:45:00 AM 9.85 49.73 0.079 6.99 3.67 10.27
5/6/2022 9:00:00 AM 9.84 49.712 0.079 7 3.63 10.33
5/6/2022 9:15:00 AM 9.81 49.658 0.079 7.01 3.7 10.36
5/6/2022 9:30:00 AM 9.78 49.604 0.079 7.01 3.69 10.37
5/6/2022 9:45:00 AM 9.75 49.55 0.079 7.02 3.8 10.41
5/6/2022 10:00:00 AM 9.73 49.514 0.078 7.02 3.76 10.45
5/6/2022 10:15:00 AM 9.71 49.478 0.078 7.03 3.92 10.5
5/6/2022 10:30:00 AM 9.7 49.46 0.078 7.04 4.14 10.54
5/6/2022 10:45:00 AM 9.69 49.442 0.078 7.05 3.98 10.56
5/6/2022 11:00:00 AM 9.68 49.424 0.078 7.06 3.89 10.61
5/6/2022 11:15:00 AM 9.67 49.406 0.078 7.07 3.97 10.63
5/6/2022 11:30:00 AM 9.67 49.406 0.078 7.08 3.94 10.65
5/6/2022 11:45:00 AM 9.67 49.406 0.078 7.09 4.1 10.7
5/6/2022 12:00:00 PM 9.68 49.424 0.077 7.1 3.96 10.73
5/6/2022 12:15:00 PM 9.69 49.442 0.077 7.11 4.14 10.76
5/6/2022 12:30:00 PM 9.71 49.478 0.077 7.13 4.13 10.78
5/6/2022 12:45:00 PM 9.73 49.514 0.077 7.14 4.35 10.81
5/6/2022 1:00:00 PM 9.74 49.532 0.077 7.14 4.28 10.81
5/6/2022 1:15:00 PM 9.75 49.55 0.076 7.15 4.44 10.8
5/6/2022 1:30:00 PM 9.75 49.55 0.076 7.15 4.61 10.79
5/6/2022 1:45:00 PM 9.75 49.55 0.076 7.15 4.63 10.78
5/6/2022 2:00:00 PM 9.76 49.568 0.076 7.16 4.66 10.79
5/6/2022 2:15:00 PM 9.79 49.622 0.076 7.17 4.62 10.82
5/6/2022 2:30:00 PM 9.79 49.622 0.076 7.17 4.71 10.8
5/6/2022 2:45:00 PM 9.81 49.658 0.076 7.18 5.06 10.81
5/6/2022 3:00:00 PM 9.82 49.676 0.076 7.18 4.97 10.82
5/6/2022 3:15:00 PM 9.84 49.712 0.076 7.2 4.98 10.84
5/6/2022 3:30:00 PM 9.84 49.712 0.076 7.2 5.25 10.84
5/6/2022 3:45:00 PM 9.86 49.748 0.076 7.21 5.32 10.85
5/6/2022 4:00:00 PM 9.89 49.802 0.076 7.22 5.5 10.86
5/6/2022 4:15:00 PM 9.89 49.802 0.075 7.22 5.54 10.85
5/6/2022 4:30:00 PM 9.88 49.784 0.075 7.22 6.06 10.84
5/6/2022 4:45:00 PM 9.88 49.784 0.075 7.22 5.79 10.83
5/6/2022 5:00:00 PM 9.87 49.766 0.075 7.22 6.36 10.83
5/6/2022 5:15:00 PM 9.86 49.748 0.075 7.22 5.81 10.83
5/6/2022 5:30:00 PM 9.86 49.748 0.075 7.22 6.08 10.82
5/6/2022 5:45:00 PM 9.87 49.766 0.075 7.22 6.37 10.82
5/6/2022 6:00:00 PM 9.87 49.766 0.076 7.22 6.33 10.8
5/6/2022 6:15:00 PM 9.86 49.748 0.076 7.22 6.45 10.78
5/6/2022 6:30:00 PM 9.86 49.748 0.077 7.22 6.35 10.78
5/6/2022 6:45:00 PM 9.85 49.73 0.077 7.21 6.2 10.75
5/6/2022 7:00:00 PM 9.83 49.694 0.078 7.21 6.84 10.72
5/6/2022 7:15:00 PM 9.82 49.676 0.078 7.2 6.3 10.69
5/6/2022 7:30:00 PM 9.8 49.64 0.079 7.19 6.67 10.67
5/6/2022 7:45:00 PM 9.79 49.622 0.08 7.19 6.49 10.65
5/6/2022 8:00:00 PM 9.77 49.586 0.08 7.18 6.29 10.63
5/6/2022 8:15:00 PM 9.74 49.532 0.081 7.18 6.01 10.61
5/6/2022 8:30:00 PM 9.72 49.496 0.082 7.17 6.28 10.59
5/6/2022 8:45:00 PM 9.7 49.46 0.082 7.16 5.81 10.59
5/6/2022 9:00:00 PM 9.68 49.424 0.082 7.16 5.81 10.58
5/6/2022 9:15:00 PM 9.65 49.37 0.083 7.16 5.98 10.58
5/6/2022 9:30:00 PM 9.63 49.334 0.083 7.16 5.97 10.57
5/6/2022 9:45:00 PM 9.61 49.298 0.083 7.15 5.72 10.57
5/6/2022 10:00:00 PM 9.59 49.262 0.083 7.15 5.87 10.57
5/6/2022 10:15:00 PM 9.56 49.208 0.083 7.15 5.71 10.58
5/6/2022 10:30:00 PM 9.54 49.172 0.083 7.15 5.72 10.58
5/6/2022 10:45:00 PM 9.52 49.136 0.083 7.15 5.9 10.59
5/6/2022 11:00:00 PM 9.49 49.082 0.083 7.14 5.66 10.59
5/6/2022 11:15:00 PM 9.47 49.046 0.083 7.14 5.79 10.59
5/6/2022 11:30:00 PM 9.44 48.992 0.083 7.14 5.86 10.6
5/6/2022 11:45:00 PM 9.42 48.956 0.083 7.14 5.79 10.6
5/7/2022 12:00:00 AM 9.4 48.92 0.083 7.14 5.9 10.6
5/7/2022 12:15:00 AM 9.38 48.884 0.083 7.14 5.63 10.61
5/7/2022 12:30:00 AM 9.36 48.848 0.083 7.14 5.73 10.61
5/7/2022 12:45:00 AM 9.33 48.794 0.083 7.14 5.63 10.62
5/7/2022 1:00:00 AM 9.31 48.758 0.082 7.13 5.62 10.62
5/7/2022 1:15:00 AM 9.28 48.704 0.082 7.14 5.76 10.63
5/7/2022 1:30:00 AM 9.26 48.668 0.082 7.14 5.76 10.64
5/7/2022 1:45:00 AM 9.24 48.632 0.082 7.14 5.6 10.64
5/7/2022 2:00:00 AM 9.22 48.596 0.082 7.13 5.6 10.65
5/7/2022 2:15:00 AM 9.2 48.56 0.082 7.14 6.19 10.65
5/7/2022 2:30:00 AM 9.18 48.524 0.082 7.13 5.68 10.66
5/7/2022 2:45:00 AM 9.16 48.488 0.082 7.14 5.2 10.66
5/7/2022 3:00:00 AM 9.14 48.452 0.082 7.14 5.21 10.67
5/7/2022 3:15:00 AM 9.12 48.416 0.082 7.14 5.18 10.68
5/7/2022 3:30:00 AM 9.11 48.398 0.082 7.14 5.18 10.68
5/7/2022 3:45:00 AM 9.09 48.362 0.082 7.14 5.24 10.68
5/7/2022 4:00:00 AM 9.07 48.326 0.082 7.14 5.39 10.68
5/7/2022 4:15:00 AM 9.05 48.29 0.082 7.14 5.09 10.69
5/7/2022 4:30:00 AM 9.03 48.254 0.082 7.14 5.24 10.69
5/7/2022 4:45:00 AM 9.01 48.218 0.082 7.14 5.4 10.7
5/7/2022 5:00:00 AM 8.99 48.182 0.082 7.14 5.36 10.7
5/7/2022 5:15:00 AM 8.98 48.164 0.082 7.13 5.17 10.7
5/7/2022 5:30:00 AM 8.96 48.128 0.082 7.14 5 10.7
5/7/2022 5:45:00 AM 8.94 48.092 0.082 7.13 5.03 10.71
5/7/2022 6:00:00 AM 8.93 48.074 0.082 7.13 4.95 10.71
5/7/2022 6:15:00 AM 8.91 48.038 0.082 7.13 5.06 10.72
5/7/2022 6:30:00 AM 8.89 48.002 0.082 7.14 5.04 10.74
5/7/2022 6:45:00 AM 8.88 47.984 0.082 7.14 4.94 10.75
5/7/2022 7:00:00 AM 8.86 47.948 0.082 7.14 4.88 10.78
5/7/2022 7:15:00 AM 8.84 47.912 0.082 7.15 4.97 10.81
5/7/2022 7:30:00 AM 8.81 47.858 0.082 7.15 4.69 10.84
5/7/2022 7:45:00 AM 8.79 47.822 0.082 7.16 4.72 10.87
5/7/2022 8:00:00 AM 8.78 47.804 0.082 7.16 4.75 10.91
5/7/2022 8:15:00 AM 8.77 47.786 0.082 7.17 4.67 10.96
5/7/2022 8:30:00 AM 8.76 47.768 0.082 7.19 4.54 11.01
5/7/2022 8:45:00 AM 8.76 47.768 0.082 7.19 4.42 11.05
5/7/2022 9:00:00 AM 8.75 47.75 0.082 7.2 4.5 11.08
5/7/2022 9:15:00 AM 8.75 47.75 0.082 7.21 4.55 11.11
5/7/2022 9:30:00 AM 8.77 47.786 0.082 7.22 4.47 11.14
5/7/2022 9:45:00 AM 8.78 47.804 0.081 7.23 4.47 11.16
5/7/2022 10:00:00 AM 8.79 47.822 0.081 7.23 4.48 11.17
5/7/2022 10:15:00 AM 8.81 47.858 0.081 7.24 4.51 11.19
5/7/2022 10:30:00 AM 8.85 47.93 0.081 7.25 4.49 11.2
5/7/2022 10:45: